Provisional Data: Yellow Breeches Creek near Lisburn, PA


Please select a monitoring station.
Please select start date.
Please select start date.

Toggle Unit: C/F Toggle Unit: C/F
Sample Time Temperature (C) Temperature (F) Specific Conductivity (mS/cm) pH   Turbidity (NTU+) DO (mg/L)
5/4/2021 12:00:00 AM 16.92 62.456 0.291 7.25 268 8.22
5/4/2021 12:15:00 AM 16.9 62.42 0.284 7.25 273 8.2
5/4/2021 12:30:00 AM 16.87 62.366 0.279 7.24 268.3 8.18
5/4/2021 12:45:00 AM 16.84 62.312 0.288 7.24 282.2 8.18
5/4/2021 1:00:00 AM 16.8 62.24 0.284 7.23 297.2 8.17
5/4/2021 1:15:00 AM 16.77 62.186 0.28 7.23 287.5 8.19
5/4/2021 1:30:00 AM 16.73 62.114 0.284 7.22 267.2 8.19
5/4/2021 1:45:00 AM 16.69 62.042 0.287 7.21 371.5 8.15
5/4/2021 2:00:00 AM 16.66 61.988 0.282 7.2 295.6 8.13
5/4/2021 2:15:00 AM 16.62 61.916 0.283 7.19 301.7 8.11
5/4/2021 2:30:00 AM 16.58 61.844 0.28 7.18 302.6 8.06
5/4/2021 2:45:00 AM 16.54 61.772 0.281 7.18 281.1 7.99
5/4/2021 3:00:00 AM 16.49 61.682 0.276 7.16 284.8 7.99
5/4/2021 3:15:00 AM 16.45 61.61 0.284 7.16 345.2 8
5/4/2021 3:30:00 AM 16.4 61.52 0.282 7.15 328.3 7.97
5/4/2021 3:45:00 AM 16.36 61.448 0.285 7.14 321.3 7.99
5/4/2021 4:00:00 AM 16.32 61.376 0.284 7.14 271.7 7.98
5/4/2021 4:15:00 AM 16.28 61.304 0.285 7.13 339.4 7.99
5/4/2021 4:30:00 AM 16.25 61.25 0.288 7.12 339.3 7.94
5/4/2021 4:45:00 AM 16.22 61.196 0.289 7.12 372.6 7.96
5/4/2021 5:00:00 AM 16.18 61.124 0.289 7.1 354.1 7.96
5/4/2021 5:15:00 AM 16.16 61.088 0.278 7.11 385.6 7.95
5/4/2021 5:30:00 AM 16.13 61.034 0.291 7.09 410 7.94
5/4/2021 5:45:00 AM 16.11 60.998 0.285 7.09 387.7 7.95
5/4/2021 6:00:00 AM 16.09 60.962 0.278 7.08 413 7.95
5/4/2021 6:15:00 AM 16.07 60.926 0.287 7.08 358.3 7.95
5/4/2021 6:30:00 AM 16.04 60.872 0.286 7.08 368.4 7.99
5/4/2021 6:45:00 AM 16.03 60.854 0.286 7.08 378.5 7.99
5/4/2021 7:00:00 AM 16.02 60.836 0.293 7.09 387.3 8.05
5/4/2021 7:15:00 AM 16 60.8 0.292 7.08 351.9 8.04
5/4/2021 7:30:00 AM 15.99 60.782 0.301 7.09 294.9 8.09
5/4/2021 7:45:00 AM 15.98 60.764 0.289 7.09 392.5 8.1
5/4/2021 8:00:00 AM 15.97 60.746 0.295 7.09 385.6 8.14
5/4/2021 8:15:00 AM 15.98 60.764 0.299 7.09 413.6 8.19
5/4/2021 8:30:00 AM 15.98 60.764 0.292 7.09 448.2 8.17
5/4/2021 8:45:00 AM 15.99 60.782 0.287 7.09 419.5 8.3
5/4/2021 9:00:00 AM 16.03 60.854 0.285 7.11 422 8.36
5/4/2021 9:15:00 AM 16.11 60.998 0.291 7.11 476.1 8.49
5/4/2021 9:30:00 AM 16.21 61.178 0.287 7.13 448.4 8.61
5/4/2021 9:45:00 AM 16.33 61.394 0.283 7.15 470.2 8.79
5/4/2021 10:00:00 AM 16.43 61.574 0.28 7.16 459.2 8.91
5/4/2021 10:15:00 AM 16.5 61.7 0.285 7.2 458.8 9.03
5/4/2021 10:30:00 AM 16.63 61.934 0.275 7.22 511.9 9.18
5/4/2021 10:45:00 AM 16.76 62.168 0.285 7.24 484.2 9.35
5/4/2021 11:00:00 AM 16.92 62.456 0.283 7.28 492.9 9.52
5/4/2021 11:15:00 AM 17.08 62.744 0.3 7.31 463.4 9.67
5/4/2021 11:30:00 AM 17.27 63.086 0.285 7.35 425.8 9.77
5/4/2021 11:45:00 AM 17.35 63.23 0.296 7.38 469.5 9.94
5/4/2021 12:00:00 PM 17.51 63.518 0.291 7.4 462.4 10.02
5/4/2021 12:15:00 PM 17.6 63.68 0.298 7.44 476.3 10.15
5/4/2021 12:30:00 PM 17.78 64.004 0.284 7.46 503.2 10.23
5/4/2021 12:45:00 PM 17.88 64.184 0.287 7.49 470.3 10.33
5/4/2021 1:00:00 PM 18 64.4 0.294 7.52 471.4 10.45
5/4/2021 1:15:00 PM 18.13 64.634 0.29 7.56 477.7 10.54
5/4/2021 1:30:00 PM 18.2 64.76 0.284 7.58 472.5 10.63
5/4/2021 1:45:00 PM 18.31 64.958 0.283 7.61 476.7 10.68
5/4/2021 2:00:00 PM 18.4 65.12 0.29 7.64 395.8 10.75
5/4/2021 2:15:00 PM 18.51 65.318 0.288 7.66 445.7 10.83
5/4/2021 2:30:00 PM 18.6 65.48 0.285 7.69 590.2 10.9
5/4/2021 2:45:00 PM 18.7 65.66 0.295 7.72 535.5 10.9
5/4/2021 3:00:00 PM 18.8 65.84 0.283 7.75 512.2 10.92
5/4/2021 3:15:00 PM 18.88 65.984 0.296 7.77 477.4 10.97
5/4/2021 3:30:00 PM 18.95 66.11 0.295 7.78 556.7 10.93
5/4/2021 3:45:00 PM 19.01 66.218 0.286 7.81 486.4 10.95
5/4/2021 4:00:00 PM 19.1 66.38 0.289 7.82 466.5 10.92
5/4/2021 4:15:00 PM 19.21 66.578 0.285 7.83 554.3 10.88
5/4/2021 4:30:00 PM 19.33 66.794 0.293 7.84 573.9 10.93
5/4/2021 4:45:00 PM 19.43 66.974 0.289 7.87 521.3 10.92
5/4/2021 5:00:00 PM 19.52 67.136 0.29 7.88 540.1 10.87
5/4/2021 5:15:00 PM 19.59 67.262 0.292 7.91 478.6 10.82
5/4/2021 5:30:00 PM 19.65 67.37 0.285 7.91 559.7 10.71
5/4/2021 5:45:00 PM 19.7 67.46 0.293 7.91 561.7 10.62
5/4/2021 6:00:00 PM 19.72 67.496 0.282 7.92 551 10.52
5/4/2021 6:15:00 PM 19.75 67.55 0.293 7.91 613.3 10.29
5/4/2021 6:30:00 PM 19.78 67.604 0.28 7.9 569.1 10.23
5/4/2021 6:45:00 PM 19.78 67.604 0.282 7.89 240.5 10.1
5/4/2021 7:00:00 PM 19.78 67.604 0.278 7.88 263.7 10
5/4/2021 7:15:00 PM 19.77 67.586 0.278 7.86 256.9 9.86
5/4/2021 7:30:00 PM 19.76 67.568 0.293 7.85 233.1 9.65
5/4/2021 7:45:00 PM 19.74 67.532 0.296 7.81 235.2 9.51
5/4/2021 8:00:00 PM 19.71 67.478 0.297 7.78 244.8 9.35
5/4/2021 8:15:00 PM 19.68 67.424 0.289 7.75 245.7 9.21
5/4/2021 8:30:00 PM 19.64 67.352 0.284 7.72 263.1 9.06
5/4/2021 8:45:00 PM 19.6 67.28 0.282 7.69 245.1 8.91
5/4/2021 9:00:00 PM 19.57 67.226 0.283 7.66 250.5 8.79
5/4/2021 9:15:00 PM 19.53 67.154 0.291 7.62 261.1 8.65
5/4/2021 9:30:00 PM 19.51 67.118 0.292 7.59 268.5 8.52
5/4/2021 9:45:00 PM 19.49 67.082 0.291 7.56 262.4 8.4
5/4/2021 10:00:00 PM 19.46 67.028 0.28 7.54 288.8 8.31
5/4/2021 10:15:00 PM 19.43 66.974 0.283 7.52 303.6 8.24
5/4/2021 10:30:00 PM 19.4 66.92 0.284 7.49 317 8.16
5/4/2021 10:45:00 PM 19.38 66.884 0.296 7.48 318.3 8.08
5/4/2021 11:00:00 PM 19.36 66.848 0.298 7.46 290.7 7.89
5/4/2021 11:15:00 PM 19.33 66.794 0.299 7.45 367.2 7.94
5/4/2021 11:30:00 PM 19.3 66.74 0.298 7.43 329.1 7.92
5/4/2021 11:45:00 PM 19.27 66.686 0.298 7.42 345.1 7.88
5/5/2021 12:00:00 AM 19.25 66.65 0.296 7.41 332.8 7.87
5/5/2021 12:15:00 AM 19.22 66.596 0.295 7.4 332.7 7.84
5/5/2021 12:30:00 AM 19.2 66.56 0.294 7.4 339.4 7.82
5/5/2021 12:45:00 AM 19.16 66.488 0.293 7.39 352.2 7.78
5/5/2021 1:00:00 AM 19.13 66.434 0.285 7.39 346.7 7.76
5/5/2021 1:15:00 AM 19.09 66.362 0.288 7.38 366.8 7.73
5/5/2021 1:30:00 AM 19.05 66.29 0.283 7.36 324.4 7.7
5/5/2021 1:45:00 AM 19.01 66.218 0.295 7.35 379.2 7.68
5/5/2021 2:00:00 AM 18.96 66.128 0.283 7.34 375.5 7.69
5/5/2021 2:15:00 AM 18.91 66.038 0.299 7.33 406.3 7.66
5/5/2021 2:30:00 AM 18.86 65.948 0.305 7.32 392.2 7.65
5/5/2021 2:45:00 AM 18.82 65.876 0.296 7.31 399.6 7.64
5/5/2021 3:00:00 AM 18.77 65.786 0.293 7.3 425.4 7.63
5/5/2021 3:15:00 AM 18.71 65.67799 0.293 7.3 342.9 7.62
5/5/2021 3:30:00 AM 18.66 65.588 0.298 7.29 380.1 7.63
5/5/2021 3:45:00 AM 18.6 65.48 0.293 7.28 389.8 7.6
5/5/2021 4:00:00 AM 18.54 65.372 0.293 7.26 386.9 7.58
5/5/2021 4:15:00 AM 18.48 65.264 0.292 7.26 439.8 7.62
5/5/2021 4:30:00 AM 18.43 65.174 0.293 7.25 425.9 7.61
5/5/2021 4:45:00 AM 18.37 65.066 0.294 7.24 424.4 7.62
5/5/2021 5:00:00 AM 18.32 64.976 0.296 7.24 442.6 7.62
5/5/2021 5:15:00 AM 18.27 64.886 0.296 7.23 421.1 7.64
5/5/2021 5:30:00 AM 18.22 64.796 0.297 7.23 435.8 7.58
5/5/2021 5:45:00 AM 18.17 64.706 0.296 7.22 446.9 7.63
5/5/2021 6:00:00 AM 18.13 64.634 0.295 7.22 422.1 7.61
5/5/2021 6:15:00 AM 18.09 64.562 0.294 7.22 358.8 7.64
5/5/2021 6:30:00 AM 18.05 64.49 0.293 7.21 436.6 7.65
5/5/2021 6:45:00 AM 18.01 64.418 0.292 7.21 456 7.65
5/5/2021 7:00:00 AM 17.98 64.364 0.29 7.2 416.1 7.73
5/5/2021 7:15:00 AM 17.94 64.292 0.29 7.2 417.3 7.5
5/5/2021 7:30:00 AM 17.92 64.256 0.29 7.19 377.5 7.7
5/5/2021 7:45:00 AM 17.9 64.22 0.291 7.2 376.2 7.57
5/5/2021 8:00:00 AM 17.88 64.184 0.293 7.2 381.8 7.55
5/5/2021 8:15:00 AM 17.87 64.166 0.294 7.2 386.1 7.8
5/5/2021 8:30:00 AM 17.87 64.166 0.295 7.2 396.1 7.89
5/5/2021 8:45:00 AM 17.85 64.13 0.295 7.2 396.7 7.96
5/5/2021 9:00:00 AM 17.85 64.13 0.294 7.2 390.7 7.98
5/5/2021 9:15:00 AM 17.85 64.13 0.292 7.2 415.2 8.04
5/5/2021 9:30:00 AM 17.84 64.112 0.291 7.21 397.3 8.1
5/5/2021 9:45:00 AM 17.81 64.058 0.289 7.21 450.7 8.13
5/5/2021 10:00:00 AM 17.78 64.004 0.286 7.22 419.8 8.18
5/5/2021 10:15:00 AM 17.77 63.986 0.285 7.22 433.7 8.18
5/5/2021 10:30:00 AM 17.75 63.95 0.286 7.23 448 8.3
5/5/2021 10:45:00 AM 17.75 63.95 0.286 7.22 432 8.35
5/5/2021 11:00:00 AM 17.77 63.986 0.286 7.24 467.8 8.45
5/5/2021 11:15:00 AM 17.79 64.022 0.286 7.24 421.2 8.53
5/5/2021 11:30:00 AM 17.87 64.166 0.287 7.26 434.4 8.67
5/5/2021 11:45:00 AM 17.93 64.274 0.287 7.28 477.4 8.81
5/5/2021 12:00:00 PM 18.06 64.508 0.286 7.29 456.2 8.97
5/5/2021 12:15:00 PM 18.18 64.724 0.285 7.31 433 9.06
5/5/2021 12:30:00 PM 18.27 64.886 0.284 7.34 486.2 9.19
5/5/2021 12:45:00 PM 18.37 65.066 0.283 7.36 475.5 9.29
5/5/2021 1:00:00 PM 18.43 65.174 0.282 7.39 519.9 9.35
5/5/2021 1:15:00 PM 18.43 65.174 0.282 7.4 544.4 9.39
5/5/2021 1:30:00 PM 18.44 65.192 0.282 7.41 539 9.4
5/5/2021 1:45:00 PM 18.49 65.282 0.282 7.41 575.9 9.41
5/5/2021 2:00:00 PM 18.58 65.444 0.283 7.43 553.7 9.5
5/5/2021 2:15:00 PM 18.64 65.552 0.283 7.44 525.7 9.6
5/5/2021 2:30:00 PM 18.69 65.642 0.284 7.47 557.9 9.66
5/5/2021 2:45:00 PM 18.79 65.82201 0.285 7.49 537 9.75
5/5/2021 3:00:00 PM 18.89 66.002 0.285 7.51 615.4 9.79
5/5/2021 3:15:00 PM 19 66.2 0.285 7.54 146.2 9.9
5/5/2021 3:30:00 PM 19.09 66.362 0.285 7.56 162.2 9.91
5/5/2021 3:45:00 PM 19.16 66.488 0.285 7.59 156.9 9.96
5/5/2021 4:00:00 PM 19.16 66.488 0.285 7.59 312.5 9.92
5/5/2021 4:15:00 PM 19.11 66.398 0.285 7.6 342.2 9.83
5/5/2021 4:30:00 PM 19.13 66.434 0.285 7.6 343.8 9.76
5/5/2021 4:45:00 PM 19.16 66.488 0.277 7.59 362.1 9.65
5/5/2021 5:00:00 PM 19.18 66.524 0.278 7.6 375.9 9.71
5/5/2021 5:15:00 PM 19.18 66.524 0.276 7.59 362 9.73
5/5/2021 5:30:00 PM 19.16 66.488 0.282 7.59 439.4 9.67
5/5/2021 5:45:00 PM 19.12 66.416 0.276 7.58 420 9.62
5/5/2021 6:00:00 PM 19.03 66.254 0.242 7.57 461.4 9.55
5/5/2021 6:15:00 PM 18.93 66.074 0.254 7.56 503.5 9.41
5/5/2021 6:30:00 PM 18.82 65.876 0.264 7.53 530.7 9.32
5/5/2021 6:45:00 PM 18.74 65.732 0.26 7.52 586.1 9.23
5/5/2021 7:00:00 PM 18.66 65.588 0.282 7.48 602.7 9.11
5/5/2021 7:15:00 PM 18.58 65.444 0.266 7.48 616.6 9.07
5/5/2021 7:30:00 PM 18.49 65.282 0.29 7.45 626 9
5/5/2021 7:45:00 PM 18.4 65.12 0.291 7.44 683.8 8.93
5/5/2021 8:00:00 PM 18.32 64.976 0.287 7.43 722.9 8.86
5/5/2021 8:15:00 PM 18.26 64.868 0.27 7.41 769.2 8.79
5/5/2021 8:30:00 PM 18.19 64.742 0.297 7.39 419.1 8.74
5/5/2021 8:45:00 PM 18.15 64.67 0.257 7.38 846.4 8.66
5/5/2021 9:00:00 PM 18.09 64.562 0.299 7.37 896.8 8.63
5/5/2021 9:15:00 PM 18.05 64.49 0.298 7.36 753.1 8.59
5/5/2021 9:30:00 PM 17.98 64.364 0.298 7.36 804.4 8.55
5/5/2021 9:45:00 PM 17.91 64.238 0.284 7.34 912.6 8.48
5/5/2021 10:00:00 PM 17.85 64.13 0.27 7.33 965.8 8.43
5/5/2021 10:15:00 PM 17.77 63.986 0.289 7.31 1035 8.41
5/5/2021 10:30:00 PM 17.7 63.86 0.26 7.3 905.9 8.39
5/5/2021 10:45:00 PM 17.63 63.734 0.262 7.29 1102 8.33
5/5/2021 11:00:00 PM 17.56 63.608 0.274 7.29 1241 8.35
5/5/2021 11:15:00 PM 17.5 63.5 0.288 7.29 1053 8.34
5/5/2021 11:30:00 PM 17.43 63.374 0.279 7.28 355.3 8.38
5/5/2021 11:45:00 PM 17.36 63.248 0.289 7.27 373.8 8.35
5/6/2021 12:00:00 AM 17.28 63.104 0.288 7.26 677.5 8.38
5/6/2021 12:15:00 AM 17.21 62.978 0.259 7.26 809.3 8.36
5/6/2021 12:30:00 AM 17.13 62.834 0.262 7.26 779.3 8.37
5/6/2021 12:45:00 AM 17.04 62.672 0.253 7.24 828.8 8.34
5/6/2021 1:00:00 AM 16.95 62.51 0.292 7.23 851.6 8.33
5/6/2021 1:15:00 AM 16.89 62.402 0.256 7.23 888.2 8.34
5/6/2021 1:30:00 AM 16.83 62.294 0.287 7.22 928.1 8.35
5/6/2021 1:45:00 AM 16.75 62.15 0.291 7.22 931.6 8.36
5/6/2021 2:00:00 AM 16.68 62.024 0.274 7.21 990.7 8.32
5/6/2021 2:15:00 AM 16.61 61.898 0.249 7.21 986 8.38
5/6/2021 2:30:00 AM 16.55 61.79 0.253 7.2 892.4 8.37
5/6/2021 2:45:00 AM 16.48 61.664 0.24 7.19 939.2 8.35
5/6/2021 3:00:00 AM 16.4 61.52 0.278 7.18 1039 8.37
5/6/2021 3:15:00 AM 16.33 61.394 0.262 7.17 1015 8.36
5/6/2021 3:30:00 AM 16.25 61.25 0.28 7.17 834.8 8.38
5/6/2021 3:45:00 AM 16.16 61.088 0.269 7.16 1051 8.41
5/6/2021 4:00:00 AM 16.09 60.962 0.265 7.15 1117 8.43
5/6/2021 4:15:00 AM 16.01 60.818 0.251 7.14 1090 8.43
5/6/2021 4:30:00 AM 15.93 60.674 0.249 7.13 989.8 8.44
5/6/2021 4:45:00 AM 15.85 60.53 0.245 7.12 1186 8.4
5/6/2021 5:00:00 AM 15.77 60.386 0.236 7.11 1321 8.45
5/6/2021 5:15:00 AM 15.69 60.242 0.235 7.09 1083 8.48
5/6/2021 5:30:00 AM 15.61 60.098 0.252 7.08 1242 8.46
5/6/2021 5:45:00 AM 15.54 59.972 0.231 7.06 1178 8.51
5/6/2021 6:00:00 AM 15.48 59.864 0.262 7.05 1457 8.49
5/6/2021 6:15:00 AM 15.4 59.72 0.247 7.08 1321 8.54
5/6/2021 6:30:00 AM 15.33 59.594 0.252 7.09 1425 8.56
5/6/2021 6:45:00 AM 15.27 59.486 0.248 7.1 1166 8.52
5/6/2021 7:00:00 AM 15.21 59.378 0.239 7.09 1154 8.61
5/6/2021 7:15:00 AM 15.14 59.252 0.268 7.09 1420 8.68
5/6/2021 7:30:00 AM 15.08 59.144 0.27 7.11 1201 8.73
5/6/2021 7:45:00 AM 15.04 59.072 0.237 7.11 1530 8.74
5/6/2021 8:00:00 AM 15 59 0.262 7.1 1181 8.81
5/6/2021 8:15:00 AM 14.99 58.982 0.264 7.11 1373 8.88
5/6/2021 8:30:00 AM 14.99 58.982 0.256 7.11 1428 8.93
5/6/2021 8:45:00 AM 15 59 0.263 7.12 1588 8.98
5/6/2021 9:00:00 AM 15.05 59.09 0.26 7.12 1254 9.13
5/6/2021 9:15:00 AM 15.11 59.198 0.262 7.12 2768 9.22
5/6/2021 9:30:00 AM 15.2 59.36 0.263 7.13 1198 9.29
5/6/2021 9:45:00 AM 15.19 59.342 0.262 7.15 1249 9.44
5/6/2021 10:00:00 AM 15.19 59.342 0.266 7.16 1223 9.5
5/6/2021 10:15:00 AM 15.21 59.378 0.232 7.15 1205 9.56
5/6/2021 10:30:00 AM 15.31 59.558 0.233 7.16 1088 9.71
5/6/2021 10:45:00 AM 15.37 59.666 0.264 7.18 1131 9.75
5/6/2021 11:00:00 AM 15.46 59.828 0.233 7.2 1114 9.9
5/6/2021 11:15:00 AM 15.57 60.026 0.233 7.21 1080 10.02
5/6/2021 11:30:00 AM 15.69 60.242 0.24 7.23 1159 10.1
5/6/2021 11:45:00 AM 15.79 60.422 0.245 7.24 1127 10.22
5/6/2021 12:00:00 PM 15.87 60.566 0.239 7.26 1155 10.32
5/6/2021 12:15:00 PM 15.92 60.656 0.257 7.28 1116 10.37
5/6/2021 12:30:00 PM 16.03 60.854 0.261 7.3 1158 10.43
5/6/2021 12:45:00 PM 16.07 60.926 0.222 7.32 1097 10.48
5/6/2021 1:00:00 PM 16.21 61.178 0.252 7.33 1109 10.59
5/6/2021 1:15:00 PM 16.34 61.412 0.246 7.34 1066 10.69
5/6/2021 1:30:00 PM 16.45 61.61 0.254 7.37 1120 10.82
5/6/2021 1:45:00 PM 16.55 61.79 0.231 7.39 1034 10.88
5/6/2021 2:00:00 PM 16.64 61.952 0.226 7.42 1154 10.92
5/6/2021 2:15:00 PM 16.66 61.988 0.223 7.45 1166 10.94
5/6/2021 2:30:00 PM 16.7 62.06 0.219 7.47 1167 11
5/6/2021 2:45:00 PM 16.79 62.222 0.225 7.47 1223 10.95
5/6/2021 3:00:00 PM 16.89 62.402 0.24 7.5 1206 11.07
5/6/2021 3:15:00 PM 16.99 62.582 0.244 7.51 1237 11.12
5/6/2021 3:30:00 PM 17.07 62.726 0.248 7.54 1231 11.18
5/6/2021 3:45:00 PM 17.1 62.78 0.253 7.56 1215 11.14
5/6/2021 4:00:00 PM 17.1 62.78 0.239 7.58 1268 11.18
5/6/2021 4:15:00 PM 17.09 62.762 0.251 7.59 1253 11.11
5/6/2021 4:30:00 PM 17.08 62.744 0.255 7.6 1063 11.09
5/6/2021 4:45:00 PM 17.07 62.726 0.242 7.6 1234 11.08
5/6/2021 5:00:00 PM 17.07 62.726 0.251 7.6 1188 11.06
5/6/2021 5:15:00 PM 17.08 62.744 0.254 7.62 1353 11.02
5/6/2021 5:30:00 PM 17.07 62.726 0.253 7.62 1259 10.97
5/6/2021 5:45:00 PM 17.07 62.726 0.253 7.61 1246 10.89
5/6/2021 6:00:00 PM 17.06 62.708 0.252 7.61 1387 10.78
5/6/2021 6:15:00 PM 17.04 62.672 0.252 7.61 1249 10.76
5/6/2021 6:30:00 PM 17.01 62.618 0.252 7.6 1123 10.59
5/6/2021 6:45:00 PM 16.98 62.564 0.253 7.59 1460 10.58
5/6/2021 7:00:00 PM 16.93 62.474 0.255 7.57 1461 10.44
5/6/2021 7:15:00 PM 16.89 62.402 0.226 7.57 1569 10.37
5/6/2021 7:30:00 PM 16.85 62.33 0.23 7.55 1345 10.26
5/6/2021 7:45:00 PM 16.82 62.276 0.236 7.53 1388 10.18
5/6/2021 8:00:00 PM 16.78 62.204 0.24 7.5 1602 10.1
5/6/2021 8:15:00 PM 16.74 62.132 0.245 7.49 1443 9.98
5/6/2021 8:30:00 PM 16.71 62.078 0.234 7.47 1410 9.79
5/6/2021 8:45:00 PM 16.68 62.024 0.263 7.45 1459 9.74
5/6/2021 9:00:00 PM 16.65 61.97 0.263 7.43 1491 9.64
5/6/2021 9:15:00 PM 16.61 61.898 0.263 7.41 1625 9.54
5/6/2021 9:30:00 PM 16.57 61.826 0.262 7.4 1490 9.46
5/6/2021 9:45:00 PM 16.53 61.754 0.262 7.38 1493 9.36
5/6/2021 10:00:00 PM 16.49 61.682 0.263 7.37 1544 9.28
5/6/2021 10:15:00 PM 16.45 61.61 0.265 7.35 1592 9.21
5/6/2021 10:30:00 PM 16.4 61.52 0.267 7.33 1663 9.18
5/6/2021 10:45:00 PM 16.36 61.448 0.27 7.32 1651 9.11
5/6/2021 11:00:00 PM 16.29 61.322 0.271 7.31 1525 9.06
5/6/2021 11:15:00 PM 16.23 61.214 0.272 7.29 1901 9.01
5/6/2021 11:30:00 PM 16.17 61.106 0.272 7.28 1723 8.99
5/6/2021 11:45:00 PM 16.1 60.98 0.272 7.26 1765 8.97
5/7/2021 12:00:00 AM 16.03 60.854 0.272 7.25 1583 8.94
5/7/2021 12:15:00 AM 15.95 60.71 0.271 7.24 1612 8.91
5/7/2021 12:30:00 AM 15.88 60.584 0.271 7.23 1805 8.89
5/7/2021 12:45:00 AM 15.81 60.458 0.271 7.21 1661 8.87
5/7/2021 1:00:00 AM 15.74 60.332 0.271 7.2 1722 8.88
5/7/2021 1:15:00 AM 15.65 60.17 0.272 7.2 1702 8.86
5/7/2021 1:30:00 AM 15.57 60.026 0.273 7.19 1944 8.85
5/7/2021 1:45:00 AM 15.47 59.846 0.274 7.18 1654 8.84
5/7/2021 2:00:00 AM 15.39 59.702 0.275 7.18 1795 8.84
5/7/2021 2:15:00 AM 15.3 59.54 0.276 7.17 1613 8.85
5/7/2021 2:30:00 AM 15.22 59.396 0.276 7.16 1766 8.86
5/7/2021 2:45:00 AM 15.14 59.252 0.276 7.15 1665 8.85
5/7/2021 3:00:00 AM 15.07 59.126 0.276 7.14 1886 8.84
5/7/2021 3:15:00 AM 14.97 58.946 0.275 7.14 1780 8.86
5/7/2021 3:30:00 AM 14.9 58.82 0.275 7.13 1718 8.87
5/7/2021 3:45:00 AM 14.81 58.658 0.274 7.12 1752 8.88
5/7/2021 4:00:00 AM 14.74 58.532 0.274 7.12 1773 8.88
5/7/2021 4:15:00 AM 14.66 58.388 0.275 7.11 1940 8.88
5/7/2021 4:30:00 AM 14.57 58.226 0.276 7.1 1896 8.9
5/7/2021 4:45:00 AM 14.49 58.082 0.277 7.09 1879 8.89
5/7/2021 5:00:00 AM 14.43 57.974 0.279 7.09 1996 8.88
5/7/2021 5:15:00 AM 14.35 57.83 0.279 7.09 1822 8.9
5/7/2021 5:30:00 AM 14.28 57.704 0.28 7.07 2117 8.89
5/7/2021 5:45:00 AM 14.2 57.56 0.28 7.07 2108 8.95
5/7/2021 6:00:00 AM 14.12 57.416 0.28 7.06 1628 8.95
5/7/2021 6:15:00 AM 14.05 57.29 0.279 7.06 1766 8.97
5/7/2021 6:30:00 AM 13.98 57.164 0.279 7.06 1605 8.97
5/7/2021 6:45:00 AM 13.93 57.074 0.279 7.05 1263 9.02
5/7/2021 7:00:00 AM 13.89 57.002 0.278 7.07 1731 9.07
5/7/2021 7:15:00 AM 13.87 56.966 0.278 7.06 1713 9.13
5/7/2021 7:30:00 AM 13.85 56.93 0.279 7.06 1942 9.22
5/7/2021 7:45:00 AM 13.84 56.912 0.281 7.07 2011 9.24
5/7/2021 8:00:00 AM 13.85 56.93 0.282 7.07 558.8 9.37
5/7/2021 8:15:00 AM 13.87 56.966 0.283 7.07 1264 9.44
5/7/2021 8:30:00 AM 13.89 57.002 0.284 7.08 1376 9.57
5/7/2021 8:45:00 AM 13.87 56.966 0.284 7.1 1271 9.64
5/7/2021 9:00:00 AM 13.92 57.056 0.284 7.11 1262 9.74
5/7/2021 9:15:00 AM 14.01 57.218 0.283 7.12 1198 9.89
5/7/2021 9:30:00 AM 14.05 57.29 0.282 7.14 1235 10.03
5/7/2021 9:45:00 AM 14.05 57.29 0.282 7.16 1381 10.14
5/7/2021 10:00:00 AM 14.15 57.47 0.281 7.17 1224 10.26
5/7/2021 10:15:00 AM 14.25 57.65 0.281 7.2 1248 10.43
5/7/2021 10:30:00 AM 14.33 57.794 0.282 7.22 1218 10.58
5/7/2021 10:45:00 AM 14.43 57.974 0.283 7.25 1260 10.73
5/7/2021 11:00:00 AM 14.47 58.046 0.284 7.29 1201 10.84
5/7/2021 11:15:00 AM 14.55 58.19 0.284 7.31 1196 10.96
5/7/2021 11:30:00 AM 14.61 58.298 0.285 7.34 1248 11.03
5/7/2021 11:45:00 AM 14.65 58.37 0.285 7.37 1193 11.17
5/7/2021 12:00:00 PM 14.67 58.406 0.285 7.39 1413 11.23
5/7/2021 12:15:00 PM 14.71 58.478 0.285 7.43 1353 11.34
5/7/2021 12:30:00 PM 14.7 58.46 0.285 7.45 1353 11.36
5/7/2021 12:45:00 PM 14.68 58.424 0.285 7.46 1271 11.4
5/7/2021 1:00:00 PM 14.67 58.406 0.285 7.48 1324 11.42
5/7/2021 1:15:00 PM 14.63 58.334 0.285 7.49 1235 11.39
5/7/2021 1:30:00 PM 14.61 58.298 0.285 7.49 1244 11.32
5/7/2021 1:45:00 PM 14.61 58.298 0.285 7.5 1115 11.31
5/7/2021 2:00:00 PM 14.62 58.316 0.286 7.49 2310 11.3
5/7/2021 2:15:00 PM 14.65 58.37 0.286 7.51 1286 11.34
5/7/2021 2:30:00 PM 14.66 58.388 0.286 7.51 1393 11.33
5/7/2021 2:45:00 PM 14.66 58.388 0.286 7.52 1367 11.33
5/7/2021 3:00:00 PM 14.66 58.388 0.286 7.53 1390 11.3
5/7/2021 3:15:00 PM 14.66 58.388 0.286 7.54 1306 11.26
5/7/2021 3:30:00 PM 14.65 58.37 0.286 7.53 1427 11.24
5/7/2021 3:45:00 PM 14.63 58.334 0.286 7.54 2001 11.19
5/7/2021 4:00:00 PM 14.61 58.298 0.286 7.54 1368 11.16
5/7/2021 4:15:00 PM 14.59 58.262 0.286 7.54 1433 11.12
5/7/2021 4:30:00 PM 14.58 58.244 0.286 7.53 1537 11.03
5/7/2021 4:45:00 PM 14.56 58.208 0.286 7.53 1572 11.01
5/7/2021 5:00:00 PM 14.55 58.19 0.287 7.52 1467 10.95
5/7/2021 5:15:00 PM 14.53 58.154 0.288 7.5 1541 10.88
5/7/2021 5:30:00 PM 14.52 58.136 0.288 7.49 1420 10.82
5/7/2021 5:45:00 PM 14.5 58.1 0.288 7.49 1423 10.74
5/7/2021 6:00:00 PM 14.47 58.046 0.288 7.47 1476 10.66
5/7/2021 6:15:00 PM 14.44 57.992 0.288 7.46 1417 10.59
5/7/2021 6:30:00 PM 14.42 57.956 0.288 7.44 1403 10.53
5/7/2021 6:45:00 PM 14.39 57.902 0.287 7.43 1551 10.45
5/7/2021 7:00:00 PM 14.36 57.848 0.287 7.42 1532 10.38
5/7/2021 7:15:00 PM 14.34 57.812 0.287 7.4 1632 10.32
5/7/2021 7:30:00 PM 14.31 57.758 0.288 7.38 1915 10.25
5/7/2021 7:45:00 PM 14.29 57.722 0.289 7.37 1786 10.22
5/7/2021 8:00:00 PM 14.25 57.65 0.291 7.36 1627 10.14
5/7/2021 8:15:00 PM 14.22 57.596 0.292 7.34 1779 10.07
5/7/2021 8:30:00 PM 14.18 57.524 0.293 7.33 1765 9.99
5/7/2021 8:45:00 PM 14.15 57.47 0.293 7.31 1702 9.91
5/7/2021 9:00:00 PM 14.11 57.398 0.293 7.3 1703 9.86
5/7/2021 9:15:00 PM 14.07 57.326 0.293 7.27 2058 9.84
5/7/2021 9:30:00 PM 14.03 57.254 0.292 7.24 1751 9.78
5/7/2021 9:45:00 PM 13.98 57.164 0.292 7.23 1839 9.75
5/7/2021 10:00:00 PM 13.94 57.092 0.292 7.21 1577 9.7
5/7/2021 10:15:00 PM 13.9 57.02 0.292 7.19 1680 9.7
5/7/2021 10:30:00 PM 13.85 56.93 0.293 7.19 1622 9.67
5/7/2021 10:45:00 PM 13.79 56.822 0.294 7.19 1619 9.63
5/7/2021 11:00:00 PM 13.74 56.732 0.295 7.17 2094 9.6
5/7/2021 11:15:00 PM 13.69 56.642 0.296 7.16 1757 9.6
5/7/2021 11:30:00 PM 13.64 56.552 0.297 7.15 1509 9.58
5/7/2021 11:45:00 PM 13.59 56.462 0.297 7.14 933 9.52
5/8/2021 12:00:00 AM 13.53 56.354 0.297 7.13 1557 9.52
5/8/2021 12:15:00 AM 13.47 56.246 0.296 7.12 1406 9.54
5/8/2021 12:30:00 AM 13.41 56.138 0.296 7.12 1525 9.53
5/8/2021 12:45:00 AM 13.35 56.03 0.295 7.11 1710 9.54
5/8/2021 1:00:00 AM 13.28 55.904 0.295 7.09 1491 9.54
5/8/2021 1:15:00 AM 13.23 55.814 0.295 7.07 1862 9.56
5/8/2021 1:30:00 AM 13.17 55.706 0.296 7.07 1698 9.57
5/8/2021 1:45:00 AM 13.11 55.598 0.297 7.06 1766 9.53
5/8/2021 2:00:00 AM 13.04 55.472 0.298 7.05 1684 9.52
5/8/2021 2:15:00 AM 12.98 55.364 0.299 7.05 1891 9.54
5/8/2021 2:30:00 AM 12.92 55.256 0.299 7.04 1701 9.55
5/8/2021 2:45:00 AM 12.86 55.148 0.3 7.03 1641 9.54
5/8/2021 3:00:00 AM 12.78 55.004 0.299 7.02 1706 9.57
5/8/2021 3:15:00 AM 12.71 54.878 0.299 7.03 1678 9.59
5/8/2021 3:30:00 AM 12.64 54.752 0.299 7.02 1659 9.59
5/8/2021 3:45:00 AM 12.58 54.644 0.3 7.01 1807 9.61
5/8/2021 4:00:00 AM 12.52 54.536 0.3 7 1660 9.61
5/8/2021 4:15:00 AM 12.45 54.41 0.301 6.98 1711 9.63
5/8/2021 4:30:00 AM 12.39 54.302 0.303 7 1612 9.61
5/8/2021 4:45:00 AM 12.32 54.176 0.305 6.98 1786 9.62
5/8/2021 5:00:00 AM 12.27 54.086 0.307 6.98 1703 9.65
5/8/2021 5:15:00 AM 12.22 53.996 0.308 6.99 1815 9.65
5/8/2021 5:30:00 AM 12.16 53.888 0.308 6.98 1648 9.66
5/8/2021 5:45:00 AM 12.11 53.798 0.308 6.98 1769 9.71
5/8/2021 6:00:00 AM 12.06 53.708 0.309 6.98 1900 9.69
5/8/2021 6:15:00 AM 12.01 53.618 0.308 6.97 1875 9.7
5/8/2021 6:30:00 AM 11.97 53.546 0.308 6.97 1823 9.74
5/8/2021 6:45:00 AM 11.92 53.456 0.308 6.97 1904 9.79
5/8/2021 7:00:00 AM 11.89 53.402 0.308 6.97 1691 9.82
5/8/2021 7:15:00 AM 11.88 53.384 0.308 6.96 1814 9.88
5/8/2021 7:30:00 AM 11.87 53.366 0.309 6.97 1949 9.93
5/8/2021 7:45:00 AM 11.85 53.33 0.31 6.97 2070 9.98
5/8/2021 8:00:00 AM 11.83 53.294 0.311 6.97 2036 10.01
5/8/2021 8:15:00 AM 11.83 53.294 0.311 6.98 1875 10.05
5/8/2021 8:30:00 AM 11.81 53.258 0.31 6.98 1812 10.08
5/8/2021 8:45:00 AM 11.82 53.276 0.309 6.98 1807 10.16
5/8/2021 9:00:00 AM 11.84 53.312 0.308 6.99 1663 10.26
5/8/2021 9:15:00 AM 11.85 53.33 0.307 7.01 2208 10.35
5/8/2021 9:30:00 AM 11.85 53.33 0.306 7.01 1870 10.45
5/8/2021 9:45:00 AM 11.89 53.402 0.305 7.03 1796 10.57
5/8/2021 10:00:00 AM 11.93 53.474 0.304 7.05 1646 10.73
5/8/2021 10:15:00 AM 12.01 53.618 0.304 7.06 1621 10.88
5/8/2021 10:30:00 AM 12.04 53.672 0.305 7.09 1724 10.98
5/8/2021 10:45:00 AM 12.09 53.762 0.306 7.1 1835 11.09
5/8/2021 11:00:00 AM 12.2 53.96 0.306 7.11 1638 11.25
5/8/2021 11:15:00 AM 12.32 54.176 0.307 7.13 1765 11.4
5/8/2021 11:30:00 AM 12.39 54.302 0.307 7.17 1752 11.53
5/8/2021 11:45:00 AM 12.44 54.392 0.306 7.19 1602 11.66
5/8/2021 12:00:00 PM 12.59 54.662 0.306 7.23 1723 11.78
5/8/2021 12:15:00 PM 12.71 54.878 0.306 7.26 1814 11.89
5/8/2021 12:30:00 PM 12.74 54.932 0.305 7.29 1862 12.01
5/8/2021 12:45:00 PM 12.76 54.968 0.304 7.33 1873 12.06
5/8/2021 1:00:00 PM 12.75 54.95 0.304 7.36 1838 12.08
5/8/2021 1:15:00 PM 12.81 55.058 0.303 7.38 1877 12.1
5/8/2021 1:30:00 PM 12.81 55.058 0.304 7.39 1919 12.1
5/8/2021 1:45:00 PM 12.85 55.13 0.304 7.4 1868 12.12
5/8/2021 2:00:00 PM 12.95 55.31 0.305 7.42 1804 12.16
5/8/2021 2:15:00 PM 13.02 55.436 0.305 7.44 1841 12.26
5/8/2021 2:30:00 PM 13.03 55.454 0.305 7.47 1934 12.27
5/8/2021 2:45:00 PM 13.04 55.472 0.305 7.48 1665 12.25
5/8/2021 3:00:00 PM 13.06 55.508 0.304 7.49 1864 12.18
5/8/2021 3:15:00 PM 13.09 55.562 0.304 7.49 1951 12.12
5/8/2021 3:30:00 PM 13.08 55.544 0.304 7.5 2084 12.05
5/8/2021 3:45:00 PM 13.07 55.526 0.303 7.5 1926 12.14
5/8/2021 4:00:00 PM 13.04 55.472 0.302 7.5 2231 12.07
5/8/2021 4:15:00 PM 13.06 55.508 0.302 7.51 1775 12.16
5/8/2021 4:30:00 PM 13.1 55.58 0.302 7.52 1925 12.22
5/8/2021 4:45:00 PM 13.17 55.706 0.303 7.52 1909 12.24
5/8/2021 5:00:00 PM 13.23 55.814 0.303 7.54 1865 12.23
5/8/2021 5:15:00 PM 13.3 55.94 0.303 7.55 1910 12.24
5/8/2021 5:30:00 PM 13.38 56.084 0.303 7.56 1781 12.21
5/8/2021 5:45:00 PM 13.43 56.174 0.303 7.57 1766 12.18
5/8/2021 6:00:00 PM 13.41 56.138 0.303 7.59 1651 12.16
5/8/2021 6:15:00 PM 13.38 56.084 0.302 7.6 1862 12.06
5/8/2021 6:30:00 PM 13.36 56.048 0.302 7.6 723.7 11.98
5/8/2021 6:45:00 PM 13.33 55.994 0.301 7.59 1720 11.9
5/8/2021 7:00:00 PM 13.29 55.922 0.301 7.59 1905 11.77
5/8/2021 7:15:00 PM 13.27 55.886 0.302 7.58 1678 11.71
5/8/2021 7:30:00 PM 13.25 55.85 0.303 7.58 1758 11.6
5/8/2021 7:45:00 PM 13.23 55.814 0.305 7.56 1862 11.53
5/8/2021 8:00:00 PM 13.19 55.742 0.307 7.54 1854 11.4
5/8/2021 8:15:00 PM 13.16 55.688 0.308 7.52 1882 11.31
5/8/2021 8:30:00 PM 13.11 55.598 0.297 7.51 1921 11.18
5/8/2021 8:45:00 PM 13.06 55.508 0.304 7.48 1861 11.07
5/8/2021 9:00:00 PM 13.01 55.418 0.29 7.46 2066 10.95
5/8/2021 9:15:00 PM 12.97 55.346 0.306 7.44 2134 10.86
5/8/2021 9:30:00 PM 12.92 55.256 0.305 7.41 1966 10.74
5/8/2021 9:45:00 PM 12.89 55.202 0.306 7.39 1965 10.68
5/8/2021 10:00:00 PM 12.86 55.148 0.303 7.37 2022 10.61
5/8/2021 10:15:00 PM 12.83 55.094 0.297 7.35 2223 10.54
5/8/2021 10:30:00 PM 12.8 55.04 0.3 7.33 2138 10.47
5/8/2021 10:45:00 PM 12.79 55.022 0.297 7.31 2103 10.39
5/8/2021 11:00:00 PM 12.74 54.932 0.304 7.3 2022 10.34
5/8/2021 11:15:00 PM 12.73 54.914 0.302 7.28 2032 10.28
5/8/2021 11:30:00 PM 12.7 54.86 0.302 7.26 2247 10.23
5/8/2021 11:45:00 PM 12.68 54.824 0.307 7.25 1958 10.19
5/9/2021 12:00:00 AM 12.63 54.734 0.258 7.24 2115 10.15
5/9/2021 12:15:00 AM 12.58 54.644 0.283 7.23 2008 10.11
5/9/2021 12:30:00 AM 12.57 54.626 0.295 7.22 1996 10.09
5/9/2021 12:45:00 AM 12.53 54.554 0.3 7.21 2459 10.07
5/9/2021 1:00:00 AM 12.49 54.482 0.303 7.2 2147 10.03
5/9/2021 1:15:00 AM 12.45 54.41 0.304 7.19 2344 10.02
5/9/2021 1:30:00 AM 12.4 54.32 0.305 7.18 2031 10.01
5/9/2021 1:45:00 AM 12.37 54.266 0.305 7.17 2134 10
5/9/2021 2:00:00 AM 12.33 54.194 0.307 7.16 2306 9.95
5/9/2021 2:15:00 AM 12.28 54.104 0.308 7.16 2038 9.97
5/9/2021 2:30:00 AM 12.23 54.014 0.308 7.14 2095 9.97
5/9/2021 2:45:00 AM 12.19 53.942 0.303 7.13 1781 9.96
5/9/2021 3:00:00 AM 12.15 53.87 0.305 7.12 2166 9.95
5/9/2021 3:15:00 AM 12.1 53.78 0.297 7.12 2284 9.96
5/9/2021 3:30:00 AM 12.05 53.69 0.296 7.11 2118 9.96
5/9/2021 3:45:00 AM 11.99 53.582 0.301 7.11 2171 9.96
5/9/2021 4:00:00 AM 11.94 53.492 0.292 7.09 2234 9.95
5/9/2021 4:15:00 AM 11.9 53.42 0.295 7.09 2279 9.98
5/9/2021 4:30:00 AM 11.86 53.348 0.292 7.08 2301 9.97
5/9/2021 4:45:00 AM 11.8 53.24 0.292 7.08 2271 9.96
5/9/2021 5:00:00 AM 11.76 53.168 0.299 7.06 2142 9.95
5/9/2021 5:15:00 AM 11.72 53.096 0.307 7.05 2245 9.97
5/9/2021 5:30:00 AM 11.68 53.024 0.303 7.04 2593 9.96
5/9/2021 5:45:00 AM 11.63 52.934 0.301 7.04 2439 9.96
5/9/2021 6:00:00 AM 11.59 52.862 0.303 7.04 2210 9.98
5/9/2021 6:15:00 AM 11.55 52.79 0.297 7.03 2200 9.99
5/9/2021 6:30:00 AM 11.51 52.718 0.296 7.02 2514 10.01
5/9/2021 6:45:00 AM 11.49 52.682 0.293 7.02 2220 10.04
5/9/2021 7:00:00 AM 11.46 52.628 0.295 7.02 2207 9.94
5/9/2021 7:15:00 AM 11.45 52.61 0.302 7.02 2215 10.09
5/9/2021 7:30:00 AM 11.44 52.592 0.288 7.02 2314 10.14
5/9/2021 7:45:00 AM 11.43 52.574 0.303 7.02 2329 10.19
5/9/2021 8:00:00 AM 11.44 52.592 0.259 7.03 2358 10.23
5/9/2021 8:15:00 AM 11.45 52.61 0.302 7.03 2442 10.34
5/9/2021 8:30:00 AM 11.47 52.646 0.288 7.04 2342 10.42
5/9/2021 8:45:00 AM 11.48 52.664 0.292 7.05 2099 10.51
5/9/2021 9:00:00 AM 11.49 52.682 0.285 7.05 1927 10.61
5/9/2021 9:15:00 AM 11.51 52.718 0.294 7.07 2181 10.69
5/9/2021 9:30:00 AM 11.52 52.736 0.292 7.08 2202 10.78
5/9/2021 9:45:00 AM 11.54 52.772 0.3 7.1 2144 10.87
5/9/2021 10:00:00 AM 11.57 52.826 0.297 7.12 2415 10.95
5/9/2021 10:15:00 AM 11.6 52.88 0.28 7.13 2379 11.09
5/9/2021 10:30:00 AM 11.66 52.988 0.292 7.15 2480 11.2
5/9/2021 10:45:00 AM 11.68 53.024 0.292 7.17 2424 11.27
5/9/2021 11:00:00 AM 11.7 53.06 0.296 7.19 2416 11.36
5/9/2021 11:15:00 AM 11.72 53.096 0.263 7.21 2360 11.46
5/9/2021 11:30:00 AM 11.75 53.15 0.289 7.22 2329 11.49
5/9/2021 11:45:00 AM 11.77 53.186 0.284 7.22 2415 11.55
5/9/2021 12:00:00 PM 11.78 53.204 0.276 7.24 2470 11.54
5/9/2021 12:15:00 PM 11.79 53.222 0.293 7.24 2170 11.62
5/9/2021 12:30:00 PM 11.79 53.222 0.288 7.27 2461 11.64
5/9/2021 12:45:00 PM 11.79 53.222 0.3 7.27 2605 11.6
5/9/2021 1:00:00 PM 11.81 53.258 0.296 7.27 2272 11.58
5/9/2021 1:15:00 PM 11.82 53.276 0.297 7.28 2369 11.58
5/9/2021 1:30:00 PM 11.84 53.312 0.295 7.28 2426 11.62
5/9/2021 1:45:00 PM 11.88 53.384 0.3 7.29 2391 11.64
5/9/2021 2:00:00 PM 11.92 53.456 0.299 7.3 2489 11.71
5/9/2021 2:15:00 PM 11.92 53.456 0.302 7.32 2299 11.78
5/9/2021 2:30:00 PM 11.91 53.438 0.284 7.34 2407 11.76
5/9/2021 2:45:00 PM 11.96 53.528 0.284 7.34 2251 11.77
5/9/2021 3:00:00 PM 11.99 53.582 0.292 7.34 2345 11.81
5/9/2021 3:15:00 PM 11.98 53.564 0.295 7.36 2663 11.86
5/9/2021 3:30:00 PM 12.02 53.636 0.297 7.37 2418 11.85
5/9/2021 3:45:00 PM 12.04 53.672 0.27 7.38 2525 11.9
5/9/2021 4:00:00 PM 12.07 53.726 0.287 7.39 2592 11.99
5/9/2021 4:15:00 PM 12.1 53.78 0.288 7.42 2503 12.05
5/9/2021 4:30:00 PM 12.14 53.852 0.3 7.43 2263 12.06
5/9/2021 4:45:00 PM 12.17 53.906 0.299 7.45 2531 12.12
5/9/2021 5:00:00 PM 12.17 53.906 0.296 7.47 2501 12.17
5/9/2021 5:15:00 PM 12.17 53.906 0.301 7.49 2679 12.15
5/9/2021 5:30:00 PM 12.17 53.906 0.301 7.49 2313 12.1
5/9/2021 5:45:00 PM 12.18 53.924 0.284 7.5 2314 12.06
5/9/2021 6:00:00 PM 12.18 53.924 0.283 7.5 2364 12.01
5/9/2021 6:15:00 PM 12.17 53.906 0.283 7.5 2315 11.95
5/9/2021 6:30:00 PM 12.16 53.888 0.282 7.49 2393 11.88
5/9/2021 6:45:00 PM 12.15 53.87 0.301 7.48 2497 11.81
5/9/2021 7:00:00 PM 12.15 53.87 0.291 7.47 2385 11.78
5/9/2021 7:15:00 PM 12.15 53.87 0.281 7.48 2582 11.74
5/9/2021 7:30:00 PM 12.14 53.852 0.28 7.47 2601 11.71
5/9/2021 7:45:00 PM 12.13 53.834 0.294 7.47 2575 11.62
5/9/2021 8:00:00 PM 12.11 53.798 0.302 7.45 2343 11.49
5/9/2021 8:15:00 PM 12.1 53.78 0.28 7.44 2311 11.41
5/9/2021 8:30:00 PM 12.08 53.744 0.296 7.42 2540 11.25
5/9/2021 8:45:00 PM 12.05 53.69 0.302 7.4 2495 11.17
5/9/2021 9:00:00 PM 12.02 53.636 0.297 7.38 2527 11.09
5/9/2021 9:15:00 PM 12 53.6 0.259 7.35 2412 11.02
5/9/2021 9:30:00 PM 11.98 53.564 0.304 7.33 2273 10.89
5/9/2021 9:45:00 PM 11.96 53.528 0.292 7.32 2123 10.85
5/9/2021 10:00:00 PM 11.94 53.492 0.296 7.29 2018 10.8
5/9/2021 10:15:00 PM 11.92 53.456 0.302 7.28 2318 10.74
5/9/2021 10:30:00 PM 11.91 53.438 0.303 7.26 2171 10.67
5/9/2021 10:45:00 PM 11.89 53.402 0.304 7.24 2628 10.59
5/9/2021 11:00:00 PM 11.88 53.384 0.307 7.22 2335 10.54
5/9/2021 11:15:00 PM 11.87 53.366 0.309 7.21 2322 10.46
5/9/2021 11:30:00 PM 11.86 53.348 0.305 7.19 2407 10.46
5/9/2021 11:45:00 PM 11.84 53.312 0.294 7.18 2604 10.39
5/10/2021 12:00:00 AM 11.83 53.294 0.298 7.18 2345 10.36
5/10/2021 12:15:00 AM 11.82 53.276 0.3 7.16 2350 10.32
5/10/2021 12:30:00 AM 11.81 53.258 0.306 7.16 2453 10.27
5/10/2021 12:45:00 AM 11.8 53.24 0.301 7.15 2334 10.26
5/10/2021 1:00:00 AM 11.78 53.204 0.299 7.13 2324 10.23
5/10/2021 1:15:00 AM 11.77 53.186 0.301 7.13 2170 10.2
5/10/2021 1:30:00 AM 11.76 53.168 0.291 7.12 2209 10.2
5/10/2021 1:45:00 AM 11.75 53.15 0.293 7.11 2262 10.17
5/10/2021 2:00:00 AM 11.73 53.114 0.295 7.11 2436 10.15
5/10/2021 2:15:00 AM 11.72 53.096 0.308 7.1 2325 10.12
5/10/2021 2:30:00 AM 11.7 53.06 0.306 7.09 2104 10.13
5/10/2021 2:45:00 AM 11.69 53.042 0.307 7.09 2308 10.1
5/10/2021 3:00:00 AM 11.67 53.006 0.3 7.08 2364 10.09
5/10/2021 3:15:00 AM 11.66 52.988 0.307 7.09 2122 10.08
5/10/2021 3:30:00 AM 11.64 52.952 0.306 7.09 2177 10.08
5/10/2021 3:45:00 AM 11.61 52.898 0.307 7.09 1847 10.11
5/10/2021 4:00:00 AM 11.59 52.862 0.308 7.08 2123 10.08
5/10/2021 4:15:00 AM 11.56 52.808 0.301 7.07 2893 10.06
5/10/2021 4:30:00 AM 11.54 52.772 0.3 7.07 2392 10.09
5/10/2021 4:45:00 AM 11.53 52.754 0.304 7.05 2309 10.08
5/10/2021 5:00:00 AM 11.51 52.718 0.298 7.05 2207 10.04
5/10/2021 5:15:00 AM 11.49 52.682 0.27 7.05 2418 10.05
5/10/2021 5:30:00 AM 11.46 52.628 0.299 7.06 2266 10.06
5/10/2021 5:45:00 AM 11.44 52.592 0.303 7.05 2614 10.03
5/10/2021 6:00:00 AM 11.41 52.538 0.304 7.05 2357 10.06
5/10/2021 6:15:00 AM 11.39 52.502 0.309 7.05 2436 10.08
5/10/2021 6:30:00 AM 11.37 52.466 0.29 7.04 1650 10.07
5/10/2021 6:45:00 AM 11.35 52.43 0.27 7.04 1729 10.11
5/10/2021 7:00:00 AM 11.33 52.394 0.273 7.04 1895 10.11
5/10/2021 7:15:00 AM 11.33 52.394 0.26 7.04 786.5 10.18
5/10/2021 7:30:00 AM 11.33 52.394 0.283 7.05 1857 10.27
5/10/2021 7:45:00 AM 11.33 52.394 0.273 7.06 1792 10.34
5/10/2021 8:00:00 AM 11.32 52.376 0.26 7.06 1784 10.39
5/10/2021 8:15:00 AM 11.33 52.394 0.299 7.06 1822 10.39
5/10/2021 8:30:00 AM 11.35 52.43 0.305 7.07 1774 10.48
5/10/2021 8:45:00 AM 11.39 52.502 0.3 7.08 1807 10.61
5/10/2021 9:00:00 AM 11.47 52.646 0.268 7.1 1961 10.75
5/10/2021 9:15:00 AM 11.58 52.844 0.277 7.11 1830 10.92
5/10/2021 9:30:00 AM 11.71 53.078 0.301 7.15 1885 11.1
5/10/2021 9:45:00 AM 11.64 52.952 0.3 7.17 1955 11.19
5/10/2021 10:00:00 AM 11.6 52.88 0.306 7.21 1900 11.29
5/10/2021 10:15:00 AM 11.71 53.078 0.289 7.22 1922 11.45
5/10/2021 10:30:00 AM 11.86 53.348 0.296 7.24 1948 11.65
5/10/2021 10:45:00 AM 12.07 53.726 0.286 7.26 1908 11.81
5/10/2021 11:00:00 AM 12.11 53.798 0.298 7.31 1850 11.96
5/10/2021 11:15:00 AM 12.11 53.798 0.291 7.36 1817 12.04
5/10/2021 11:30:00 AM 12.15 53.87 0.291 7.38 1798 12.14
5/10/2021 11:45:00 AM 12.22 53.996 0.301 7.4 1769 12.23
5/10/2021 12:00:00 PM 12.44 54.392 0.296 7.44 2014 12.36
5/10/2021 12:15:00 PM 12.53 54.554 0.296 7.48 1722 12.5
5/10/2021 12:30:00 PM 12.68 54.824 0.272 7.52 2020 12.57
5/10/2021 12:45:00 PM 12.84 55.112 0.292 7.56 1985 12.61
5/10/2021 1:00:00 PM 12.97 55.346 0.289 7.59 2013 12.74
5/10/2021 1:15:00 PM 13.11 55.598 0.289 7.63 1982 12.85
5/10/2021 1:30:00 PM 13.25 55.85 0.267 7.67 2129 12.92
5/10/2021 1:45:00 PM 13.42 56.156 0.281 7.72 2019 12.95
5/10/2021 2:00:00 PM 13.6 56.48 0.286 7.75 1947 13.03
5/10/2021 2:15:00 PM 13.78 56.804 0.285 7.79 1986 13.1
5/10/2021 2:30:00 PM 13.97 57.146 0.282 7.82 1926 13.11
5/10/2021 2:45:00 PM 14.13 57.434 0.282 7.87 1873 13.16
5/10/2021 3:00:00 PM 14.3 57.74 0.257 7.89 691.1 13.11
5/10/2021 3:15:00 PM 14.41 57.938 0.3 7.92 763 13.15
5/10/2021 3:30:00 PM 14.5 58.1 0.295 7.95 783.9 13.13
5/10/2021 3:45:00 PM 14.55 58.19 0.299 7.98 886.4 13.14
5/10/2021 4:00:00 PM 14.59 58.262 0.27 7.99 763.9 13.07
5/10/2021 4:15:00 PM 14.62 58.316 0.262 8 807.5 12.99
5/10/2021 4:30:00 PM 14.65 58.37 0.286 8.01 854 12.94
5/10/2021 4:45:00 PM 14.7 58.46 0.286 8.01 744 12.87
5/10/2021 5:00:00 PM 14.72 58.496 0.284 8.02 720.2 12.74
5/10/2021 5:15:00 PM 14.74 58.532 0.279 8.03 871.1 12.66
5/10/2021 5:30:00 PM 14.73 58.514 0.301 8.02 917.1 12.56
5/10/2021 5:45:00 PM 14.76 58.568 0.287 8.02 927.9 12.52
5/10/2021 6:00:00 PM 14.81 58.658 0.293 8.02 863.6 12.52
5/10/2021 6:15:00 PM 14.85 58.73 0.296 8.03 985.2 12.49
5/10/2021 6:30:00 PM 14.89 58.802 0.287 8.03 953.4 12.38
5/10/2021 6:45:00 PM 14.91 58.838 0.301 8.03 924.1 12.3
5/10/2021 7:00:00 PM 14.91 58.838 0.279 8.03 889.8 12.18
5/10/2021 7:15:00 PM 14.91 58.838 0.297 8.02 875.2 12.06
5/10/2021 7:30:00 PM 14.9 58.82 0.291 8.01 890.8 11.91
5/10/2021 7:45:00 PM 14.88 58.784 0.294 8.01 936 11.74
5/10/2021 8:00:00 PM 14.87 58.766 0.293 7.98 974.5 11.58
5/10/2021 8:15:00 PM 14.86 58.748 0.309 7.96 952.8 11.39
5/10/2021 8:30:00 PM 14.82 58.676 0.304 7.94 1034 11.23
5/10/2021 8:45:00 PM 14.78 58.604 0.308 7.9 1090 11.07
5/10/2021 9:00:00 PM 14.73 58.514 0.315 7.87 1070 10.88
5/10/2021 9:15:00 PM 14.67 58.406 0.32 7.84 1025 10.72
5/10/2021 9:30:00 PM 14.62 58.316 0.306 7.79 1093 10.58
5/10/2021 9:45:00 PM 14.55 58.19 0.307 7.76 1067 10.42
5/10/2021 10:00:00 PM 14.49 58.082 0.305 7.72 1057 10.28
5/10/2021 10:15:00 PM 14.43 57.974 0.306 7.68 1253 10.15
5/10/2021 10:30:00 PM 14.37 57.866 0.306 7.64 974.7 10.05
5/10/2021 10:45:00 PM 14.31 57.758 0.306 7.61 1063 9.97
5/10/2021 11:00:00 PM 14.26 57.668 0.308 7.56 1120 9.85
5/10/2021 11:15:00 PM 14.21 57.578 0.319 7.53 1059 9.77
5/10/2021 11:30:00 PM 14.17 57.506 0.325 7.48 1089 9.66
5/10/2021 11:45:00 PM 14.13 57.434 0.323 7.46 977.8 9.62
5/11/2021 12:00:00 AM 14.09 57.362 0.322 7.42 1155 9.56
5/11/2021 12:15:00 AM 14.06 57.308 0.321 7.41 1025 9.54
5/11/2021 12:30:00 AM 14.01 57.218 0.32 7.38 1073 9.51
5/11/2021 12:45:00 AM 13.97 57.146 0.322 7.36 1247 9.47
5/11/2021 1:00:00 AM 13.92 57.056 0.322 7.34 1249 9.44
5/11/2021 1:15:00 AM 13.88 56.984 0.317 7.34 1189 9.43
5/11/2021 1:30:00 AM 13.84 56.912 0.317 7.32 1200 9.39
5/11/2021 1:45:00 AM 13.8 56.84 0.323 7.31 1191 9.4
5/11/2021 2:00:00 AM 13.76 56.768 0.319 7.29 1191 9.4
5/11/2021 2:15:00 AM 13.71 56.678 0.323 7.28 1172 9.35
5/11/2021 2:30:00 AM 13.68 56.624 0.324 7.26 1159 9.35
5/11/2021 2:45:00 AM 13.64 56.552 0.325 7.25 1148 9.36
5/11/2021 3:00:00 AM 13.6 56.48 0.326 7.24 1310 9.37
5/11/2021 3:15:00 AM 13.57 56.426 0.323 7.23 1116 9.31
5/11/2021 3:30:00 AM 13.54 56.372 0.33 7.23 1119 9.34
5/11/2021 3:45:00 AM 13.49 56.282 0.329 7.21 1176 9.33
5/11/2021 4:00:00 AM 13.46 56.228 0.324 7.21 1178 9.32
5/11/2021 4:15:00 AM 13.41 56.138 0.309 7.2 1163 9.34
5/11/2021 4:30:00 AM 13.36 56.048 0.322 7.19 1115 9.33
5/11/2021 4:45:00 AM 13.33 55.994 0.318 7.18 971 9.3
5/11/2021 5:00:00 AM 13.27 55.886 0.32 7.18 1414 9.31
5/11/2021 5:15:00 AM 13.22 55.796 0.325 7.17 1350 9.28
5/11/2021 5:30:00 AM 13.17 55.706 0.32 7.16 1332 9.29
5/11/2021 5:45:00 AM 13.12 55.616 0.328 7.14 1325 9.29
5/11/2021 6:00:00 AM 13.05 55.49 0.326 7.13 1323 9.34
5/11/2021 6:15:00 AM 13 55.4 0.328 7.12 1409 9.36
5/11/2021 6:30:00 AM 12.94 55.292 0.314 7.12 1445 9.38
5/11/2021 6:45:00 AM 12.87 55.166 0.313 7.11 1359 9.38
5/11/2021 7:00:00 AM 12.82 55.076 0.31 7.1 1536 9.42
5/11/2021 7:15:00 AM 12.78 55.004 0.309 7.11 1356 9.48
5/11/2021 7:30:00 AM 12.74 54.932 0.311 7.1 1182 9.52
5/11/2021 7:45:00 AM 12.72 54.896 0.383 7.11 1380 9.61
5/11/2021 8:00:00 AM 12.73 54.914 0.383 7.11 1293 9.69
5/11/2021 8:15:00 AM 12.75 54.95 0.332 7.12 1259 9.8
5/11/2021 8:30:00 AM 12.77 54.986 0.339 7.13 1322 9.93
5/11/2021 8:45:00 AM 12.8 55.04 0.336 7.14 1257 9.99
5/11/2021 9:00:00 AM 12.9 55.22 0.338 7.15 1232 10.2
5/11/2021 9:15:00 AM 13.04 55.472 0.336 7.17 1319 10.42
5/11/2021 9:30:00 AM 13.15 55.67 0.33 7.21 1218 10.65
5/11/2021 9:45:00 AM 13.26 55.868 0.324 7.24 1147 10.85
5/11/2021 10:00:00 AM 13.37 56.066 0.329 7.27 1361 11.03
5/11/2021 10:15:00 AM 13.48 56.264 0.31 7.31 1205 11.2
5/11/2021 10:30:00 AM 13.6 56.48 0.32 7.35 1198 11.42
5/11/2021 10:45:00 AM 13.71 56.678 0.323 7.39 1236 11.58
5/11/2021 11:00:00 AM 13.8 56.84 0.316 7.45 1190 11.77
5/11/2021 11:15:00 AM 13.95 57.11 0.321 7.49 1178 11.89
5/11/2021 11:30:00 AM 14.1 57.38 0.316 7.54 1215 12.07
5/11/2021 11:45:00 AM 14.23 57.614 0.314 7.59 1121 12.26
5/11/2021 12:00:00 PM 14.25 57.65 0.32 7.65 1244 12.42
5/11/2021 12:15:00 PM 14.25 57.65 0.314 7.69 1363 12.42
5/11/2021 12:30:00 PM 14.27 57.686 0.313 7.72 1233 12.45
5/11/2021 12:45:00 PM 14.25 57.65 0.305 7.74 1301 12.46
5/11/2021 1:00:00 PM 14.25 57.65 0.32 7.76 1192 12.4
5/11/2021 1:15:00 PM 14.29 57.722 0.317 7.76 1089 12.39
5/11/2021 1:30:00 PM 14.38 57.884 0.313 7.77 1272 12.47
5/11/2021 1:45:00 PM 14.44 57.992 0.315 7.8 1268 12.53
5/11/2021 2:00:00 PM 14.43 57.974 0.317 7.84 1247 12.57
5/11/2021 2:15:00 PM 14.41 57.938 0.318 7.85 1250 12.54
5/11/2021 2:30:00 PM 14.43 57.974 0.309 7.86 1280 12.54
5/11/2021 2:45:00 PM 14.47 58.046 0.305 7.88 1372 12.57
5/11/2021 3:00:00 PM 14.53 58.154 0.304 7.89 1191 12.59
5/11/2021 3:15:00 PM 14.57 58.226 0.305 7.9 1274 12.58
5/11/2021 3:30:00 PM 14.64 58.352 0.304 7.93 1093 12.64
5/11/2021 3:45:00 PM 14.7 58.46 0.303 7.96 1112 12.72
5/11/2021 4:00:00 PM 14.76 58.568 0.303 7.98 1230 12.76
5/11/2021 4:15:00 PM 14.87 58.766 0.302 8.01 1455 12.87
5/11/2021 4:30:00 PM 14.94 58.892 0.302 8.04 1145 12.89
5/11/2021 4:45:00 PM 14.96 58.928 0.302 8.06 1408 12.87
5/11/2021 5:00:00 PM 15 59 0.302 8.07 1276 12.79
5/11/2021 5:15:00 PM 14.98 58.964 0.299 8.08 1250 12.68
5/11/2021 5:30:00 PM 14.97 58.946 0.308 8.08 1701 12.58
5/11/2021 5:45:00 PM 14.97 58.946 0.306 8.07 1145 12.55
5/11/2021 6:00:00 PM 14.94 58.892 0.306 8.07 1341 12.48
5/11/2021 6:15:00 PM 14.95 58.91 0.306 8.07 1308 12.38
5/11/2021 6:30:00 PM 14.97 58.946 0.303 8.05 1250 12.31
5/11/2021 6:45:00 PM 14.96 58.928 0.303 8.06 1362 12.27
5/11/2021 7:00:00 PM 14.94 58.892 0.303 8.05 1331 12.12
5/11/2021 7:15:00 PM 14.92 58.856 0.302 8.05 1316 12
5/11/2021 7:30:00 PM 14.9 58.82 0.315 8.03 1356 11.76
5/11/2021 7:45:00 PM 14.85 58.73 0.311 8.01 1492 11.67
5/11/2021 8:00:00 PM 14.81 58.658 0.303 7.99 1792 11.55
5/11/2021 8:15:00 PM 14.75 58.55 0.305 7.96 1317 11.38
5/11/2021 8:30:00 PM 14.74 58.532 0.312 7.93 2179 11.21
5/11/2021 8:45:00 PM 14.69 58.442 0.318 7.9 1520 11.07
5/11/2021 9:00:00 PM 14.67 58.406 0.313 7.86 1774 10.92
5/11/2021 9:15:00 PM 14.64 58.352 0.31 7.84 1654 10.78
5/11/2021 9:30:00 PM 14.61 58.298 0.309 7.8 1740 10.65
5/11/2021 9:45:00 PM 14.57 58.226 0.309 7.78 1460 10.5
5/11/2021 10:00:00 PM 14.52 58.136 0.273 7.74 1505 10.35
5/11/2021 10:15:00 PM 14.48 58.064 0.297 7.71 1414 10.2
5/11/2021 10:30:00 PM 14.44 57.992 0.299 7.68 1514 10.11
5/11/2021 10:45:00 PM 14.39 57.902 0.271 7.64 1519 10
5/11/2021 11:00:00 PM 14.33 57.794 0.272 7.61 1155 9.89
5/11/2021 11:15:00 PM 14.27 57.686 0.269 7.57 1199 9.76
5/11/2021 11:30:00 PM 14.2 57.56 0.304 7.54 1265 9.7
5/11/2021 11:45:00 PM 14.14 57.452 0.279 7.5 900.5 9.61
5/12/2021 12:00:00 AM 14.09 57.362 0.313 7.46 919.4 9.6
5/12/2021 12:15:00 AM 14 57.2 0.271 7.44 927.4 9.56
5/12/2021 12:30:00 AM 13.95 57.11 0.313 7.43 1049 9.56
5/12/2021 12:45:00 AM 13.87 56.966 0.311 7.41 1102 9.55
5/12/2021 1:00:00 AM 13.82 56.876 0.306 7.39 975.2 9.49
5/12/2021 1:15:00 AM 13.76 56.768 0.31 7.37 1035 9.46
5/12/2021 1:30:00 AM 13.69 56.642 0.3 7.36 1009 9.45
5/12/2021 1:45:00 AM 13.63 56.534 0.305 7.35 1040 9.43
5/12/2021 2:00:00 AM 13.57 56.426 0.273 7.32 1011 9.37
5/12/2021 2:15:00 AM 13.52 56.336 0.311 7.32 865 9.42
5/12/2021 2:30:00 AM 13.45 56.21 0.306 7.3 1023 9.44
5/12/2021 2:45:00 AM 13.4 56.12 0.309 7.29 1080 9.43
5/12/2021 3:00:00 AM 13.32 55.976 0.277 7.28 978.4 9.41
5/12/2021 3:15:00 AM 13.27 55.886 0.28 7.27 1149 9.4
5/12/2021 3:30:00 AM 13.19 55.742 0.306 7.26 1035 9.39
5/12/2021 3:45:00 AM 13.11 55.598 0.311 7.26 1093 9.4
5/12/2021 4:00:00 AM 13.05 55.49 0.306 7.25 963.4 9.4
5/12/2021 4:15:00 AM 12.98 55.364 0.291 7.25 1022 9.42
5/12/2021 4:30:00 AM 12.9 55.22 0.295 7.24 855.9 9.43
5/12/2021 4:45:00 AM 12.82 55.076 0.302 7.22 828.4 9.43
5/12/2021 5:00:00 AM 12.74 54.932 0.301 7.21 311.2 9.43
5/12/2021 5:15:00 AM 12.67 54.806 0.274 7.2 4688 9.46
5/12/2021 5:30:00 AM 12.58 54.644 0.276 7.19 70.06 9.39
5/12/2021 5:45:00 AM 12.52 54.536 0.306 7.18 52.41 9.48
5/12/2021 6:00:00 AM 12.44 54.392 0.295 7.17 53.46 9.51
5/12/2021 6:15:00 AM 12.37 54.266 0.294 7.16 57.94 9.55
5/12/2021 6:30:00 AM 12.32 54.176 0.293 7.16 121.8 9.61
5/12/2021 6:45:00 AM 12.24 54.032 0.293 7.15 145.4 9.63
5/12/2021 7:00:00 AM 12.17 53.906 0.292 7.14 113.1 9.67
5/12/2021 7:15:00 AM 12.12 53.816 0.292 7.14 85.19 9.72
5/12/2021 7:30:00 AM 12.07 53.726 0.289 7.15 89.61 9.79
5/12/2021 7:45:00 AM 12.05 53.69 0.289 7.14 94.71 9.84
5/12/2021 8:00:00 AM 12.04 53.672 0.28 7.12 91.99 9.98
5/12/2021 8:15:00 AM 12.04 53.672 0.279 7.13 185.1 10.05
5/12/2021 8:30:00 AM 12.05 53.69 0.289 7.14 108.7 10.19
5/12/2021 8:45:00 AM 12.06 53.708 0.301 7.14 116.6 10.35
5/12/2021 9:00:00 AM 12.16 53.888 0.299 7.16 114.2 10.55
5/12/2021 9:15:00 AM 12.31 54.158 0.3 7.19 134 10.82
5/12/2021 9:30:00 AM 12.45 54.41 0.292 7.22 215.8 10.97
5/12/2021 9:45:00 AM 12.55 54.59 0.295 7.26 118.9 11.27
5/12/2021 10:00:00 AM 12.66 54.788 0.299 7.3 116.9 11.48
5/12/2021 10:15:00 AM 12.74 54.932 0.3 7.3 167.4 11.64
5/12/2021 10:30:00 AM 12.84 55.112 0.299 7.4 112.3 11.84
5/12/2021 10:45:00 AM 12.94 55.292 0.3 7.44 130.9 12.05
5/12/2021 11:00:00 AM 13.08 55.544 0.298 7.49 119.5 12.28
5/12/2021 11:15:00 AM 13.21 55.778 0.295 7.54 233.7 12.45
5/12/2021 11:30:00 AM 13.37 56.066 0.296 7.61 124.9 12.66
5/12/2021 11:45:00 AM 13.54 56.372 0.299 7.67 107.3 12.84
5/12/2021 12:00:00 PM 13.68 56.624 0.305 7.72 134.7 12.99
5/12/2021 12:15:00 PM 13.87 56.966 0.3 7.77 143.6 13.09
5/12/2021 12:30:00 PM 14.01 57.218 0.284 7.83 226.3 13.27
5/12/2021 12:45:00 PM 14.2 57.56 0.302 7.89 113.1 13.42
5/12/2021 1:00:00 PM 14.34 57.812 0.303 7.93 136.5 13.43
5/12/2021 1:15:00 PM 14.47 58.046 0.303 7.98 138.7 13.59
5/12/2021 1:30:00 PM 14.59 58.262 0.3 8.02 134.6 13.64
5/12/2021 1:45:00 PM 14.72 58.496 0.297 8.05 199.7 13.66
5/12/2021 2:00:00 PM 14.85 58.73 0.297 8.09 141.9 13.8
5/12/2021 2:15:00 PM 14.99 58.982 0.297 8.13 242.9 13.81
5/12/2021 2:30:00 PM 15.12 59.216 0.297 8.16 238.5 13.86
5/12/2021 2:45:00 PM 15.23 59.414 0.301 8.19 125.4 13.88
5/12/2021 3:00:00 PM 15.37 59.666 0.306 8.21 132.8 13.95
5/12/2021 3:15:00 PM 15.47 59.846 0.304 8.24 144.1 13.97
5/12/2021 3:30:00 PM 15.58 60.044 0.303 8.26 493.2 13.98
5/12/2021 3:45:00 PM 15.66 60.188 0.303 8.29 427.2 14.01
5/12/2021 4:00:00 PM 15.69 60.242 0.3 8.3 449.4 13.96
5/12/2021 4:15:00 PM 15.71 60.278 0.301 8.3 477.8 13.89
5/12/2021 4:30:00 PM 15.68 60.224 0.301 8.31 462.6 13.78
5/12/2021 4:45:00 PM 15.66 60.188 0.302 8.31 495 13.65
5/12/2021 5:00:00 PM 15.66 60.188 0.302 8.3 476.4 13.51
5/12/2021 5:15:00 PM 15.71 60.278 0.302 8.29 58.33 13.38
5/12/2021 5:30:00 PM 15.76 60.368 0.303 8.29 66.46 13.37
5/12/2021 5:45:00 PM 15.79 60.422 0.304 8.29 111.5 13.32
5/12/2021 6:00:00 PM 15.82 60.476 0.303 8.3 142 13.21
5/12/2021 6:15:00 PM 15.83 60.494 0.304 8.3 118.5 13.05
5/12/2021 6:30:00 PM 15.81 60.458 0.305 8.28 127 12.88
5/12/2021 6:45:00 PM 15.79 60.422 0.305 8.27 142.3 12.72
5/12/2021 7:00:00 PM 15.72 60.296 0.306 8.27 154.2 12.54
5/12/2021 7:15:00 PM 15.66 60.188 0.303 8.24 137.5 12.35
5/12/2021 7:30:00 PM 15.59 60.062 0.303 8.21 145.9 12.18
5/12/2021 7:45:00 PM 15.52 59.936 0.305 8.18 65.17 11.97
5/12/2021 8:00:00 PM 15.45 59.81 0.307 8.14 181.7 11.8
5/12/2021 8:15:00 PM 15.38 59.684 0.307 8.11 68.8 11.59
5/12/2021 8:30:00 PM 15.32 59.576 0.273 8.07 60.6 11.39
5/12/2021 8:45:00 PM 15.26 59.468 0.317 8.03 76.76 11.19
5/12/2021 9:00:00 PM 15.21 59.378 0.319 7.98 58.9 10.97
5/12/2021 9:15:00 PM 15.13 59.234 0.318 7.94 54.82 10.78
5/12/2021 9:30:00 PM 15.07 59.126 0.297 7.89 52.94 10.56
5/12/2021 9:45:00 PM 15.02 59.036 0.318 7.84 96.91 10.42
5/12/2021 10:00:00 PM 14.95 58.91 0.301 7.79 55.5 10.27
5/12/2021 10:15:00 PM 14.9 58.82 0.319 7.75 55.51 10.14
5/12/2021 10:30:00 PM 14.81 58.658 0.286 7.7 51.6 9.99
5/12/2021 10:45:00 PM 14.77 58.586 0.281 7.66 57.98 9.86
5/12/2021 11:00:00 PM 14.72 58.496 0.31 7.62 80.71 9.76
5/12/2021 11:15:00 PM 14.65 58.37 0.317 7.59 67.53 9.62
5/12/2021 11:30:00 PM 14.61 58.298 0.309 7.54 70.15 9.57
5/12/2021 11:45:00 PM 14.55 58.19 0.289 7.52 57.59 9.49
5/13/2021 12:00:00 AM 14.49 58.082 0.322 7.5 71.14 9.42
5/13/2021 12:15:00 AM 14.44 57.992 0.321 7.48 61.21 9.37
5/13/2021 12:30:00 AM 14.39 57.902 0.283 7.46 64.83 9.33
5/13/2021 12:45:00 AM 14.34 57.812 0.309 7.45 55.98 9.3
5/13/2021 1:00:00 AM 14.26 57.668 0.31 7.42 59.3 9.26
5/13/2021 1:15:00 AM 14.21 57.578 0.274 7.41 66.85 9.24
5/13/2021 1:30:00 AM 14.14 57.452 0.32 7.39 63.2 9.22
5/13/2021 1:45:00 AM 14.08 57.344 0.319 7.37 70.65 9.24
5/13/2021 2:00:00 AM 14 57.2 0.311 7.35 65.18 9.13
5/13/2021 2:15:00 AM 13.91 57.038 0.315 7.34 70.37 9.16
5/13/2021 2:30:00 AM 13.82 56.876 0.285 7.33 71.34 9.18
5/13/2021 2:45:00 AM 13.74 56.732 0.321 7.33 60.9 9.18
5/13/2021 3:00:00 AM 13.64 56.552 0.321 7.31 75.67 9.18
5/13/2021 3:15:00 AM 13.59 56.462 0.316 7.3 85.39 9.16
5/13/2021 3:30:00 AM 13.49 56.282 0.313 7.29 71.76 9.14
5/13/2021 3:45:00 AM 13.41 56.138 0.303 7.28 80.52 9.11
5/13/2021 4:00:00 AM 13.32 55.976 0.314 7.28 81.47 9.17
5/13/2021 4:15:00 AM 13.23 55.814 0.302 7.27 76.94 9.2
5/13/2021 4:30:00 AM 13.14 55.652 0.299 7.26 84.98 9.25
5/13/2021 4:45:00 AM 13.06 55.508 0.299 7.25 100.4 9.25
5/13/2021 5:00:00 AM 12.98 55.364 0.285 7.24 167.3 9.29
5/13/2021 5:15:00 AM 12.89 55.202 0.295 7.23 87.34 9.34
5/13/2021 5:30:00 AM 12.83 55.094 0.297 7.22 105.5 9.31
5/13/2021 5:45:00 AM 12.74 54.932 0.319 7.21 97.95 9.33
5/13/2021 6:00:00 AM 12.66 54.788 0.299 7.2 103.3 9.36
5/13/2021 6:15:00 AM 12.58 54.644 0.3 7.2 104.3 9.37
5/13/2021 6:30:00 AM 12.52 54.536 0.299 7.19 106.8 9.41
5/13/2021 6:45:00 AM 12.46 54.428 0.3 7.19 101.1 9.43
5/13/2021 7:00:00 AM 12.4 54.32 0.298 7.18 116.6 9.46
5/13/2021 7:15:00 AM 12.35 54.23 0.296 7.18 124.2 9.53
5/13/2021 7:30:00 AM 12.31 54.158 0.293 7.17 110.5 9.59
5/13/2021 7:45:00 AM 12.29 54.122 0.313 7.16 113.9 9.7
5/13/2021 8:00:00 AM 12.3 54.14 0.298 7.15 116.7 9.81
5/13/2021 8:15:00 AM 12.32 54.176 0.298 7.15 119.5 9.94
5/13/2021 8:30:00 AM 12.35 54.23 0.305 7.15 146.2 10.09
5/13/2021 8:45:00 AM 12.38 54.284 0.308 7.16 131.7 10.26
5/13/2021 9:00:00 AM 12.49 54.482 0.302 7.17 119.7 10.48
5/13/2021 9:15:00 AM 12.64 54.752 0.301 7.18 125.8 10.7
5/13/2021 9:30:00 AM 12.82 55.076 0.298 7.21 126.3 10.99
5/13/2021 9:45:00 AM 12.93 55.274 0.301 7.27 127.1 11.29
5/13/2021 10:00:00 AM 13.07 55.526 0.296 7.31 128.7 11.49
5/13/2021 10:15:00 AM 13.14 55.652 0.298 7.37 125.7 11.71
5/13/2021 10:30:00 AM 13.24 55.832 0.293 7.43 126.8 12
5/13/2021 10:45:00 AM 13.35 56.03 0.304 7.49 122.5 12.28
5/13/2021 11:00:00 AM 13.5 56.3 0.31 7.55 127.3 12.44
5/13/2021 11:15:00 AM 13.66 56.588 0.308 7.61 126.4 12.67
5/13/2021 11:30:00 AM 13.85 56.93 0.308 7.68 129.7 12.92
5/13/2021 11:45:00 AM 14.05 57.29 0.312 7.74 129 13.14
5/13/2021 12:00:00 PM 14.2 57.56 0.293 7.82 102.6 13.36
5/13/2021 12:15:00 PM 14.38 57.884 0.292 7.89 113.7 13.53
5/13/2021 12:30:00 PM 14.54 58.172 0.3 7.94 121.3 13.71
5/13/2021 12:45:00 PM 14.69 58.442 0.296 8.01 90.49 13.82
5/13/2021 1:00:00 PM 14.86 58.748 0.279 8.06 102.4 14
5/13/2021 1:15:00 PM 15.01 59.018 0.307 8.1 176.2 14.09
5/13/2021 1:30:00 PM 15.12 59.216 0.296 8.15 125.2 14.22
5/13/2021 1:45:00 PM 15.25 59.45 0.292 8.19 115.6 14.3
5/13/2021 2:00:00 PM 15.37 59.666 0.298 8.23 114 14.34
5/13/2021 2:15:00 PM 15.51 59.918 0.287 8.26 101.8 14.43
5/13/2021 2:30:00 PM 15.62 60.116 0.294 8.29 177.7 14.49
5/13/2021 2:45:00 PM 15.71 60.278 0.298 8.33 104.1 14.48
5/13/2021 3:00:00 PM 15.82 60.476 0.292 8.35 104.2 14.52
5/13/2021 3:15:00 PM 15.91 60.638 0.288 8.37 126.3 14.54
5/13/2021 3:30:00 PM 15.99 60.782 0.286 8.39 174.6 14.54
5/13/2021 3:45:00 PM 16.09 60.962 0.287 8.41 114 14.48
5/13/2021 4:00:00 PM 16.15 61.07 0.288 8.43 119.1 14.46
5/13/2021 4:15:00 PM 16.21 61.178 0.286 8.43 83 14.36
5/13/2021 4:30:00 PM 16.27 61.286 0.289 8.45 86.27 14.37
5/13/2021 4:45:00 PM 16.34 61.412 0.291 8.46 86.48 14.34
5/13/2021 5:00:00 PM 16.4 61.52 0.289 8.47 96.83 14.25
5/13/2021 5:15:00 PM 16.44 61.592 0.292 8.48 98.53 14.18
5/13/2021 5:30:00 PM 16.45 61.61 0.291 8.48 119.7 14.13
5/13/2021 5:45:00 PM 16.43 61.574 0.293 8.48 1963 13.99
5/13/2021 6:00:00 PM 16.44 61.592 0.295 8.47 70.2 13.74
5/13/2021 6:15:00 PM 16.41 61.538 0.295 8.45 65.95 13.57
5/13/2021 6:30:00 PM 16.42 61.556 0.296 8.44 71.19 13.39
5/13/2021 6:45:00 PM 16.41 61.538 0.299 8.42 70.55 13.23
5/13/2021 7:00:00 PM 16.4 61.52 0.297 8.42 70.51 13.11
5/13/2021 7:15:00 PM 16.41 61.538 0.298 8.41 71.34 12.91
5/13/2021 7:30:00 PM 16.38 61.484 0.297 8.39 59.68 12.67
5/13/2021 7:45:00 PM 16.36 61.448 0.291 8.36 66.66 12.43
5/13/2021 8:00:00 PM 16.33 61.394 0.31 8.33 67.48 12.17
5/13/2021 8:15:00 PM 16.29 61.322 0.311 8.32 62.79 11.9
5/13/2021 8:30:00 PM 16.24 61.232 0.307 8.27 61.48 11.63
5/13/2021 8:45:00 PM 16.17 61.106 0.298 8.23 61.84 11.35
5/13/2021 9:00:00 PM 16.11 60.998 0.313 8.18 78.71 11.07
5/13/2021 9:15:00 PM 16.05 60.89 0.317 8.13 67.61 10.81
5/13/2021 9:30:00 PM 16 60.8 0.318 8.08 99.88 10.58
5/13/2021 9:45:00 PM 15.95 60.71 0.318 8.03 89.02 10.36
5/13/2021 10:00:00 PM 15.9 60.62 0.318 7.97 84 10.12
5/13/2021 10:15:00 PM 15.85 60.53 0.317 7.91 98.53 9.96
5/13/2021 10:30:00 PM 15.8 60.44 0.317 7.85 95.66 9.77
5/13/2021 10:45:00 PM 15.76 60.368 0.317 7.8 91.16 9.62
5/13/2021 11:00:00 PM 15.72 60.296 0.317 7.75 901.2 9.45
5/13/2021 11:15:00 PM 15.67 60.206 0.318 7.7 900.8 9.32
5/13/2021 11:30:00 PM 15.6 60.08 0.319 7.65 900.3 9.19
5/13/2021 11:45:00 PM 15.56 60.008 0.32 7.61 882.4 9.1
5/14/2021 12:00:00 AM 15.51 59.918 0.321 7.58 860.1 9.02
5/14/2021 12:15:00 AM 15.45 59.81 0.322 7.54 870.9 8.94
5/14/2021 12:30:00 AM 15.41 59.738 0.322 7.53 869 8.85
5/14/2021 12:45:00 AM 15.36 59.648 0.324 7.5 875.3 8.85
5/14/2021 1:00:00 AM 15.29 59.522 0.322 7.48 799.6 8.79
5/14/2021 1:15:00 AM 15.24 59.432 0.32 7.46 286.1 8.76
5/14/2021 1:30:00 AM 15.18 59.324 0.319 7.44 296.1 8.77
5/14/2021 1:45:00 AM 15.13 59.234 0.318 7.42 82.34 8.72
5/14/2021 2:00:00 AM 15.05 59.09 0.317 7.42 87.97 8.73
5/14/2021 2:15:00 AM 14.98 58.964 0.318 7.4 327.3 8.69
5/14/2021 2:30:00 AM 14.89 58.802 0.319 7.38 79.57 8.41
5/14/2021 2:45:00 AM 14.82 58.676 0.319 7.37 80.05 8.65
5/14/2021 3:00:00 AM 14.73 58.514 0.32 7.36 79.74 8.72
5/14/2021 3:15:00 AM 14.65 58.37 0.321 7.35 84.21 8.72
5/14/2021 3:30:00 AM 14.55 58.19 0.321 7.34 109.8 8.75
5/14/2021 3:45:00 AM 14.45 58.01 0.322 7.32 101.4 8.71
5/14/2021 4:00:00 AM 14.38 57.884 0.32 7.31 116.3 8.75
5/14/2021 4:15:00 AM 14.29 57.722 0.319 7.3 117.6 8.75
5/14/2021 4:30:00 AM 14.2 57.56 0.318 7.3 120.7 8.77
5/14/2021 4:45:00 AM 14.1 57.38 0.307 7.29 98.82 8.81
5/14/2021 5:00:00 AM 14.02 57.236 0.313 7.28 163.3 8.81
5/14/2021 5:15:00 AM 13.94 57.092 0.301 7.27 144.4 8.83
5/14/2021 5:30:00 AM 13.84 56.912 0.293 7.27 153.3 8.84
5/14/2021 5:45:00 AM 13.74 56.732 0.292 7.24 102.8 8.89
5/14/2021 6:00:00 AM 13.65 56.57 0.294 7.23 101.7 8.91
5/14/2021 6:15:00 AM 13.57 56.426 0.292 7.23 102.4 8.93
5/14/2021 6:30:00 AM 13.48 56.264 0.293 7.22 299.8 8.95
5/14/2021 6:45:00 AM 13.39 56.102 0.291 7.21 333.4 8.95
5/14/2021 7:00:00 AM 13.33 55.994 0.293 7.2 311.6 9.04
5/14/2021 7:15:00 AM 13.27 55.886 0.292 7.2 305 9.13
5/14/2021 7:30:00 AM 13.22 55.796 0.292 7.2 371.8 9.2
5/14/2021 7:45:00 AM 13.17 55.706 0.29 7.19 488.8 9.31
5/14/2021 8:00:00 AM 13.17 55.706 0.287 7.18 320.6 9.44
5/14/2021 8:15:00 AM 13.18 55.724 0.29 7.18 492.9 9.57
5/14/2021 8:30:00 AM 13.18 55.724 0.29 7.17 333.6 9.71
5/14/2021 8:45:00 AM 13.22 55.796 0.291 7.19 354.7 9.99
5/14/2021 9:00:00 AM 13.33 55.994 0.291 7.19 342.2 10.27
5/14/2021 9:15:00 AM 13.48 56.264 0.289 7.21 320.7 10.52
5/14/2021 9:30:00 AM 13.66 56.588 0.291 7.25 360.2 10.84
5/14/2021 9:45:00 AM 13.76 56.768 0.304 7.29 341 11.16
5/14/2021 10:00:00 AM 13.89 57.002 0.307 7.36 365.7 11.45
5/14/2021 10:15:00 AM 13.97 57.146 0.305 7.41 339.5 11.76
5/14/2021 10:30:00 AM 14.1 57.38 0.303 7.5 342.2 12.11
5/14/2021 10:45:00 AM 14.22 57.596 0.303 7.58 337.6 12.4
5/14/2021 11:00:00 AM 14.35 57.83 0.305 7.65 390.3 12.63
5/14/2021 11:15:00 AM 14.5 58.1 0.307 7.74 353.3 12.94
5/14/2021 11:30:00 AM 14.68 58.424 0.3 7.81 322.4 13.26
5/14/2021 11:45:00 AM 14.88 58.784 0.299 7.89 350.2 13.48
5/14/2021 12:00:00 PM 15.04 59.072 0.302 7.96 342.1 13.74
5/14/2021 12:15:00 PM 15.21 59.378 0.304 8.03 322 14.04
5/14/2021 12:30:00 PM 15.33 59.594 0.304 8.09 368.2 14.17
5/14/2021 12:45:00 PM 15.47 59.846 0.308 8.15 362.7 14.34
5/14/2021 1:00:00 PM 15.66 60.188 0.302 8.2 365.1 14.4
5/14/2021 1:15:00 PM 15.67 60.206 0.302 8.26 363.7 14.49
5/14/2021 1:30:00 PM 15.75 60.35 0.301 8.3 334 14.53
5/14/2021 1:45:00 PM 15.91 60.638 0.301 8.32 335 14.55
5/14/2021 2:00:00 PM 16.09 60.962 0.299 8.36 312.2 14.69
5/14/2021 2:15:00 PM 16.23 61.214 0.299 8.4 325.9 14.86
5/14/2021 2:30:00 PM 16.36 61.448 0.302 8.44 317.7 14.92
5/14/2021 2:45:00 PM 16.38 61.484 0.301 8.47 325 14.84
5/14/2021 3:00:00 PM 16.49 61.682 0.301 8.49 311.5 14.86
5/14/2021 3:15:00 PM 16.63 61.934 0.301 8.51 313.3 14.87
5/14/2021 3:30:00 PM 16.76 62.168 0.3 8.53 313.9 14.88
5/14/2021 3:45:00 PM 16.84 62.312 0.3 8.56 313.5 14.93
5/14/2021 4:00:00 PM 16.9 62.42 0.293 8.58 1226 14.85
5/14/2021 4:15:00 PM 16.95 62.51 0.298 8.59 169.5 14.82
5/14/2021 4:30:00 PM 17.01 62.618 0.298 8.6 179.1 14.8
5/14/2021 4:45:00 PM 17.11 62.798 0.291 8.62 172.6 14.76
5/14/2021 5:00:00 PM 17.2 62.96 0.296 8.62 185.4 14.79
5/14/2021 5:15:00 PM 17.26 63.068 0.296 8.63 191.2 14.62
5/14/2021 5:30:00 PM 17.31 63.158 0.302 8.63 205.5 14.59
5/14/2021 5:45:00 PM 17.34 63.212 0.303 8.64 222.5 14.47
5/14/2021 6:00:00 PM 17.38 63.284 0.303 8.64 223.7 14.27
5/14/2021 6:15:00 PM 17.41 63.338 0.304 8.64 230 14.13
5/14/2021 6:30:00 PM 17.43 63.374 0.305 8.63 244 13.99
5/14/2021 6:45:00 PM 17.46 63.428 0.304 8.63 275.7 13.78
5/14/2021 7:00:00 PM 17.48 63.464 0.3 8.62 332.7 13.55
5/14/2021 7:15:00 PM 17.46 63.428 0.299 8.6 257 13.3
5/14/2021 7:30:00 PM 17.43 63.374 0.3 8.58 245.6 13
5/14/2021 7:45:00 PM 17.39 63.302 0.3 8.55 243.5 12.56
5/14/2021 8:00:00 PM 17.37 63.266 0.302 8.51 255 12.27
5/14/2021 8:15:00 PM 17.34 63.212 0.3 8.48 239.5 11.99
5/14/2021 8:30:00 PM 17.3 63.14 0.305 8.44 300.4 11.64
5/14/2021 8:45:00 PM 17.25 63.05 0.292 8.39 294.1 11.35
5/14/2021 9:00:00 PM 17.2 62.96 0.312 8.33 303.3 11.04
5/14/2021 9:15:00 PM 17.14 62.852 0.282 8.28 299.6 10.73
5/14/2021 9:30:00 PM 17.07 62.726 0.309 8.22 289.8 10.43
5/14/2021 9:45:00 PM 17.01 62.618 0.278 8.17 285.9 10.17
5/14/2021 10:00:00 PM 16.95 62.51 0.312 8.09 300.5 9.93
5/14/2021 10:15:00 PM 16.9 62.42 0.321 8.02 318.9 9.7
5/14/2021 10:30:00 PM 16.83 62.294 0.28 7.97 308.3 9.52
5/14/2021 10:45:00 PM 16.78 62.204 0.323 7.91 312.4 9.32
5/14/2021 11:00:00 PM 16.73 62.114 0.323 7.85 326.5 9.16
5/14/2021 11:15:00 PM 16.67 62.006 0.324 7.8 393.9 9.03
5/14/2021 11:30:00 PM 16.61 61.898 0.325 7.74 379.3 8.87
5/14/2021 11:45:00 PM 16.57 61.826 0.327 7.7 350.6 8.76
5/15/2021 12:00:00 AM 16.52 61.736 0.327 7.65 356.4 8.66
5/15/2021 12:15:00 AM 16.48 61.664 0.329 7.62 359.6 8.58
5/15/2021 12:30:00 AM 16.41 61.538 0.331 7.59 356.7 8.5
5/15/2021 12:45:00 AM 16.37 61.466 0.33 7.56 349.6 8.45
5/15/2021 1:00:00 AM 16.32 61.376 0.33 7.53 348 8.39
5/15/2021 1:15:00 AM 16.27 61.286 0.329 7.52 297.4 8.37
5/15/2021 1:30:00 AM 16.22 61.196 0.326 7.51 290.9 8.37
5/15/2021 1:45:00 AM 16.16 61.088 0.327 7.49 299.8 8.34
5/15/2021 2:00:00 AM 16.1 60.98 0.327 7.47 289.3 8.35
5/15/2021 2:15:00 AM 16.03 60.854 0.327 7.46 303 8.31
5/15/2021 2:30:00 AM 15.96 60.728 0.328 7.46 312 8.3
5/15/2021 2:45:00 AM 15.9 60.62 0.328 7.44 276.8 8.28
5/15/2021 3:00:00 AM 15.82 60.476 0.33 7.44 194.3 8.28
5/15/2021 3:15:00 AM 15.73 60.314 0.33 7.44 192.9 8.27
5/15/2021 3:30:00 AM 15.67 60.206 0.331 7.43 199.9 8.26
5/15/2021 3:45:00 AM 15.58 60.044 0.331 7.42 185.5 8.26
5/15/2021 4:00:00 AM 15.49 59.882 0.331 7.41 186.3 8.25
5/15/2021 4:15:00 AM 15.42 59.756 0.331 7.4 179.5 8.3
5/15/2021 4:30:00 AM 15.31 59.558 0.33 7.38 179.4 8.28
5/15/2021 4:45:00 AM 15.22 59.396 0.329 7.38 187.9 8.3
5/15/2021 5:00:00 AM 15.15 59.27 0.323 7.36 175.4 8.33
5/15/2021 5:15:00 AM 15.03 59.054 0.326 7.35 100.9 8.36
5/15/2021 5:30:00 AM 14.96 58.928 0.327 7.34 118 8.35
5/15/2021 5:45:00 AM 14.88 58.784 0.324 7.33 117.3 8.34
5/15/2021 6:00:00 AM 14.77 58.586 0.315 7.33 110.3 8.33
5/15/2021 6:15:00 AM 14.68 58.424 0.329 7.31 2660 8.36
5/15/2021 6:30:00 AM 14.61 58.298 0.33 7.31 2733 8.46
5/15/2021 6:45:00 AM 14.53 58.154 0.329 7.31 2728 8.51
5/15/2021 7:00:00 AM 14.45 58.01 0.325 7.3 2822 8.57
5/15/2021 7:15:00 AM 14.38 57.884 0.327 7.3 2819 8.65
5/15/2021 7:30:00 AM 14.34 57.812 0.321 7.29 3875 8.74
5/15/2021 7:45:00 AM 14.3 57.74 0.321 7.27 3874 8.85
5/15/2021 8:00:00 AM 14.28 57.704 0.32 7.27 3948 9
5/15/2021 8:15:00 AM 14.3 57.74 0.321 7.25 4261 9.18
5/15/2021 8:30:00 AM 14.3 57.74 0.32 7.25 4189 9.35
5/15/2021 8:45:00 AM 14.32 57.776 0.319 7.26 4138 9.63
5/15/2021 9:00:00 AM 14.42 57.956 0.324 7.27 4270 9.91
5/15/2021 9:15:00 AM 14.56 58.208 0.323 7.3 4242 10.28
5/15/2021 9:30:00 AM 14.74 58.532 0.324 7.34 4293 10.67
5/15/2021 9:45:00 AM 14.87 58.766 0.325 7.41 4268 11
5/15/2021 10:00:00 AM 14.93 58.874 0.325 7.48 2706 11.39
5/15/2021 10:15:00 AM 15.02 59.036 0.324 7.58 2636 11.8
5/15/2021 10:30:00 AM 15.13 59.234 0.322 7.64 1945 12.17
5/15/2021 10:45:00 AM 15.25 59.45 0.321 7.73 1864 12.55
5/15/2021 11:00:00 AM 15.38 59.684 0.32 7.82 1832 12.82
5/15/2021 11:15:00 AM 15.53 59.954 0.32 7.9 2035 13.2
5/15/2021 11:30:00 AM 15.71 60.278 0.319 7.99 2072 13.54
5/15/2021 11:45:00 AM 15.89 60.602 0.319 8.06 2116 13.89
5/15/2021 12:00:00 PM 16.05 60.89 0.319 8.12 2131 14.11
5/15/2021 12:15:00 PM 16.25 61.25 0.32 8.18 2148 14.24
5/15/2021 12:30:00 PM 16.31 61.358 0.317 8.25 2136 14.49
5/15/2021 12:45:00 PM 16.3 61.34 0.317 8.31 2160 14.6
5/15/2021 1:00:00 PM 16.29 61.322 0.317 8.33 2162 14.57
5/15/2021 1:15:00 PM 16.31 61.358 0.316 8.34 2184 14.42
5/15/2021 1:30:00 PM 16.34 61.412 0.316 8.34 2183 14.32
5/15/2021 1:45:00 PM 16.38 61.484 0.314 8.35 2143 14.29
5/15/2021 2:00:00 PM 16.47 61.646 0.315 8.36 2189 14.32
5/15/2021 2:15:00 PM 16.59 61.862 0.313 8.39 2224 14.4
5/15/2021 2:30:00 PM 16.69 62.042 0.313 8.42 2200 14.56
5/15/2021 2:45:00 PM 16.79 62.222 0.305 8.44 2200 14.64
5/15/2021 3:00:00 PM 16.92 62.456 0.302 8.47 2174 14.79
5/15/2021 3:15:00 PM 17.05 62.69 0.312 8.49 2131 14.85
5/15/2021 3:30:00 PM 17.09 62.762 0.313 8.52 2126 14.78
5/15/2021 3:45:00 PM 17.16 62.888 0.309 8.53 2095 14.7
5/15/2021 4:00:00 PM 17.22 62.996 0.309 8.55 2062 14.7
5/15/2021 4:15:00 PM 17.26 63.068 0.313 8.57 2041 14.69
5/15/2021 4:30:00 PM 17.27 63.086 0.305 8.58 2230 14.64
5/15/2021 4:45:00 PM 17.29 63.122 0.311 8.59 2280 14.62
5/15/2021 5:00:00 PM 17.35 63.23 0.312 8.59 2341 14.6
5/15/2021 5:15:00 PM 17.41 63.338 0.311 8.6 4661 14.56
5/15/2021 5:30:00 PM 17.47 63.446 0.311 8.62 3144 14.6
5/15/2021 5:45:00 PM 17.53 63.554 0.313 8.64 3299 14.56
5/15/2021 6:00:00 PM 17.55 63.59 0.313 8.63 3341 14.47
5/15/2021 6:15:00 PM 17.58 63.644 0.312 8.63 3437 14.34
5/15/2021 6:30:00 PM 17.61 63.698 0.312 8.62 3506 14.17
5/15/2021 6:45:00 PM 17.64 63.752 0.312 8.62 3567 13.96
5/15/2021 7:00:00 PM 17.64 63.752 0.31 8.61 3620 13.8
5/15/2021 7:15:00 PM 17.65 63.77 0.307 8.61 3599 13.55
5/15/2021 7:30:00 PM 17.64 63.752 0.306 8.59 1868 13.23
5/15/2021 7:45:00 PM 17.6 63.68 0.307 8.56 1925 12.9
5/15/2021 8:00:00 PM 17.56 63.608 0.298 8.54 1901 12.63
5/15/2021 8:15:00 PM 17.5 63.5 0.314 8.51 1894 12.2
5/15/2021 8:30:00 PM 17.47 63.446 0.299 8.47 1883 11.94
5/15/2021 8:45:00 PM 17.39 63.302 0.305 8.43 1787 11.69
5/15/2021 9:00:00 PM 17.35 63.23 0.318 8.39 1843 11.37
5/15/2021 9:15:00 PM 17.3 63.14 0.32 8.35 1836 11.07
5/15/2021 9:30:00 PM 17.23 63.014 0.322 8.32 1786 10.81
5/15/2021 9:45:00 PM 17.19 62.942 0.322 8.26 1788 10.39
5/15/2021 10:00:00 PM 17.14 62.852 0.319 8.22 1782 10.26
5/15/2021 10:15:00 PM 17.08 62.744 0.309 8.16 1789 9.99
5/15/2021 10:30:00 PM 17.06 62.708 0.311 8.11 1736 9.73
5/15/2021 10:45:00 PM 17 62.6 0.317 8.04 1686 9.51
5/15/2021 11:00:00 PM 16.96 62.528 0.323 7.98 1702 9.3
5/15/2021 11:15:00 PM 16.92 62.456 0.324 7.91 1711 9.05
5/15/2021 11:30:00 PM 16.9 62.42 0.324 7.86 1697 8.92
5/15/2021 11:45:00 PM 16.84 62.312 0.327 7.8 1728 8.74
5/16/2021 12:00:00 AM 16.8 62.24 0.328 7.74 1758 8.59
5/16/2021 12:15:00 AM 16.75 62.15 0.329 7.69 1754 8.48
5/16/2021 12:30:00 AM 16.69 62.042 0.331 7.65 1691 8.41
5/16/2021 12:45:00 AM 16.68 62.024 0.331 7.62 1794 8.33
5/16/2021 1:00:00 AM 16.63 61.934 0.33 7.59 1693 8.27
5/16/2021 1:15:00 AM 16.6 61.88 0.33 7.58 1700 8.23
5/16/2021 1:30:00 AM 16.54 61.772 0.329 7.55 1669 8.18
5/16/2021 1:45:00 AM 16.47 61.646 0.329 7.52 1981 8.14
5/16/2021 2:00:00 AM 16.44 61.592 0.328 7.51 1930 8.11
5/16/2021 2:15:00 AM 16.39 61.502 0.327 7.49 1782 8.13
5/16/2021 2:30:00 AM 16.34 61.412 0.328 7.48 1813 8.08
5/16/2021 2:45:00 AM 16.27 61.286 0.329 7.47 1706 8.03
5/16/2021 3:00:00 AM 16.21 61.178 0.33 7.45 1709 8.08
5/16/2021 3:15:00 AM 16.13 61.034 0.33 7.44 1712 8.03
5/16/2021 3:30:00 AM 16.06 60.908 0.331 7.43 1788 8.03
5/16/2021 3:45:00 AM 15.99 60.782 0.33 7.42 1762 8.06
5/16/2021 4:00:00 AM 15.89 60.602 0.331 7.42 1736 8.01
5/16/2021 4:15:00 AM 15.79 60.422 0.331 7.39 1749 8.03
5/16/2021 4:30:00 AM 15.72 60.296 0.329 7.38 1724 8.05
5/16/2021 4:45:00 AM 15.63 60.134 0.327 7.37 1763 8.05
5/16/2021 5:00:00 AM 15.54 59.972 0.327 7.36 1709 8.1
5/16/2021 5:15:00 AM 15.43 59.774 0.327 7.36 1741 8.12
5/16/2021 5:30:00 AM 15.36 59.648 0.328 7.35 1733 8.14
5/16/2021 5:45:00 AM 15.27 59.486 0.328 7.34 1884 8.12
5/16/2021 6:00:00 AM 15.19 59.342 0.328 7.33 1886 8.07
5/16/2021 6:15:00 AM 15.11 59.198 0.329 7.32 1883 8.1
5/16/2021 6:30:00 AM 15.04 59.072 0.329 7.31 1859 8.19
5/16/2021 6:45:00 AM 14.97 58.946 0.33 7.31 1927 8.22
5/16/2021 7:00:00 AM 14.91 58.838 0.33 7.31 1859 8.2
5/16/2021 7:15:00 AM 14.86 58.748 0.329 7.28 1857 8.48
5/16/2021 7:30:00 AM 14.81 58.658 0.329 7.28 1851 8.52
5/16/2021 7:45:00 AM 14.78 58.604 0.328 7.28 1869 8.49
5/16/2021 8:00:00 AM 14.77 58.586 0.327 7.28 1996 8.72
5/16/2021 8:15:00 AM 14.74 58.532 0.327 7.27 1971 8.81
5/16/2021 8:30:00 AM 14.72 58.496 0.327 7.29 1953 9.14
5/16/2021 8:45:00 AM 14.71 58.478 0.328 7.29 2074 9.41
5/16/2021 9:00:00 AM 14.71 58.478 0.327 7.31 2057 9.65
5/16/2021 9:15:00 AM 14.72 58.496 0.329 7.33 2008 9.9
5/16/2021 9:30:00 AM 14.73 58.514 0.329 7.35 1966 9.95
5/16/2021 9:45:00 AM 14.74 58.532 0.328 7.38 1950 10.27
5/16/2021 10:00:00 AM 14.75 58.55 0.328 7.42 1957 10.27
5/16/2021 10:15:00 AM 14.76 58.568 0.327 7.45 1931 10.72
5/16/2021 10:30:00 AM 14.79 58.622 0.326 7.5 1980 11.04
5/16/2021 10:45:00 AM 14.79 58.622 0.326 7.53 1952 11.42
5/16/2021 11:00:00 AM 14.81 58.658 0.325 7.58 1923 11.57
5/16/2021 11:15:00 AM 14.85 58.73 0.323 7.61 1914 11.75
5/16/2021 11:30:00 AM 14.92 58.856 0.325 7.65 1986 11.91
5/16/2021 11:45:00 AM 14.95 58.91 0.324 7.72 1948 12.29
5/16/2021 12:00:00 PM 15.02 59.036 0.323 7.78 1909 12.44
5/16/2021 12:15:00 PM 15.05 59.09 0.324 7.84 1917 12.7
5/16/2021 12:30:00 PM 15.13 59.234 0.324 7.9 1901 13.07
5/16/2021 12:45:00 PM 15.22 59.396 0.323 7.96 1983 13.46
5/16/2021 1:00:00 PM 15.23 59.414 0.323 8.01 1951 13.57
5/16/2021 1:15:00 PM 15.25 59.45 0.322 8.06 1930 13.71
5/16/2021 1:30:00 PM 15.29 59.522 0.32 8.08 1881 13.74
5/16/2021 1:45:00 PM 15.39 59.702 0.319 8.11 1886 13.93
5/16/2021 2:00:00 PM 15.47 59.846 0.318 8.16 1904 14.2
5/16/2021 2:15:00 PM 15.57 60.026 0.316 8.19 1860 14.35
5/16/2021 2:30:00 PM 15.6 60.08 0.316 8.24 1834 14.59
5/16/2021 2:45:00 PM 15.64 60.152 0.316 8.28 1849 14.76
5/16/2021 3:00:00 PM 15.68 60.224 0.317 8.31 1862 14.65
5/16/2021 3:15:00 PM 15.73 60.314 0.317 8.34 1818 14.68
5/16/2021 3:30:00 PM 15.74 60.332 0.317 8.36 1807 14.64
5/16/2021 3:45:00 PM 15.75 60.35 0.317 8.38 1843 14.66
5/16/2021 4:00:00 PM 15.75 60.35 0.317 8.38 1832 14.43
5/16/2021 4:15:00 PM 15.75 60.35 0.317 8.38 1848 14.15
5/16/2021 4:30:00 PM 15.74 60.332 0.317 8.38 1846 13.87
5/16/2021 4:45:00 PM 15.73 60.314 0.317 8.37 1864 13.68
5/16/2021 5:00:00 PM 15.71 60.278 0.317 8.36 1865 13.4
5/16/2021 5:15:00 PM 15.7 60.26 0.317 8.35 1858 13.21
5/16/2021 5:30:00 PM 15.69 60.242 0.317 8.33 1822 12.99
5/16/2021 5:45:00 PM 15.68 60.224 0.317 8.31 1937 12.71
5/16/2021 6:00:00 PM 15.68 60.224 0.317 8.3 1936 12.61
5/16/2021 6:15:00 PM 15.67 60.206 0.319 8.27 1992 12.45
5/16/2021 6:30:00 PM 15.65 60.17 0.319 8.25 1996 12.18
5/16/2021 6:45:00 PM 15.64 60.152 0.32 8.22 1933 12.01
5/16/2021 7:00:00 PM 15.61 60.098 0.32 8.19 1964 11.69
5/16/2021 7:15:00 PM 15.59 60.062 0.321 8.16 1791 11.53
5/16/2021 7:30:00 PM 15.56 60.008 0.322 8.12 1801 11.35
5/16/2021 7:45:00 PM 15.53 59.954 0.322 8.09 1782 11.15
5/16/2021 8:00:00 PM 15.5 59.9 0.322 8.05 1785 10.92
5/16/2021 8:15:00 PM 15.48 59.864 0.321 8.01 1770 10.77
5/16/2021 8:30:00 PM 15.46 59.828 0.324 7.97 1745 10.56
5/16/2021 8:45:00 PM 15.44 59.792 0.324 7.92 1780 10.45
5/16/2021 9:00:00 PM 15.42 59.756 0.326 7.86 1775 10.26
5/16/2021 9:15:00 PM 15.4 59.72 0.32 7.82 1699 10.06
5/16/2021 9:30:00 PM 15.38 59.684 0.317 7.77 1712 9.9
5/16/2021 9:45:00 PM 15.36 59.648 0.323 7.72 1684 9.78
5/16/2021 10:00:00 PM 15.34 59.612 0.319 7.68 1642 9.53
5/16/2021 10:15:00 PM 15.32 59.576 0.322 7.64 1660 9.45
5/16/2021 10:30:00 PM 15.3 59.54 0.325 7.61 1649 9.4
5/16/2021 10:45:00 PM 15.28 59.504 0.327 7.58 1638 9.32
5/16/2021 11:00:00 PM 15.26 59.468 0.313 7.54 1639 9.26
5/16/2021 11:15:00 PM 15.23 59.414 0.289 7.51 1664 9.15
5/16/2021 11:30:00 PM 15.21 59.378 0.28 7.49 1696 8.97
5/16/2021 11:45:00 PM 15.19 59.342 0.273 7.46 1645 9.01
5/17/2021 12:00:00 AM 15.18 59.324 0.271 7.45 1747 8.93
5/17/2021 12:15:00 AM 15.15 59.27 0.328 7.43 1684 8.91
5/17/2021 12:30:00 AM 15.13 59.234 0.321 7.42 1675 8.93
5/17/2021 12:45:00 AM 15.1 59.18 0.322 7.41 1631 8.91
5/17/2021 1:00:00 AM 15.07 59.126 0.308 7.4 1655 8.87
5/17/2021 1:15:00 AM 15.04 59.072 0.332 7.39 1613 8.82
5/17/2021 1:30:00 AM 15 59 0.313 7.38 1616 8.8
5/17/2021 1:45:00 AM 14.96 58.928 0.274 7.38 1592 8.85
5/17/2021 2:00:00 AM 14.92 58.856 0.326 7.36 1621 8.82
5/17/2021 2:15:00 AM 14.89 58.802 0.318 7.36 1635 8.8
5/17/2021 2:30:00 AM 14.86 58.748 0.324 7.36 1632 8.82
5/17/2021 2:45:00 AM 14.8 58.64 0.306 7.35 1682 8.8
5/17/2021 3:00:00 AM 14.76 58.568 0.323 7.35 1679 8.77
5/17/2021 3:15:00 AM 14.7 58.46 0.332 7.33 1709 8.76
5/17/2021 3:30:00 AM 14.64 58.352 0.323 7.34 1693 8.75
5/17/2021 3:45:00 AM 14.58 58.244 0.327 7.33 1694 8.77
5/17/2021 4:00:00 AM 14.52 58.136 0.333 7.31 1663 8.79
5/17/2021 4:15:00 AM 14.43 57.974 0.323 7.32 1772 8.81
5/17/2021 4:30:00 AM 14.38 57.884 0.32 7.31 1689 8.76
5/17/2021 4:45:00 AM 14.33 57.794 0.328 7.3 1773 8.83
5/17/2021 5:00:00 AM 14.26 57.668 0.321 7.29 1687 8.88
5/17/2021 5:15:00 AM 14.19 57.542 0.33 7.28 1637 8.9
5/17/2021 5:30:00 AM 14.12 57.416 0.31 7.27 1661 8.87
5/17/2021 5:45:00 AM 14.07 57.326 0.329 7.27 1666 8.85
5/17/2021 6:00:00 AM 14.01 57.218 0.329 7.26 86.44 8.91
5/17/2021 6:15:00 AM 13.94 57.092 0.332 7.26 89.78 8.95
5/17/2021 6:30:00 AM 13.87 56.966 0.33 7.26 87.83 8.96
5/17/2021 6:45:00 AM 13.83 56.894 0.331 7.26 82.24 9.02
5/17/2021 7:00:00 AM 13.79 56.822 0.325 7.26 81.35 9.17
5/17/2021 7:15:00 AM 13.75 56.75 0.327 7.26 79.97 9.28
5/17/2021 7:30:00 AM 13.73 56.714 0.327 7.26 78.46 9.39
5/17/2021 7:45:00 AM 13.71 56.678 0.33 7.26 78.94 9.55
5/17/2021 8:00:00 AM 13.71 56.678 0.33 7.24 82.59 9.73
5/17/2021 8:15:00 AM 13.73 56.714 0.329 7.26 111.3 9.91
5/17/2021 8:30:00 AM 13.76 56.768 0.329 7.26 96.91 10.08
5/17/2021 8:45:00 AM 13.8 56.84 0.329 7.27 95.74 10.34
5/17/2021 9:00:00 AM 13.87 56.966 0.33 7.31 105.7 10.73
5/17/2021 9:15:00 AM 13.97 57.146 0.331 7.34 100.3 11
5/17/2021 9:30:00 AM 14.08 57.344 0.328 7.37 103.2 11.39
5/17/2021 9:45:00 AM 14.15 57.47 0.33 7.44 99.02 11.81
5/17/2021 10:00:00 AM 14.25 57.65 0.327 7.5 98.83 12.14
5/17/2021 10:15:00 AM 14.31 57.758 0.327 7.57 102.8 12.51
5/17/2021 10:30:00 AM 14.42 57.956 0.325 7.67 98.55 12.89
5/17/2021 10:45:00 AM 14.48 58.064 0.323 7.73 99.99 13.13
5/17/2021 11:00:00 AM 14.57 58.226 0.322 7.78 88.47 13.36
5/17/2021 11:15:00 AM 14.66 58.388 0.313 7.87 102.7 13.68
5/17/2021 11:30:00 AM 14.77 58.586 0.316 7.92 99.75 13.94
5/17/2021 11:45:00 AM 14.89 58.802 0.317 7.98 92.89 14.13
5/17/2021 12:00:00 PM 15.04 59.072 0.317 8.06 89.78 14.48
5/17/2021 12:15:00 PM 15.19 59.342 0.316 8.11 92.63 14.69
5/17/2021 12:30:00 PM 15.36 59.648 0.312 8.17 93.72 14.89
5/17/2021 12:45:00 PM 15.53 59.954 0.314 8.21 89.27 15.05
5/17/2021 1:00:00 PM 15.65 60.17 0.309 8.27 88.24 15.22
5/17/2021 1:15:00 PM 15.81 60.458 0.313 8.34 100.2 15.41
5/17/2021 1:30:00 PM 15.93 60.674 0.314 8.37 96.36 15.51
5/17/2021 1:45:00 PM 16.01 60.818 0.312 8.42 99.07 15.52
5/17/2021 2:00:00 PM 16.14 61.052 0.311 8.44 103 15.57
5/17/2021 2:15:00 PM 16.25 61.25 0.311 8.46 89.95 15.55
5/17/2021 2:30:00 PM 16.32 61.376 0.31 8.48 94.51 15.55
5/17/2021 2:45:00 PM 16.37 61.466 0.31 8.5 98.93 15.5
5/17/2021 3:00:00 PM 16.46 61.628 0.311 8.55 102 15.49
5/17/2021 3:15:00 PM 16.58 61.844 0.302 8.57 91.51 15.48
5/17/2021 3:30:00 PM 16.72 62.096 0.294 8.57 93.62 15.51
5/17/2021 3:45:00 PM 16.78 62.204 0.277 8.6 92.8 15.43
5/17/2021 4:00:00 PM 16.85 62.33 0.31 8.61 99.03 15.31
5/17/2021 4:15:00 PM 16.95 62.51 0.309 8.62 103.9 15.34
5/17/2021 4:30:00 PM 17.04 62.672 0.308 8.64 107.8 15.24
5/17/2021 4:45:00 PM 17.1 62.78 0.308 8.66 100.9 15.14
5/17/2021 5:00:00 PM 17.1 62.78 0.307 8.65 107.8 14.97
5/17/2021 5:15:00 PM 17.05 62.69 0.304 8.66 105.1 14.77
5/17/2021 5:30:00 PM 16.99 62.582 0.305 8.64 106.2 14.53
5/17/2021 5:45:00 PM 16.96 62.528 0.309 8.63 98.55 14.29
5/17/2021 6:00:00 PM 16.97 62.546 0.31 8.6 93.7 14.19
5/17/2021 6:15:00 PM 16.97 62.546 0.31 8.58 95.51 14.07
5/17/2021 6:30:00 PM 17.02 62.636 0.31 8.59 103.6 13.93
5/17/2021 6:45:00 PM 17.05 62.69 0.311 8.57 106.9 13.72
5/17/2021 7:00:00 PM 17.09 62.762 0.311 8.56 106.8 13.49
5/17/2021 7:15:00 PM 17.1 62.78 0.312 8.56 109.5 13.32
5/17/2021 7:30:00 PM 17.1 62.78 0.311 8.55 108.7 13.07
5/17/2021 7:45:00 PM 17.08 62.744 0.311 8.54 108.6 12.79
5/17/2021 8:00:00 PM 17.04 62.672 0.311 8.51 112.1 12.52
5/17/2021 8:15:00 PM 17.01 62.618 0.313 8.48 111.7 12.15
5/17/2021 8:30:00 PM 16.96 62.528 0.303 8.45 309.7 11.88
5/17/2021 8:45:00 PM 16.9 62.42 0.312 8.42 139 11.52
5/17/2021 9:00:00 PM 16.85 62.33 0.316 8.36 155.4 11.23
5/17/2021 9:15:00 PM 16.8 62.24 0.318 8.32 85.47 10.98
5/17/2021 9:30:00 PM 16.74 62.132 0.315 8.26 92.25 10.66
5/17/2021 9:45:00 PM 16.7 62.06 0.319 8.23 101.8 10.45
5/17/2021 10:00:00 PM 16.63 61.934 0.296 8.15 105.8 10.16
5/17/2021 10:15:00 PM 16.56 61.808 0.325 8.11 96.57 9.98
5/17/2021 10:30:00 PM 16.53 61.754 0.295 8.06 106.3 9.75
5/17/2021 10:45:00 PM 16.47 61.646 0.325 8 113.9 9.57
5/17/2021 11:00:00 PM 16.41 61.538 0.325 7.94 120.5 9.35
5/17/2021 11:15:00 PM 16.35 61.43 0.325 7.89 114.8 9.17
5/17/2021 11:30:00 PM 16.33 61.394 0.326 7.84 105.4 9.07
5/17/2021 11:45:00 PM 16.27 61.286 0.328 7.78 129.1 8.91
5/18/2021 12:00:00 AM 16.25 61.25 0.33 7.73 104.8 8.83
5/18/2021 12:15:00 AM 16.18 61.124 0.332 7.69 109.6 8.71
5/18/2021 12:30:00 AM 16.14 61.052 0.334 7.63 115.3 8.55
5/18/2021 12:45:00 AM 16.09 60.962 0.334 7.62 114.1 8.56
5/18/2021 1:00:00 AM 16.06 60.908 0.334 7.59 113.8 8.45
5/18/2021 1:15:00 AM 16.02 60.836 0.333 7.56 105.7 8.41
5/18/2021 1:30:00 AM 15.94 60.692 0.331 7.53 104.5 8.4
5/18/2021 1:45:00 AM 15.89 60.602 0.33 7.52 104.9 8.37
5/18/2021 2:00:00 AM 15.87 60.566 0.328 7.5 125.8 8.35
5/18/2021 2:15:00 AM 15.82 60.476 0.327 7.49 109.3 8.3
5/18/2021 2:30:00 AM 15.77 60.386 0.327 7.48 117.1 8.31
5/18/2021 2:45:00 AM 15.71 60.278 0.327 7.45 107.4 8.27
5/18/2021 3:00:00 AM 15.66 60.188 0.326 7.44 120.5 8.26
5/18/2021 3:15:00 AM 15.58 60.044 0.326 7.43 121 8.25
5/18/2021 3:30:00 AM 15.5 59.9 0.327 7.41 106.7 8.21
5/18/2021 3:45:00 AM 15.47 59.846 0.328 7.41 108.1 8.26
5/18/2021 4:00:00 AM 15.4 59.72 0.328 7.39 107.1 8.25
5/18/2021 4:15:00 AM 15.33 59.594 0.328 7.39 121.1 8.27
5/18/2021 4:30:00 AM 15.25 59.45 0.327 7.37 122.1 8.23
5/18/2021 4:45:00 AM 15.2 59.36 0.326 7.36 97.31 8.27
5/18/2021 5:00:00 AM 15.12 59.216 0.324 7.35 125.5 8.31
5/18/2021 5:15:00 AM 15.07 59.126 0.326 7.35 130.2 8.32
5/18/2021 5:30:00 AM 15 59 0.326 7.34 115.4 8.34
5/18/2021 5:45:00 AM 14.88 58.784 0.326 7.33 143.4 8.35
5/18/2021 6:00:00 AM 14.82 58.676 0.328 7.32 127.3 8.36
5/18/2021 6:15:00 AM 14.73 58.514 0.329 7.31 150.1 8.35
5/18/2021 6:30:00 AM 14.67 58.406 0.329 7.31 139.4 8.36
5/18/2021 6:45:00 AM 14.62 58.316 0.33 7.3 150.6 8.46
5/18/2021 7:00:00 AM 14.56 58.208 0.329 7.29 132.9 8.51
5/18/2021 7:15:00 AM 14.51 58.118 0.329 7.28 143.4 8.58
5/18/2021 7:30:00 AM 14.46 58.028 0.329 7.27 143.1 8.6
5/18/2021 7:45:00 AM 14.44 57.992 0.328 7.25 155.1 8.74
5/18/2021 8:00:00 AM 14.46 58.028 0.327 7.24 147.7 8.98
5/18/2021 8:15:00 AM 14.47 58.046 0.327 7.22 142.9 9.14
5/18/2021 8:30:00 AM 14.48 58.064 0.327 7.21 126.6 9.35
5/18/2021 8:45:00 AM 14.52 58.136 0.327 7.22 151.6 9.52
5/18/2021 9:00:00 AM 14.63 58.334 0.328 7.23 141.7 9.74
5/18/2021 9:15:00 AM 14.78 58.604 0.329 7.25 156.7 10.13
5/18/2021 9:30:00 AM 14.96 58.928 0.329 7.28 136 10.54
5/18/2021 9:45:00 AM 15.07 59.126 0.329 7.36 143.1 10.92
5/18/2021 10:00:00 AM 15.23 59.414 0.328 7.42 138.6 11.12
5/18/2021 10:15:00 AM 15.34 59.612 0.329 7.43 124.6 11.41
5/18/2021 10:30:00 AM 15.46 59.828 0.327 7.52 144.2 11.83
5/18/2021 10:45:00 AM 15.55 59.99 0.325 7.62 145.9 12.22
5/18/2021 11:00:00 AM 15.71 60.278 0.324 7.7 146.3 12.67
5/18/2021 11:15:00 AM 15.85 60.53 0.323 7.75 148.2 12.81
5/18/2021 11:30:00 AM 16.01 60.818 0.323 7.82 152 13.1
5/18/2021 11:45:00 AM 16.19 61.142 0.322 7.9 155.9 13.43
5/18/2021 12:00:00 PM 16.38 61.484 0.322 7.96 150.5 13.63
5/18/2021 12:15:00 PM 16.55 61.79 0.323 8.05 153.1 13.96
5/18/2021 12:30:00 PM 16.75 62.15 0.322 8.13 153.3 14.12
5/18/2021 12:45:00 PM 16.91 62.438 0.322 8.18 176.3 14.15
5/18/2021 1:00:00 PM 17.08 62.744 0.321 8.25 167.9 14.46
5/18/2021 1:15:00 PM 17.22 62.996 0.321 8.29 162 14.47
5/18/2021 1:30:00 PM 17.33 63.194 0.32 8.33 117.4 14.44
5/18/2021 1:45:00 PM 17.5 63.5 0.32 8.39 119.2 14.6
5/18/2021 2:00:00 PM 17.64 63.752 0.319 8.44 119.4 14.82
5/18/2021 2:15:00 PM 17.74 63.932 0.318 8.46 115.4 14.82
5/18/2021 2:30:00 PM 17.91 64.238 0.317 8.49 99.03 14.85
5/18/2021 2:45:00 PM 18.04 64.472 0.317 8.53 104.7 14.99
5/18/2021 3:00:00 PM 18.18 64.724 0.317 8.55 122.1 14.95
5/18/2021 3:15:00 PM 18.25 64.85 0.317 8.58 114.8 14.97
5/18/2021 3:30:00 PM 18.43 65.174 0.317 8.61 99.12 14.94
5/18/2021 3:45:00 PM 18.51 65.318 0.318 8.63 115.9 15.03
5/18/2021 4:00:00 PM 18.61 65.498 0.317 8.64 125 14.89
5/18/2021 4:15:00 PM 18.69 65.642 0.317 8.65 1443 14.75
5/18/2021 4:30:00 PM 18.78 65.804 0.317 8.68 134.8 14.72
5/18/2021 4:45:00 PM 18.84 65.912 0.317 8.7 131.3 14.59
5/18/2021 5:00:00 PM 18.9 66.02 0.317 8.7 131.4 14.14
5/18/2021 5:15:00 PM 18.99 66.182 0.316 8.72 137.9 14.41
5/18/2021 5:30:00 PM 19.01 66.218 0.317 8.71 127.1 14.3
5/18/2021 5:45:00 PM 19.05 66.29 0.317 8.69 124.4 14.12
5/18/2021 6:00:00 PM 19.06 66.308 0.318 8.7 70.2 13.96
5/18/2021 6:15:00 PM 19.08 66.344 0.319 8.7 67.45 13.81
5/18/2021 6:30:00 PM 19.09 66.362 0.319 8.69 69.61 13.61
5/18/2021 6:45:00 PM 19.05 66.29 0.32 8.67 72.36 13.2
5/18/2021 7:00:00 PM 19.06 66.308 0.32 8.66 125.6 13.14
5/18/2021 7:15:00 PM 19.05 66.29 0.321 8.64 74.99 12.64
5/18/2021 7:30:00 PM 19.01 66.218 0.32 8.61 91.35 12.5
5/18/2021 7:45:00 PM 18.95 66.11 0.321 8.59 95.48 12.01
5/18/2021 8:00:00 PM 18.92 66.056 0.321 8.56 83.6 11.93
5/18/2021 8:15:00 PM 18.88 65.984 0.321 8.52 86.31 11.61
5/18/2021 8:30:00 PM 18.84 65.912 0.322 8.49 84.05 11.27
5/18/2021 8:45:00 PM 18.76 65.768 0.323 8.45 77.54 10.99
5/18/2021 9:00:00 PM 18.72 65.696 0.324 8.4 80.43 10.61
5/18/2021 9:15:00 PM 18.67 65.606 0.326 8.37 72.78 10.32
5/18/2021 9:30:00 PM 18.61 65.498 0.328 8.3 79.87 10.07
5/18/2021 9:45:00 PM 18.55 65.39 0.307 8.25 79.97 9.83
5/18/2021 10:00:00 PM 18.48 65.264 0.33 8.19 74.64 9.46
5/18/2021 10:15:00 PM 18.43 65.174 0.329 8.13 77.31 9.31
5/18/2021 10:30:00 PM 18.37 65.066 0.328 8.06 78.06 9.05
5/18/2021 10:45:00 PM 18.3 64.94 0.327 7.98 78.28 8.86
5/18/2021 11:00:00 PM 18.24 64.832 0.329 7.92 80.96 8.65
5/18/2021 11:15:00 PM 18.21 64.778 0.33 7.87 79.47 8.46
5/18/2021 11:30:00 PM 18.16 64.688 0.303 7.8 80.36 8.29
5/18/2021 11:45:00 PM 18.11 64.598 0.322 7.75 78.08 8.15
5/19/2021 12:00:00 AM 18.07 64.526 0.333 7.71 78.44 8.07
5/19/2021 12:15:00 AM 18.03 64.454 0.335 7.66 73.27 7.96
5/19/2021 12:30:00 AM 17.95 64.31 0.336 7.62 89.85 7.85
5/19/2021 12:45:00 AM 17.89 64.202 0.336 7.59 81.46 7.78
5/19/2021 1:00:00 AM 17.86 64.148 0.336 7.57 83.41 7.72
5/19/2021 1:15:00 AM 17.85 64.13 0.337 7.54 75.89 7.66
5/19/2021 1:30:00 AM 17.77 63.986 0.336 7.54 80.55 7.66
5/19/2021 1:45:00 AM 17.73 63.914 0.334 7.51 83.34 7.62
5/19/2021 2:00:00 AM 17.68 63.824 0.334 7.5 92.39 7.57
5/19/2021 2:15:00 AM 17.6 63.68 0.333 7.48 91.44 7.6
5/19/2021 2:30:00 AM 17.57 63.626 0.333 7.46 88.35 7.49
5/19/2021 2:45:00 AM 17.48 63.464 0.334 7.46 189.4 7.55
5/19/2021 3:00:00 AM 17.42 63.356 0.333 7.46 192.8 7.5
5/19/2021 3:15:00 AM 17.35 63.23 0.331 7.46 195.4 7.5
5/19/2021 3:30:00 AM 17.29 63.122 0.33 7.45 204.6 7.52
5/19/2021 3:45:00 AM 17.23 63.014 0.331 7.44 204.4 7.52
5/19/2021 4:00:00 AM 17.15 62.87 0.31 7.44 216.1 7.58
5/19/2021 4:15:00 AM 17.09 62.762 0.332 7.44 226 7.52
5/19/2021 4:30:00 AM 17.01 62.618 0.32 7.44 215.8 7.52
5/19/2021 4:45:00 AM 16.95 62.51 0.315 7.43 70.04 7.56
5/19/2021 5:00:00 AM 16.86 62.348 0.334 7.42 74.27 7.57
5/19/2021 5:15:00 AM 16.79 62.222 0.333 7.41 75.38 7.6
5/19/2021 5:30:00 AM 16.72 62.096 0.333 7.42 76.22 7.61
5/19/2021 5:45:00 AM 16.64 61.952 0.334 7.41 200.5 7.51
5/19/2021 6:00:00 AM 16.55 61.79 0.335 7.43 136.3 7.68
5/19/2021 6:15:00 AM 16.48 61.664 0.336 7.43 121.3 7.63
5/19/2021 6:30:00 AM 16.42 61.556 0.336 7.44 141.1 7.74
5/19/2021 6:45:00 AM 16.31 61.358 0.337 7.44 131.5 7.77
5/19/2021 7:00:00 AM 16.25 61.25 0.337 7.43 80.87 7.81
5/19/2021 7:15:00 AM 16.21 61.178 0.337 7.43 125.1 7.83
5/19/2021 7:30:00 AM 16.17 61.106 0.336 7.41 122.7 8
5/19/2021 7:45:00 AM 16.15 61.07 0.334 7.39 118.7 8.08
5/19/2021 8:00:00 AM 16.15 61.07 0.334 7.36 119 8.19
5/19/2021 8:15:00 AM 16.16 61.088 0.333 7.33 117.7 8.4
5/19/2021 8:30:00 AM 16.19 61.142 0.323 7.29 117 8.45
5/19/2021 8:45:00 AM 16.19 61.142 0.334 7.24 217.9 8.7
5/19/2021 9:00:00 AM 16.29 61.322 0.33 7.21 176.2 9.07
5/19/2021 9:15:00 AM -100000 -179968 -100000 -100000 -100000 -100000
5/19/2021 9:30:00 AM -100000 -179968 -100000 -100000 -100000 -100000
5/19/2021 9:45:00 AM 16.74 62.132 0 7 0 0
5/19/2021 10:00:00 AM 16.84 62.312 0.37 7.52 2.94 9.8
5/19/2021 10:15:00 AM 16.94 62.492 0.348 7.48 0.35 10.08
5/19/2021 10:30:00 AM 17.04 62.672 0.332 7.52 2.16 10.46
5/19/2021 10:45:00 AM 17.17 62.906 0.325 7.6 0.5 10.66
5/19/2021 11:00:00 AM 17.3 63.14 0.318 7.7 0.82 11.07
5/19/2021 11:15:00 AM 17.42 63.356 0.316 7.8 0.83 11.28
5/19/2021 11:30:00 AM 17.6 63.68 0.313 7.87 0.88 11.57
5/19/2021 11:45:00 AM 17.77 63.986 0.312 7.95 -0.01 11.78
5/19/2021 12:00:00 PM 17.95 64.31 0.31 8.05 0.73 12.13
5/19/2021 12:15:00 PM 18.12 64.616 0.31 8.11 1.66 12.23
5/19/2021 12:30:00 PM 18.29 64.922 0.31 8.17 0.66 12.41
5/19/2021 12:45:00 PM 18.46 65.228 0.309 8.22 0.92 12.54
5/19/2021 1:00:00 PM 18.6 65.48 0.309 8.26 1.83 12.64
5/19/2021 1:15:00 PM 18.77 65.786 0.308 8.32 0.57 12.79
5/19/2021 1:30:00 PM 18.88 65.984 0.307 8.37 0.01 12.89
5/19/2021 1:45:00 PM 19.04 66.272 0.305 8.42 4.72 13.04
5/19/2021 2:00:00 PM 19.17 66.506 0.305 8.44 1.7 13.01
5/19/2021 2:15:00 PM 19.32 66.776 0.304 8.49 2.7 13.1
5/19/2021 2:30:00 PM 19.44 66.992 0.303 8.51 0.84 13.07
5/19/2021 2:45:00 PM 19.58 67.244 0.303 8.55 1.15 13.12
5/19/2021 3:00:00 PM 19.69 67.442 0.303 8.58 1.73 13.04
5/19/2021 3:15:00 PM 19.79 67.622 0.304 8.59 0.3 13.05
5/19/2021 3:30:00 PM 19.94 67.892 0.304 8.61 6.89 13
5/19/2021 3:45:00 PM 20.06 68.108 0.305 8.64 6 12.95
5/19/2021 4:00:00 PM 20.16 68.288 0.305 8.66 3.29 12.86
5/19/2021 4:15:00 PM 20.22 68.396 0.306 8.68 0.85 12.79
5/19/2021 4:30:00 PM 20.33 68.594 0.305 8.69 1.5 12.74
5/19/2021 4:45:00 PM 20.41 68.738 0.304 8.7 0.5 12.7
5/19/2021 5:00:00 PM 20.48 68.864 0.304 8.7 1.26 12.55
5/19/2021 5:15:00 PM 20.54 68.972 0.304 8.7 0.61 12.42
5/19/2021 5:30:00 PM 20.6 69.08 0.303 8.71 1.18 12.44
5/19/2021 5:45:00 PM 20.64 69.152 0.303 8.72 0.4 12.36
5/19/2021 6:00:00 PM 20.66 69.188 0.303 8.71 0.07 12.26
5/19/2021 6:15:00 PM 20.69 69.242 0.303 8.7 2.29 12.13
5/19/2021 6:30:00 PM 20.7 69.26 0.303 8.7 0.4 12
5/19/2021 6:45:00 PM 20.68 69.224 0.304 8.69 0.95 11.88
5/19/2021 7:00:00 PM 20.65 69.17 0.304 8.68 4.42 11.71
5/19/2021 7:15:00 PM 20.61 69.098 0.305 8.65 1.14 11.53
5/19/2021 7:30:00 PM 20.58 69.044 0.306 8.64 1.6 11.32
5/19/2021 7:45:00 PM 20.53 68.954 0.306 8.61 1.04 11.08
5/19/2021 8:00:00 PM 20.5 68.9 0.307 8.58 2.2 10.87
5/19/2021 8:15:00 PM 20.45 68.81 0.307 8.55 1.32 10.62
5/19/2021 8:30:00 PM 20.38 68.684 0.308 8.53 6.62 10.36
5/19/2021 8:45:00 PM 20.33 68.594 0.308 8.48 1.83 10.11
5/19/2021 9:00:00 PM 20.26 68.468 0.309 8.44 0.63 9.85
5/19/2021 9:15:00 PM 20.2 68.36 0.31 8.41 0.85 9.61
5/19/2021 9:30:00 PM 20.14 68.252 0.312 8.36 1.13 9.35
5/19/2021 9:45:00 PM 20.04 68.07201 0.313 8.3 1.1 9.13
5/19/2021 10:00:00 PM 19.98 67.964 0.314 8.25 1.37 8.87
5/19/2021 10:15:00 PM 19.94 67.892 0.315 8.19 1.96 8.66
5/19/2021 10:30:00 PM 19.85 67.73 0.316 8.13 0.12 8.45
5/19/2021 10:45:00 PM 19.77 67.586 0.317 8.05 1.55 8.25
5/19/2021 11:00:00 PM 19.75 67.55 0.316 8 1.94 8.03
5/19/2021 11:15:00 PM 19.67 67.406 0.317 7.94 2.18 7.87
5/19/2021 11:30:00 PM 19.6 67.28 0.318 7.9 1.12 7.73
5/19/2021 11:45:00 PM 19.57 67.226 0.319 7.88 0.91 7.58
5/20/2021 12:00:00 AM 19.47 67.046 0.321 7.82 0.6 7.46
5/20/2021 12:15:00 AM 19.46 67.028 0.323 7.78 2.25 7.34
5/20/2021 12:30:00 AM 19.4 66.92 0.326 7.73 1.5 7.23
5/20/2021 12:45:00 AM 19.29 66.722 0.328 7.7 0.76 7.2
5/20/2021 1:00:00 AM 19.28 66.704 0.329 7.68 1.73 7.1
5/20/2021 1:15:00 AM 19.21 66.578 0.329 7.64 0.6 7.06
5/20/2021 1:30:00 AM 19.14 66.452 0.329 7.62 0.69 7.03
5/20/2021 1:45:00 AM 19.11 66.398 0.328 7.59 1.91 6.99
5/20/2021 2:00:00 AM 19.01 66.218 0.327 7.58 2.38 6.95
5/20/2021 2:15:00 AM 18.99 66.182 0.325 7.57 1.6 6.92
5/20/2021 2:30:00 AM 18.93 66.074 0.325 7.57 2.65 6.91
5/20/2021 2:45:00 AM 18.88 65.984 0.324 7.57 2.59 6.88
5/20/2021 3:00:00 AM 18.8 65.84 0.324 7.58 2.07 6.87
5/20/2021 3:15:00 AM 18.73 65.714 0.325 7.57 1.11 6.87
5/20/2021 3:30:00 AM 18.64 65.552 0.326 7.57 1.01 6.87
5/20/2021 3:45:00 AM 18.58 65.444 0.326 7.58 2.31 6.86
5/20/2021 4:00:00 AM 18.51 65.318 0.327 7.56 1.58 6.86
5/20/2021 4:15:00 AM 18.42 65.156 0.327 7.55 0.04 6.85
5/20/2021 4:30:00 AM 18.36 65.048 0.326 7.55 4.25 6.84
5/20/2021 4:45:00 AM 18.26 64.868 0.326 7.55 0.23 6.86
5/20/2021 5:00:00 AM 18.2 64.76 0.326 7.54 0.89 6.85
5/20/2021 5:15:00 AM 18.14 64.652 0.325 7.55 0.28 6.84
5/20/2021 5:30:00 AM 18.05 64.49 0.324 7.54 1.35 6.85
5/20/2021 5:45:00 AM 17.96 64.328 0.324 7.54 1.52 6.88
5/20/2021 6:00:00 AM 17.89 64.202 0.32 7.55 1.37 6.89
5/20/2021 6:15:00 AM 17.82 64.076 0.325 7.55 18.89 6.91
5/20/2021 6:30:00 AM 17.76 63.968 0.326 7.55 1.76 6.94
5/20/2021 6:45:00 AM 17.69 63.842 0.326 7.55 2.75 7
5/20/2021 7:00:00 AM 17.63 63.734 0.327 7.52 3.91 7.05
5/20/2021 7:15:00 AM 17.58 63.644 0.326 7.5 1.39 7.13
5/20/2021 7:30:00 AM 17.53 63.554 0.323 7.48 1.94 7.17
5/20/2021 7:45:00 AM 17.51 63.518 0.322 7.45 1.68 7.25
5/20/2021 8:00:00 AM 17.49 63.482 0.323 7.41 1.28 7.35
5/20/2021 8:15:00 AM 17.5 63.5 0.321 7.38 4.46 7.48
5/20/2021 8:30:00 AM 17.51 63.518 0.321 7.35 3.34 7.62
5/20/2021 8:45:00 AM 17.51 63.518 0.32 7.32 2.59 7.81
5/20/2021 9:00:00 AM 17.59 63.662 0.321 7.28 0.09 7.99
5/20/2021 9:15:00 AM 17.7 63.86 0.322 7.25 1.14 8.29
5/20/2021 9:30:00 AM 17.81 64.058 0.322 7.23 2.43 8.57
5/20/2021 9:45:00 AM 17.91 64.238 0.323 7.24 0.53 8.87
5/20/2021 10:00:00 AM 18.01 64.418 0.322 7.26 53.29 9.16
5/20/2021 10:15:00 AM 18.14 64.652 0.322 7.31 1.77 9.46
5/20/2021 10:30:00 AM 18.22 64.796 0.321 7.4 0.58 9.78
5/20/2021 10:45:00 AM 18.36 65.048 0.319 7.45 1.12 10.07
5/20/2021 11:00:00 AM 18.46 65.228 0.318 7.53 0.76 10.33
5/20/2021 11:15:00 AM 18.6 65.48 0.317 7.58 0.09 10.56
5/20/2021 11:30:00 AM 18.75 65.75 0.314 7.69 0.95 10.91
5/20/2021 11:45:00 AM 18.94 66.092 0.313 7.75 15.18 11.11
5/20/2021 12:00:00 PM 19.11 66.398 0.313 7.83 1.32 11.33
5/20/2021 12:15:00 PM 19.27 66.686 0.313 7.91 2.79 11.53
5/20/2021 12:30:00 PM 19.42 66.956 0.312 7.98 0.78 11.71
5/20/2021 12:45:00 PM 19.55 67.19 0.312 8.07 -0.08 11.96
5/20/2021 1:00:00 PM 19.68 67.424 0.312 8.13 1.29 12.02
5/20/2021 1:15:00 PM 19.83 67.694 0.311 8.2 0.65 12.28
5/20/2021 1:30:00 PM 19.96 67.92799 0.31 8.24 0.32 12.41
5/20/2021 1:45:00 PM 20.1 68.18 0.308 8.28 0.78 12.43
5/20/2021 2:00:00 PM 20.24 68.432 0.308 8.32 1.26 12.51
5/20/2021 2:15:00 PM 20.39 68.702 0.307 8.36 0.38 12.59
5/20/2021 2:30:00 PM 20.5 68.9 0.306 8.4 1.51 12.54
5/20/2021 2:45:00 PM 20.63 69.134 0.305 8.43 -0.1 12.6
5/20/2021 3:00:00 PM 20.76 69.368 0.305 8.46 1.01 12.58
5/20/2021 3:15:00 PM 20.89 69.602 0.304 8.49 0.47 12.59
5/20/2021 3:30:00 PM 21.01 69.818 0.304 8.51 0.95 12.55
5/20/2021 3:45:00 PM 21.1 69.98 0.304 8.54 2.57 12.57
5/20/2021 4:00:00 PM 21.23 70.214 0.304 8.57 1.26 12.58
5/20/2021 4:15:00 PM 21.3 70.34 0.304 8.58 1.16 12.47
5/20/2021 4:30:00 PM 21.39 70.502 0.304 8.6 0.22 12.48
5/20/2021 4:45:00 PM 21.45 70.61 0.303 8.61 0.08 12.36
5/20/2021 5:00:00 PM 21.51 70.718 0.303 8.61 0.51 12.25
5/20/2021 5:15:00 PM 21.57 70.826 0.302 8.62 0.29 12.19
5/20/2021 5:30:00 PM 21.59 70.862 0.303 8.63 2.57 12.09
5/20/2021 5:45:00 PM 21.6 70.88 0.303 8.62 0.78 11.93
5/20/2021 6:00:00 PM 21.62 70.916 0.303 8.62 1.3 11.78
5/20/2021 6:15:00 PM 21.62 70.916 0.303 8.61 1.43 11.62
5/20/2021 6:30:00 PM 21.61 70.898 0.303 8.61 1.67 11.51
5/20/2021 6:45:00 PM 21.59 70.862 0.304 8.6 1.32 11.34
5/20/2021 7:00:00 PM 21.56 70.808 0.305 8.58 0.19 11.14
5/20/2021 7:15:00 PM 21.52 70.736 0.306 8.57 1.16 10.96
5/20/2021 7:30:00 PM 21.46 70.628 0.306 8.56 0.63 10.76
5/20/2021 7:45:00 PM 21.4 70.52 0.305 8.53 1.45 10.54
5/20/2021 8:00:00 PM 21.33 70.394 0.306 8.51 1.42 10.29
5/20/2021 8:15:00 PM 21.28 70.304 0.307 8.49 1.21 10.04
5/20/2021 8:30:00 PM 21.21 70.17799 0.307 8.45 1.41 9.83
5/20/2021 8:45:00 PM 21.13 70.034 0.309 8.42 0.87 9.46
5/20/2021 9:00:00 PM 21.07 69.926 0.309 8.39 4.15 9.19
5/20/2021 9:15:00 PM 20.99 69.782 0.311 8.35 0.07 8.94
5/20/2021 9:30:00 PM 20.9 69.62 0.313 8.32 1.06 8.71
5/20/2021 9:45:00 PM 20.82 69.476 0.318 8.32 1.72 8.48
5/20/2021 10:00:00 PM 20.75 69.35 0.32 8.29 1.12 8.24
5/20/2021 10:15:00 PM 20.68 69.224 0.321 8.23 1.07 8.03
5/20/2021 10:30:00 PM 20.59 69.062 0.322 8.21 1.02 7.83
5/20/2021 10:45:00 PM 20.54 68.972 0.322 8.16 1.23 7.66
5/20/2021 11:00:00 PM 20.46 68.828 0.323 8.12 0.86 7.48
5/20/2021 11:15:00 PM 20.4 68.72 0.315 8.08 1.11 7.3
5/20/2021 11:30:00 PM 20.33 68.594 0.322 8 0.76 7.18
5/20/2021 11:45:00 PM 20.27 68.486 0.322 7.93 1.11 7.06
5/21/2021 12:00:00 AM 20.2 68.36 0.323 7.89 1.15 6.93
5/21/2021 12:15:00 AM 20.12 68.216 0.324 7.84 1.07 6.85
5/21/2021 12:30:00 AM 20.07 68.126 0.326 7.8 1.52 6.77
5/21/2021 12:45:00 AM 20.01 68.018 0.327 7.77 0.57 6.7
5/21/2021 1:00:00 AM 19.93 67.874 0.328 7.73 1.61 6.65
5/21/2021 1:15:00 AM 19.86 67.748 0.328 7.72 2.06 6.59
5/21/2021 1:30:00 AM 19.83 67.694 0.329 7.73 1.79 6.56
5/21/2021 1:45:00 AM 19.73 67.514 0.328 7.73 0.99 6.52
5/21/2021 2:00:00 AM 19.69 67.442 0.326 7.75 0.83 6.51
5/21/2021 2:15:00 AM 19.6 67.28 0.326 7.75 1.65 6.49
5/21/2021 2:30:00 AM 19.53 67.154 0.317 7.76 2.91 6.47
5/21/2021 2:45:00 AM 19.47 67.046 0.322 7.75 1.77 6.48
5/21/2021 3:00:00 AM 19.37 66.866 0.321 7.75 1.32 6.45
5/21/2021 3:15:00 AM 19.31 66.758 0.324 7.74 0.47 6.48
5/21/2021 3:30:00 AM 19.25 66.65 0.323 7.74 4.44 6.46
5/21/2021 3:45:00 AM 19.17 66.506 0.33 7.73 0.92 6.47
5/21/2021 4:00:00 AM 19.06 66.308 0.327 7.73 2.01 6.49
5/21/2021 4:15:00 AM 19 66.2 0.314 7.75 6.98 6.5
5/21/2021 4:30:00 AM 18.9 66.02 0.316 7.73 1.3 6.49
5/21/2021 4:45:00 AM 18.83 65.894 0.32 7.72 2.02 6.5
5/21/2021 5:00:00 AM 18.73 65.714 0.321 7.72 2.17 6.52
5/21/2021 5:15:00 AM 18.66 65.588 0.325 7.71 2.77 6.53
5/21/2021 5:30:00 AM 18.57 65.426 0.326 7.73 2.37 6.57
5/21/2021 5:45:00 AM 18.48 65.264 0.325 7.72 2.19 6.56
5/21/2021 6:00:00 AM 18.39 65.102 0.292 7.71 2.2 6.59
5/21/2021 6:15:00 AM 18.3 64.94 0.288 7.71 1.62 6.62
5/21/2021 6:30:00 AM 18.23 64.814 0.287 7.72 3.32 6.67
5/21/2021 6:45:00 AM 18.15 64.67 0.328 7.73 2.17 6.68
5/21/2021 7:00:00 AM 18.07 64.526 0.313 7.71 2.21 6.75
5/21/2021 7:15:00 AM 18.02 64.436 0.309 7.7 1.54 6.81
5/21/2021 7:30:00 AM 17.96 64.328 0.328 7.68 1.7 6.84
5/21/2021 7:45:00 AM 17.92 64.256 0.291 7.65 1.94 6.95
5/21/2021 8:00:00 AM 17.9 64.22 0.286 7.63 3.7 7.05
5/21/2021 8:15:00 AM 17.9 64.22 0.283 7.59 0.88 7.18
5/21/2021 8:30:00 AM 17.89 64.202 0.311 7.55 0.39 7.34
5/21/2021 8:45:00 AM 17.89 64.202 0.279 7.49 1.05 7.48
5/21/2021 9:00:00 AM 17.95 64.31 0.274 7.44 0.97 7.69
5/21/2021 9:15:00 AM 18.06 64.508 0.278 7.41 2.1 7.92
5/21/2021 9:30:00 AM 18.2 64.76 0.276 7.34 20.67 8.23
5/21/2021 9:45:00 AM 18.35 65.03 0.278 7.27 10.18 8.5
5/21/2021 10:00:00 AM 18.42 65.156 0.32 7.25 1.85 8.81
5/21/2021 10:15:00 AM 18.5 65.3 0.292 7.23 1.55 9.01
5/21/2021 10:30:00 AM 18.57 65.426 0.291 7.23 1.09 9.25
5/21/2021 10:45:00 AM 18.66 65.588 0.276 7.25 1.53 9.51
5/21/2021 11:00:00 AM 18.76 65.768 0.275 7.3 0.6 9.8
5/21/2021 11:15:00 AM 18.86 65.948 0.277 7.35 6.06 9.99
5/21/2021 11:30:00 AM 19.01 66.218 0.274 7.35 0.97 10.3
5/21/2021 11:45:00 AM 19.17 66.506 0.276 7.42 1.37 10.46
5/21/2021 12:00:00 PM 19.33 66.794 0.273 7.48 0.35 10.71
5/21/2021 12:15:00 PM 19.44 66.992 0.275 7.54 0.84 10.96
5/21/2021 12:30:00 PM 19.58 67.244 0.275 7.59 1.17 11.18
5/21/2021 12:45:00 PM 19.72 67.496 0.297 7.66 1.14 11.31
5/21/2021 1:00:00 PM 19.87 67.766 0.272 7.7 1.12 11.41
5/21/2021 1:15:00 PM 20 68 0.277 7.79 0.89 11.65
5/21/2021 1:30:00 PM 20.12 68.216 0.277 7.85 1.13 11.72
5/21/2021 1:45:00 PM 20.24 68.432 0.273 7.89 1.02 11.77
5/21/2021 2:00:00 PM 20.35 68.63 0.262 7.94 0.95 11.8
5/21/2021 2:15:00 PM 20.49 68.882 0.272 8 1.06 11.95
5/21/2021 2:30:00 PM 20.61 69.098 0.27 8.05 0.55 11.97
5/21/2021 2:45:00 PM 20.74 69.332 0.263 8.1 0.53 12.04
5/21/2021 3:00:00 PM 20.86 69.548 0.268 8.14 0.97 12.01
5/21/2021 3:15:00 PM 20.97 69.746 0.289 8.17 0.97 11.99
5/21/2021 3:30:00 PM 21.08 69.944 0.287 8.2 0.41 11.92
5/21/2021 3:45:00 PM 21.21 70.17799 0.283 8.24 3.02 11.96
5/21/2021 4:00:00 PM 21.29 70.32201 0.281 8.26 2.73 11.95
5/21/2021 4:15:00 PM 21.39 70.502 0.286 8.28 2.16 11.9
5/21/2021 4:30:00 PM 21.48 70.664 0.297 8.32 0.36 11.89
5/21/2021 4:45:00 PM 21.55 70.79 0.297 8.34 1.3 11.84
5/21/2021 5:00:00 PM 21.61 70.898 0.301 8.36 0.84 11.76
5/21/2021 5:15:00 PM 21.67 71.006 0.299 8.39 0.6 11.61
5/21/2021 5:30:00 PM 21.7 71.06 0.296 8.39 0.15 11.54
5/21/2021 5:45:00 PM 21.75 71.15 0.296 8.41 0.47 11.4
5/21/2021 6:00:00 PM 21.77 71.186 0.307 8.41 0.84 11.28
5/21/2021 6:15:00 PM 21.78 71.204 0.269 8.41 0.72 11.18
5/21/2021 6:30:00 PM 21.79 71.222 0.275 8.41 1.25 11.01
5/21/2021 6:45:00 PM 21.78 71.204 0.315 8.4 0.79 10.82
5/21/2021 7:00:00 PM 21.77 71.186 0.316 8.4 0.56 10.65
5/21/2021 7:15:00 PM 21.75 71.15 0.267 8.39 2.87 10.44
5/21/2021 7:30:00 PM 21.72 71.096 0.278 8.37 1.02 10.24
5/21/2021 7:45:00 PM 21.68 71.024 0.278 8.35 3.73 10.04
5/21/2021 8:00:00 PM 21.64 70.952 0.281 8.34 1.75 9.8
5/21/2021 8:15:00 PM 21.59 70.862 0.293 8.31 1.59 9.58
5/21/2021 8:30:00 PM 21.53 70.754 0.319 8.29 0.51 9.32
5/21/2021 8:45:00 PM 21.47 70.646 0.319 8.26 0.64 9.08
5/21/2021 9:00:00 PM 21.42 70.556 0.32 8.24 1.8 8.89
5/21/2021 9:15:00 PM 21.35 70.43 0.322 8.2 0.7 8.66
5/21/2021 9:30:00 PM 21.28 70.304 0.324 8.16 0.94 8.44
5/21/2021 9:45:00 PM 21.19 70.142 0.326 8.11 1.28 8.25
5/21/2021 10:00:00 PM 21.15 70.07 0.328 8.06 0.71 8.02
5/21/2021 10:15:00 PM 21.09 69.962 0.329 8 8.84 7.83
5/21/2021 10:30:00 PM 21 69.8 0.33 7.94 1.51 7.63
5/21/2021 10:45:00 PM 20.96 69.728 0.329 7.89 1.18 7.46
5/21/2021 11:00:00 PM 20.88 69.584 0.33 7.83 0.14 7.3
5/21/2021 11:15:00 PM 20.84 69.512 0.33 7.79 1.54 7.16
5/21/2021 11:30:00 PM 20.77 69.386 0.33 7.75 0.09 7.02
5/21/2021 11:45:00 PM 20.71 69.278 0.329 7.71 0.98 6.89
5/22/2021 12:00:00 AM 20.66 69.188 0.33 7.66 1.05 6.79
5/22/2021 12:15:00 AM 20.6 69.08 0.33 7.66 0.34 6.69
5/22/2021 12:30:00 AM 20.54 68.972 0.331 7.65 4.15 6.61
5/22/2021 12:45:00 AM 20.48 68.864 0.333 7.66 1.52 6.51
5/22/2021 1:00:00 AM 20.44 68.792 0.333 7.65 0.28 6.47
5/22/2021 1:15:00 AM 20.38 68.684 0.334 7.61 1.59 6.41
5/22/2021 1:30:00 AM 20.33 68.594 0.334 7.59 -0.12 6.38
5/22/2021 1:45:00 AM 20.29 68.522 0.334 7.59 1.25 6.34
5/22/2021 2:00:00 AM 20.23 68.414 0.333 7.57 0.97 6.33
5/22/2021 2:15:00 AM 20.2 68.36 0.332 7.58 0.43 6.29
5/22/2021 2:30:00 AM 20.14 68.252 0.331 7.59 3.63 6.27
5/22/2021 2:45:00 AM 20.09 68.162 0.331 7.62 1.39 6.26
5/22/2021 3:00:00 AM 20.02 68.036 0.331 7.61 0.99 6.24
5/22/2021 3:15:00 AM 19.97 67.946 0.331 7.62 3.34 6.24
5/22/2021 3:30:00 AM 19.92 67.856 0.319 7.63 0.82 6.22
5/22/2021 3:45:00 AM 19.86 67.748 0.333 7.63 1.66 6.22
5/22/2021 4:00:00 AM 19.8 67.64 0.334 7.63 1.44 6.2
5/22/2021 4:15:00 AM 19.7 67.46 0.334 7.62 3.06 6.23
5/22/2021 4:30:00 AM 19.63 67.334 0.339 7.63 2.45 6.22
5/22/2021 4:45:00 AM 19.58 67.244 0.332 7.63 1.01 6.22
5/22/2021 5:00:00 AM 19.5 67.1 0.334 7.63 1.07 6.23
5/22/2021 5:15:00 AM 19.42 66.956 0.333 7.62 8.24 6.26
5/22/2021 5:30:00 AM 19.34 66.812 0.333 7.62 1.82 6.27
5/22/2021 5:45:00 AM 19.26 66.668 0.332 7.62 1.16 6.29
5/22/2021 6:00:00 AM 19.22 66.596 0.332 7.63 747.6 6.33
5/22/2021 6:15:00 AM 19.12 66.416 0.333 7.62 496.5 6.29
5/22/2021 6:30:00 AM 19.08 66.344 0.333 7.62 501.9 6.4
5/22/2021 6:45:00 AM 19.02 66.236 0.334 7.6 426.3 6.45
5/22/2021 7:00:00 AM 18.98 66.164 0.334 7.58 452 6.5
5/22/2021 7:15:00 AM 18.94 66.092 0.335 7.53 838.8 6.54
5/22/2021 7:30:00 AM 18.92 66.056 0.334 7.47 778.4 6.63
5/22/2021 7:45:00 AM 18.91 66.038 0.334 7.4 739.6 6.76
5/22/2021 8:00:00 AM 18.91 66.038 0.333 7.33 667.6 6.85
5/22/2021 8:15:00 AM 18.9 66.02 0.333 7.25 648 6.95
5/22/2021 8:30:00 AM 18.91 66.038 0.331 7.19 2.15 7.03
5/22/2021 8:45:00 AM 18.94 66.092 0.331 7.14 1.02 7.26
5/22/2021 9:00:00 AM 18.93 66.074 0.33 7.11 1.57 7.43
5/22/2021 9:15:00 AM 18.99 66.182 0.33 7.09 0.05 7.62
5/22/2021 9:30:00 AM 19.09 66.362 0.331 7.05 0.74 7.83
5/22/2021 9:45:00 AM 19.16 66.488 0.331 7.05 1.16 8.04
5/22/2021 10:00:00 AM 19.24 66.632 0.332 7.09 0.69 8.25
5/22/2021 10:15:00 AM 19.33 66.794 0.332 7.07 1.87 8.45
5/22/2021 10:30:00 AM 19.39 66.902 0.332 7.14 0.43 8.63
5/22/2021 10:45:00 AM 19.5 67.1 0.331 7.21 0.76 8.83
5/22/2021 11:00:00 AM 19.64 67.352 0.33 7.23 1.77 9.07
5/22/2021 11:15:00 AM 19.68 67.424 0.329 7.32 0.71 9.35
5/22/2021 11:30:00 AM 19.79 67.622 0.329 7.34 0.93 9.55
5/22/2021 11:45:00 AM 19.88 67.784 0.329 7.41 0.19 9.73
5/22/2021 12:00:00 PM 20 68 0.329 7.49 1.01 10
5/22/2021 12:15:00 PM 20.11 68.198 0.329 7.54 0.15 10.15
5/22/2021 12:30:00 PM 20.29 68.522 0.326 7.59 1.87 10.31
5/22/2021 12:45:00 PM 20.39 68.702 0.326 7.66 0.86 10.52
5/22/2021 1:00:00 PM 20.46 68.828 0.327 7.73 0.04 10.68
5/22/2021 1:15:00 PM 20.54 68.972 0.327 7.8 0.35 10.87
5/22/2021 1:30:00 PM 20.63 69.134 0.326 7.83 3.02 10.91
5/22/2021 1:45:00 PM 20.69 69.242 0.327 7.87 0.33 10.99
5/22/2021 2:00:00 PM 20.77 69.386 0.325 7.93 1.54 11.15
5/22/2021 2:15:00 PM 20.87 69.566 0.32 7.99 0.27 11.23
5/22/2021 2:30:00 PM 20.92 69.656 0.32 8.02 0.2 11.28
5/22/2021 2:45:00 PM 20.99 69.782 0.324 8.06 0.87 11.32
5/22/2021 3:00:00 PM 21.03 69.854 0.323 8.11 0.9 11.37
5/22/2021 3:15:00 PM 21.06 69.908 0.323 8.12 0.12 11.32
5/22/2021 3:30:00 PM 21.1 69.98 0.323 8.15 0.23 11.31
5/22/2021 3:45:00 PM 21.17 70.106 0.322 8.18 6.59 11.2
5/22/2021 4:00:00 PM 21.22 70.196 0.326 8.19 -0.13 11.19
5/22/2021 4:15:00 PM 21.26 70.268 0.322 8.22 4.68 11.16
5/22/2021 4:30:00 PM 21.25 70.25 0.323 8.24 1.43 11.18
5/22/2021 4:45:00 PM 21.29 70.32201 0.323 8.26 1.54 11.13
5/22/2021 5:00:00 PM 21.3 70.34 0.324 8.26 0.9 11.01
5/22/2021 5:15:00 PM 21.3 70.34 0.323 8.26 2.46 10.92
5/22/2021 5:30:00 PM 21.32 70.376 0.323 8.27 2.5 10.84
5/22/2021 5:45:00 PM 21.31 70.358 0.323 8.28 3 10.7
5/22/2021 6:00:00 PM 21.33 70.394 0.323 8.26 0.92 10.56
5/22/2021 6:15:00 PM 21.31 70.358 0.324 8.26 2.28 10.46
5/22/2021 6:30:00 PM 21.28 70.304 0.324 8.26 1.14 10.3
5/22/2021 6:45:00 PM 21.25 70.25 0.325 8.25 0.92 10.11
5/22/2021 7:00:00 PM 21.21 70.17799 0.326 8.23 2.45 9.94
5/22/2021 7:15:00 PM 21.18 70.124 0.315 8.22 0.14 9.75
5/22/2021 7:30:00 PM 21.15 70.07 0.327 8.2 1.56 9.57
5/22/2021 7:45:00 PM 21.11 69.998 0.328 8.17 1.76 9.31
5/22/2021 8:00:00 PM 21.09 69.962 0.328 8.15 1.4 9.15
5/22/2021 8:15:00 PM 21.05 69.89 0.328 8.13 0.36 8.92
5/22/2021 8:30:00 PM 21.01 69.818 0.315 8.09 0.47 8.71
5/22/2021 8:45:00 PM 20.98 69.764 0.33 8.06 0.43 8.54
5/22/2021 9:00:00 PM 20.95 69.71 0.33 8.03 0.32 8.36
5/22/2021 9:15:00 PM 20.9 69.62 0.331 7.98 3.04 8.16
5/22/2021 9:30:00 PM 20.86 69.548 0.333 7.94 0.09 8
5/22/2021 9:45:00 PM 20.81 69.458 0.334 7.9 0.45 7.81
5/22/2021 10:00:00 PM -100000 -179968 -100000 -100000 -100000 -100000
5/22/2021 10:15:00 PM -100000 -179968 -100000 -100000 -100000 -100000
5/22/2021 10:30:00 PM -100000 -179968 -100000 -100000 -100000 -100000
5/22/2021 10:45:00 PM -100000 -179968 -100000 -100000 -100000 -100000
5/22/2021 11:00:00 PM -100000 -179968 -100000 -100000 -100000 -100000
5/22/2021 11:15:00 PM -100000 -179968 -100000 -100000 -100000 -100000
5/22/2021 11:30:00 PM -100000 -179968 -100000 -100000 -100000 -100000
5/22/2021 11:45:00 PM -100000 -179968 -100000 -100000 -100000 -100000
5/23/2021 12:00:00 AM -100000 -179968 -100000 -100000 -100000 -100000
5/23/2021 12:15:00 AM -100000 -179968 -100000 -100000 -100000 -100000
5/23/2021 12:30:00 AM -100000 -179968 -100000 -100000 -100000 -100000
5/23/2021 12:45:00 AM -100000 -179968 -100000 -100000 -100000 -100000
5/23/2021 1:00:00 AM -100000 -179968 -100000 -100000 -100000 -100000
5/23/2021 1:15:00 AM -100000 -179968 -100000 -100000 -100000 -100000
5/23/2021 1:30:00 AM -100000 -179968 -100000 -100000 -100000 -100000
5/23/2021 1:45:00 AM -100000 -179968 -100000 -100000 -100000 -100000
5/23/2021 2:00:00 AM -100000 -179968 -100000 -100000 -100000 -100000
5/23/2021 2:15:00 AM -100000 -179968 -100000 -100000 -100000 -100000
5/23/2021 2:30:00 AM -100000 -179968 -100000 -100000 -100000 -100000
5/23/2021 2:45:00 AM -100000 -179968 -100000 -100000 -100000 -100000
5/23/2021 3:00:00 AM -100000 -179968 -100000 -100000 -100000 -100000
5/23/2021 3:15:00 AM -100000 -179968 -100000 -100000 -100000 -100000
5/23/2021 3:30:00 AM -100000 -179968 -100000 -100000 -100000 -100000
5/23/2021 3:45:00 AM -100000 -179968 -100000 -100000 -100000 -100000
5/23/2021 4:00:00 AM -100000 -179968 -100000 -100000 -100000 -100000
5/23/2021 4:15:00 AM -100000 -179968 -100000 -100000 -100000 -100000
5/23/2021 4:30:00 AM -100000 -179968 -100000 -100000 -100000 -100000
5/23/2021 4:45:00 AM -100000 -179968 -100000 -100000 -100000 -100000
5/23/2021 5:00:00 AM -100000 -179968 -100000 -100000 -100000 -100000
5/23/2021 5:15:00 AM -100000 -179968 -100000 -100000 -100000 -100000
5/23/2021 5:30:00 AM -100000 -179968 -100000 -100000 -100000 -100000
5/23/2021 5:45:00 AM -100000 -179968 -100000 -100000 -100000 -100000
5/23/2021 6:00:00 AM -100000 -179968 -100000 -100000 -100000 -100000
5/23/2021 6:15:00 AM -100000 -179968 -100000 -100000 -100000 -100000
5/23/2021 6:30:00 AM -100000 -179968 -100000 -100000 -100000 -100000
5/23/2021 6:45:00 AM -100000 -179968 -100000 -100000 -100000 -100000
5/23/2021 7:00:00 AM -100000 -179968 -100000 -100000 -100000 -100000
5/23/2021 7:15:00 AM -100000 -179968 -100000 -100000 -100000 -100000
5/23/2021 7:30:00 AM -100000 -179968 -100000 -100000 -100000 -100000
5/23/2021 7:45:00 AM -100000 -179968 -100000 -100000 -100000 -100000
5/23/2021 8:00:00 AM -100000 -179968 -100000 -100000 -100000 -100000
5/23/2021 8:15:00 AM -100000 -179968 -100000 -100000 -100000 -100000
5/23/2021 8:30:00 AM -100000 -179968 -100000 -100000 -100000 -100000
5/23/2021 8:45:00 AM -100000 -179968 -100000 -100000 -100000 -100000
5/23/2021 9:00:00 AM -100000 -179968 -100000 -100000 -100000 -100000
5/23/2021 9:15:00 AM -100000 -179968 -100000 -100000 -100000 -100000
5/23/2021 9:30:00 AM -100000 -179968 -100000 -100000 -100000 -100000
5/23/2021 9:45:00 AM -100000 -179968 -100000 -100000 -100000 -100000
5/23/2021 10:00:00 AM -100000 -179968 -100000 -100000 -100000 -100000
5/23/2021 10:15:00 AM -100000 -179968 -100000 -100000 -100000 -100000
5/23/2021 10:30:00 AM -100000 -179968 -100000 -100000 -100000 -100000
5/23/2021 10:45:00 AM -100000 -179968 -100000 -100000 -100000 -100000
5/23/2021 11:00:00 AM -100000 -179968 -100000 -100000 -100000 -100000
5/23/2021 11:15:00 AM -100000 -179968 -100000 -100000 -100000 -100000
5/23/2021 11:30:00 AM -100000 -179968 -100000 -100000 -100000 -100000
5/23/2021 11:45:00 AM -100000 -179968 -100000 -100000 -100000 -100000
5/23/2021 12:00:00 PM -100000 -179968 -100000 -100000 -100000 -100000
5/23/2021 12:15:00 PM -100000 -179968 -100000 -100000 -100000 -100000
5/23/2021 12:30:00 PM -100000 -179968 -100000 -100000 -100000 -100000
5/23/2021 12:45:00 PM -100000 -179968 -100000 -100000 -100000 -100000
5/23/2021 1:00:00 PM -100000 -179968 -100000 -100000 -100000 -100000
5/23/2021 1:15:00 PM -100000 -179968 -100000 -100000 -100000 -100000
5/23/2021 1:30:00 PM -100000 -179968 -100000 -100000 -100000 -100000
5/23/2021 1:45:00 PM -100000 -179968 -100000 -100000 -100000 -100000
5/23/2021 2:00:00 PM -100000 -179968 -100000 -100000 -100000 -100000
5/23/2021 2:15:00 PM -100000 -179968 -100000 -100000 -100000 -100000
5/23/2021 2:30:00 PM -100000 -179968 -100000 -100000 -100000 -100000
5/23/2021 2:45:00 PM -100000 -179968 -100000 -100000 -100000 -100000
5/23/2021 3:00:00 PM -100000 -179968 -100000 -100000 -100000 -100000
5/23/2021 3:15:00 PM -100000 -179968 -100000 -100000 -100000 -100000
5/23/2021 3:30:00 PM -100000 -179968 -100000 -100000 -100000 -100000
5/23/2021 3:45:00 PM -100000 -179968 -100000 -100000 -100000 -100000
5/23/2021 4:00:00 PM -100000 -179968 -100000 -100000 -100000 -100000
5/23/2021 4:15:00 PM -100000 -179968 -100000 -100000 -100000 -100000
5/23/2021 4:30:00 PM -100000 -179968 -100000 -100000 -100000 -100000
5/23/2021 4:45:00 PM -100000 -179968 -100000 -100000 -100000 -100000
5/23/2021 5:00:00 PM -100000 -179968 -100000 -100000 -100000 -100000
5/23/2021 5:15:00 PM -100000 -179968 -100000 -100000 -100000 -100000
5/23/2021 5:30:00 PM -100000 -179968 -100000 -100000 -100000 -100000
5/23/2021 5:45:00 PM -100000 -179968 -100000 -100000 -100000 -100000
5/23/2021 6:00:00 PM -100000 -179968 -100000 -100000 -100000 -100000
5/23/2021 6:15:00 PM -100000 -179968 -100000 -100000 -100000 -100000
5/23/2021 6:30:00 PM -100000 -179968 -100000 -100000 -100000 -100000
5/23/2021 6:45:00 PM -100000 -179968 -100000 -100000 -100000 -100000
5/23/2021 7:00:00 PM -100000 -179968 -100000 -100000 -100000 -100000
5/23/2021 7:15:00 PM -100000 -179968 -100000 -100000 -100000 -100000
5/23/2021 7:30:00 PM -100000 -179968 -100000 -100000 -100000 -100000
5/23/2021 7:45:00 PM -100000 -179968 -100000 -100000 -100000 -100000
5/23/2021 8:00:00 PM -100000 -179968 -100000 -100000 -100000 -100000
5/23/2021 8:15:00 PM -100000 -179968 -100000 -100000 -100000 -100000
5/23/2021 8:30:00 PM -100000 -179968 -100000 -100000 -100000 -100000
5/23/2021 8:45:00 PM -100000 -179968 -100000 -100000 -100000 -100000
5/23/2021 9:00:00 PM -100000 -179968 -100000 -100000 -100000 -100000
5/23/2021 9:15:00 PM -100000 -179968 -100000 -100000 -100000 -100000
5/23/2021 9:30:00 PM -100000 -179968 -100000 -100000 -100000 -100000
5/23/2021 9:45:00 PM -100000 -179968 -100000 -100000 -100000 -100000
5/23/2021 10:00:00 PM -100000 -179968 -100000 -100000 -100000 -100000
5/23/2021 10:15:00 PM -100000 -179968 -100000 -100000 -100000 -100000
5/23/2021 10:30:00 PM -100000 -179968 -100000 -100000 -100000 -100000
5/23/2021 10:45:00 PM -100000 -179968 -100000 -100000 -100000 -100000
5/23/2021 11:00:00 PM -100000 -179968 -100000 -100000 -100000 -100000
5/23/2021 11:15:00 PM -100000 -179968 -100000 -100000 -100000 -100000
5/23/2021 11:30:00 PM -100000 -179968 -100000 -100000 -100000 -100000
5/23/2021 11:45:00 PM -100000 -179968 -100000 -100000 -100000 -100000
5/24/2021 12:00:00 AM -100000 -179968 -100000 -100000 -100000 -100000
5/24/2021 12:15:00 AM -100000 -179968 -100000 -100000 -100000 -100000
5/24/2021 12:30:00 AM -100000 -179968 -100000 -100000 -100000 -100000
5/24/2021 12:45:00 AM -100000 -179968 -100000 -100000 -100000 -100000
5/24/2021 1:00:00 AM -100000 -179968 -100000 -100000 -100000 -100000
5/24/2021 1:15:00 AM -100000 -179968 -100000 -100000 -100000 -100000
5/24/2021 1:30:00 AM -100000 -179968 -100000 -100000 -100000 -100000
5/24/2021 1:45:00 AM -100000 -179968 -100000 -100000 -100000 -100000
5/24/2021 2:00:00 AM -100000 -179968 -100000 -100000 -100000 -100000
5/24/2021 2:15:00 AM -100000 -179968 -100000 -100000 -100000 -100000
5/24/2021 2:30:00 AM -100000 -179968 -100000 -100000 -100000 -100000
5/24/2021 2:45:00 AM -100000 -179968 -100000 -100000 -100000 -100000
5/24/2021 3:00:00 AM -100000 -179968 -100000 -100000 -100000 -100000
5/24/2021 3:15:00 AM -100000 -179968 -100000 -100000 -100000 -100000
5/24/2021 3:30:00 AM -100000 -179968 -100000 -100000 -100000 -100000
5/24/2021 3:45:00 AM -100000 -179968 -100000 -100000 -100000 -100000
5/24/2021 4:00:00 AM -100000 -179968 -100000 -100000 -100000 -100000
5/24/2021 4:15:00 AM -100000 -179968 -100000 -100000 -100000 -100000
5/24/2021 4:30:00 AM -100000 -179968 -100000 -100000 -100000 -100000
5/24/2021 4:45:00 AM -100000 -179968 -100000 -100000 -100000 -100000
5/24/2021 5:00:00 AM -100000 -179968 -100000 -100000 -100000 -100000
5/24/2021 5:15:00 AM -100000 -179968 -100000 -100000 -100000 -100000
5/24/2021 5:30:00 AM -100000 -179968 -100000 -100000 -100000 -100000
5/24/2021 5:45:00 AM -100000 -179968 -100000 -100000 -100000 -100000
5/24/2021 6:00:00 AM -100000 -179968 -100000 -100000 -100000 -100000
5/24/2021 6:15:00 AM -100000 -179968 -100000 -100000 -100000 -100000
5/24/2021 6:30:00 AM -100000 -179968 -100000 -100000 -100000 -100000
5/24/2021 6:45:00 AM -100000 -179968 -100000 -100000 -100000 -100000
5/24/2021 7:00:00 AM -100000 -179968 -100000 -100000 -100000 -100000
5/24/2021 7:15:00 AM -100000 -179968 -100000 -100000 -100000 -100000
5/24/2021 7:30:00 AM -100000 -179968 -100000 -100000 -100000 -100000
5/24/2021 7:45:00 AM -100000 -179968 -100000 -100000 -100000 -100000
5/24/2021 8:00:00 AM -100000 -179968 -100000 -100000 -100000 -100000
5/24/2021 8:15:00 AM -100000 -179968 -100000 -100000 -100000 -100000
5/24/2021 8:30:00 AM -100000 -179968 -100000 -100000 -100000 -100000
5/24/2021 8:45:00 AM -100000 -179968 -100000 -100000 -100000 -100000
5/24/2021 9:00:00 AM -100000 -179968 -100000 -100000 -100000 -100000
5/24/2021 9:15:00 AM -100000 -179968 -100000 -100000 -100000 -100000
5/24/2021 9:30:00 AM -100000 -179968 -100000 -100000 -100000 -100000
5/24/2021 9:45:00 AM -100000 -179968 -100000 -100000 -100000 -100000
5/24/2021 10:00:00 AM -100000 -179968 -100000 -100000 -100000 -100000
5/24/2021 10:15:00 AM -100000 -179968 -100000 -100000 -100000 -100000
5/24/2021 10:30:00 AM -100000 -179968 -100000 -100000 -100000 -100000
5/24/2021 10:45:00 AM -100000 -179968 -100000 -100000 -100000 -100000
5/24/2021 11:00:00 AM -100000 -179968 -100000 -100000 -100000 -100000
5/24/2021 11:15:00 AM -100000 -179968 -100000 -100000 -100000 -100000
5/24/2021 11:30:00 AM -100000 -179968 -100000 -100000 -100000 -100000
5/24/2021 11:45:00 AM -100000 -179968 -100000 -100000 -100000 -100000
5/24/2021 12:00:00 PM -100000 -179968 -100000 -100000 -100000 -100000
5/24/2021 12:15:00 PM -100000 -179968 -100000 -100000 -100000 -100000
5/24/2021 12:30:00 PM -100000 -179968 -100000 -100000 -100000 -100000
5/24/2021 12:45:00 PM -100000 -179968 -100000 -100000 -100000 -100000
5/24/2021 1:00:00 PM -100000 -179968 -100000 -100000 -100000 -100000
5/24/2021 1:15:00 PM -100000 -179968 -100000 -100000 -100000 -100000
5/24/2021 1:30:00 PM -100000 -179968 -100000 -100000 -100000 -100000
5/24/2021 1:45:00 PM -100000 -179968 -100000 -100000 -100000 -100000
5/24/2021 2:00:00 PM -100000 -179968 -100000 -100000 -100000 -100000
5/24/2021 2:15:00 PM -100000 -179968 -100000 -100000 -100000 -100000
5/24/2021 2:30:00 PM -100000 -179968 -100000 -100000 -100000 -100000
5/24/2021 2:45:00 PM -100000 -179968 -100000 -100000 -100000 -100000
5/24/2021 3:00:00 PM -100000 -179968 -100000 -100000 -100000 -100000
5/24/2021 3:15:00 PM -100000 -179968 -100000 -100000 -100000 -100000
5/24/2021 3:30:00 PM -100000 -179968 -100000 -100000 -100000 -100000
5/24/2021 3:45:00 PM -100000 -179968 -100000 -100000 -100000 -100000
5/24/2021 4:00:00 PM -100000 -179968 -100000 -100000 -100000 -100000
5/24/2021 4:15:00 PM -100000 -179968 -100000 -100000 -100000 -100000
5/24/2021 4:30:00 PM -100000 -179968 -100000 -100000 -100000 -100000
5/24/2021 4:45:00 PM -100000 -179968 -100000 -100000 -100000 -100000
5/24/2021 5:00:00 PM -100000 -179968 -100000 -100000 -100000 -100000
5/24/2021 5:15:00 PM -100000 -179968 -100000 -100000 -100000 -100000
5/24/2021 5:30:00 PM -100000 -179968 -100000 -100000 -100000 -100000
5/24/2021 5:45:00 PM -100000 -179968 -100000 -100000 -100000 -100000
5/24/2021 6:00:00 PM -100000 -179968 -100000 -100000 -100000 -100000
5/24/2021 6:15:00 PM -100000 -179968 -100000 -100000 -100000 -100000
5/24/2021 6:30:00 PM -100000 -179968 -100000 -100000 -100000 -100000
5/24/2021 6:45:00 PM -100000 -179968 -100000 -100000 -100000 -100000
5/24/2021 7:00:00 PM -100000 -179968 -100000 -100000 -100000 -100000
5/24/2021 7:15:00 PM -100000 -179968 -100000 -100000 -100000 -100000
5/24/2021 7:30:00 PM -100000 -179968 -100000 -100000 -100000 -100000
5/24/2021 7:45:00 PM -100000 -179968 -100000 -100000 -100000 -100000
5/24/2021 8:00:00 PM -100000 -179968 -100000 -100000 -100000 -100000
5/24/2021 8:15:00 PM -100000 -179968 -100000 -100000 -100000 -100000
5/24/2021 8:30:00 PM -100000 -179968 -100000 -100000 -100000 -100000
5/24/2021 8:45:00 PM -100000 -179968 -100000 -100000 -100000 -100000
5/24/2021 9:00:00 PM -100000 -179968 -100000 -100000 -100000 -100000
5/24/2021 9:15:00 PM -100000 -179968 -100000 -100000 -100000 -100000
5/24/2021 9:30:00 PM -100000 -179968 -100000 -100000 -100000 -100000
5/24/2021 9:45:00 PM -100000 -179968 -100000 -100000 -100000 -100000
5/24/2021 10:00:00 PM -100000 -179968 -100000 -100000 -100000 -100000
5/24/2021 10:15:00 PM -100000 -179968 -100000 -100000 -100000 -100000
5/24/2021 10:30:00 PM -100000 -179968 -100000 -100000 -100000 -100000
5/24/2021 10:45:00 PM -100000 -179968 -100000 -100000 -100000 -100000
5/24/2021 11:00:00 PM -100000 -179968 -100000 -100000 -100000 -100000
5/24/2021 11:15:00 PM -100000 -179968 -100000 -100000 -100000 -100000
5/24/2021 11:30:00 PM -100000 -179968 -100000 -100000 -100000 -100000
5/24/2021 11:45:00 PM -100000 -179968 -100000 -100000 -100000 -100000
5/25/2021 12:00:00 AM -100000 -179968 -100000 -100000 -100000 -100000
5/25/2021 12:15:00 AM -100000 -179968 -100000 -100000 -100000 -100000
5/25/2021 12:30:00 AM -100000 -179968 -100000 -100000 -100000 -100000
5/25/2021 12:45:00 AM -100000 -179968 -100000 -100000 -100000 -100000
5/25/2021 1:00:00 AM -100000 -179968 -100000 -100000 -100000 -100000
5/25/2021 1:15:00 AM -100000 -179968 -100000 -100000 -100000 -100000
5/25/2021 1:30:00 AM -100000 -179968 -100000 -100000 -100000 -100000
5/25/2021 1:45:00 AM -100000 -179968 -100000 -100000 -100000 -100000
5/25/2021 2:00:00 AM -100000 -179968 -100000 -100000 -100000 -100000
5/25/2021 2:15:00 AM -100000 -179968 -100000 -100000 -100000 -100000
5/25/2021 2:30:00 AM -100000 -179968 -100000 -100000 -100000 -100000
5/25/2021 2:45:00 AM -100000 -179968 -100000 -100000 -100000 -100000
5/25/2021 3:00:00 AM -100000 -179968 -100000 -100000 -100000 -100000
5/25/2021 3:15:00 AM -100000 -179968 -100000 -100000 -100000 -100000
5/25/2021 3:30:00 AM -100000 -179968 -100000 -100000 -100000 -100000
5/25/2021 3:45:00 AM -100000 -179968 -100000 -100000 -100000 -100000
5/25/2021 4:00:00 AM -100000 -179968 -100000 -100000 -100000 -100000
5/25/2021 4:15:00 AM -100000 -179968 -100000 -100000 -100000 -100000
5/25/2021 4:30:00 AM -100000 -179968 -100000 -100000 -100000 -100000
5/25/2021 4:45:00 AM -100000 -179968 -100000 -100000 -100000 -100000
5/25/2021 5:00:00 AM -100000 -179968 -100000 -100000 -100000 -100000
5/25/2021 5:15:00 AM -100000 -179968 -100000 -100000 -100000 -100000
5/25/2021 5:30:00 AM -100000 -179968 -100000 -100000 -100000 -100000
5/25/2021 5:45:00 AM -100000 -179968 -100000 -100000 -100000 -100000
5/25/2021 6:00:00 AM -100000 -179968 -100000 -100000 -100000 -100000
5/25/2021 6:15:00 AM -100000 -179968 -100000 -100000 -100000 -100000
5/25/2021 6:30:00 AM -100000 -179968 -100000 -100000 -100000 -100000
5/25/2021 6:45:00 AM -100000 -179968 -100000 -100000 -100000 -100000
5/25/2021 7:00:00 AM -100000 -179968 -100000 -100000 -100000 -100000
5/25/2021 7:15:00 AM -100000 -179968 -100000 -100000 -100000 -100000
5/25/2021 7:30:00 AM -100000 -179968 -100000 -100000 -100000 -100000
5/25/2021 7:45:00 AM -100000 -179968 -100000 -100000 -100000 -100000
5/25/2021 8:00:00 AM -100000 -179968 -100000 -100000 -100000 -100000
5/25/2021 8:15:00 AM -100000 -179968 -100000 -100000 -100000 -100000
5/25/2021 8:30:00 AM -100000 -179968 -100000 -100000 -100000 -100000
5/25/2021 8:45:00 AM -100000 -179968 -100000 -100000 -100000 -100000
5/25/2021 9:00:00 AM -100000 -179968 -100000 -100000 -100000 -100000
5/25/2021 9:15:00 AM -100000 -179968 -100000 -100000 -100000 -100000
5/25/2021 9:30:00 AM -100000 -179968 -100000 -100000 -100000 -100000
5/25/2021 9:45:00 AM -100000 -179968 -100000 -100000 -100000 -100000
5/25/2021 10:00:00 AM -100000 -179968 -100000 -100000 -100000 -100000
5/25/2021 10:15:00 AM -100000 -179968 -100000 -100000 -100000 -100000
5/25/2021 10:30:00 AM -100000 -179968 -100000 -100000 -100000 -100000
5/25/2021 10:45:00 AM -100000 -179968 -100000 -100000 -100000 -100000
5/25/2021 11:00:00 AM -100000 -179968 -100000 -100000 -100000 -100000
5/25/2021 11:15:00 AM -100000 -179968 -100000 -100000 -100000 -100000
5/25/2021 11:30:00 AM -100000 -179968 -100000 -100000 -100000 -100000
5/25/2021 11:45:00 AM -100000 -179968 -100000 -100000 -100000 -100000
5/25/2021 12:00:00 PM -100000 -179968 -100000 -100000 -100000 -100000
5/25/2021 12:15:00 PM -100000 -179968 -100000 -100000 -100000 -100000
5/25/2021 12:30:00 PM -100000 -179968 -100000 -100000 -100000 -100000
5/25/2021 12:45:00 PM -100000 -179968 -100000 -100000 -100000 -100000
5/25/2021 1:00:00 PM -100000 -179968 -100000 -100000 -100000 -100000
5/25/2021 1:15:00 PM -100000 -179968 -100000 -100000 -100000 -100000
5/25/2021 1:30:00 PM -100000 -179968 -100000 -100000 -100000 -100000
5/25/2021 1:45:00 PM -100000 -179968 -100000 -100000 -100000 -100000
5/25/2021 2:00:00 PM -100000 -179968 -100000 -100000 -100000 -100000
5/25/2021 2:15:00 PM -100000 -179968 -100000 -100000 -100000 -100000
5/25/2021 2:30:00 PM -100000 -179968 -100000 -100000 -100000 -100000
5/25/2021 2:45:00 PM -100000 -179968 -100000 -100000 -100000 -100000
5/25/2021 3:00:00 PM -100000 -179968 -100000 -100000 -100000 -100000
5/25/2021 3:15:00 PM -100000 -179968 -100000 -100000 -100000 -100000
5/25/2021 3:30:00 PM -100000 -179968 -100000 -100000 -100000 -100000
5/25/2021 3:45:00 PM -100000 -179968 -100000 -100000 -100000 -100000
5/25/2021 4:00:00 PM -100000 -179968 -100000 -100000 -100000 -100000
5/25/2021 4:15:00 PM -100000 -179968 -100000 -100000 -100000 -100000
5/25/2021 4:30:00 PM -100000 -179968 -100000 -100000 -100000 -100000
5/25/2021 4:45:00 PM -100000 -179968 -100000 -100000 -100000 -100000
5/25/2021 5:00:00 PM -100000 -179968 -100000 -100000 -100000 -100000
5/25/2021 5:15:00 PM -100000 -179968 -100000 -100000 -100000 -100000
5/25/2021 5:30:00 PM -100000 -179968 -100000 -100000 -100000 -100000
5/25/2021 5:45:00 PM -100000 -179968 -100000 -100000 -100000 -100000
5/25/2021 6:00:00 PM -100000 -179968 -100000 -100000 -100000 -100000
5/25/2021 6:15:00 PM -100000 -179968 -100000 -100000 -100000 -100000
5/25/2021 6:30:00 PM -100000 -179968 -100000 -100000 -100000 -100000
5/25/2021 6:45:00 PM -100000 -179968 -100000 -100000 -100000 -100000
5/25/2021 7:00:00 PM -100000 -179968 -100000 -100000 -100000 -100000
5/25/2021 7:15:00 PM -100000 -179968 -100000 -100000 -100000 -100000
5/25/2021 7:30:00 PM -100000 -179968 -100000 -100000 -100000 -100000
5/25/2021 7:45:00 PM -100000 -179968 -100000 -100000 -100000 -100000
5/25/2021 8:00:00 PM -100000 -179968 -100000 -100000 -100000 -100000
5/25/2021 8:15:00 PM -100000 -179968 -100000 -100000 -100000 -100000
5/25/2021 8:30:00 PM -100000 -179968 -100000 -100000 -100000 -100000
5/25/2021 8:45:00 PM -100000 -179968 -100000 -100000 -100000 -100000
5/25/2021 9:00:00 PM -100000 -179968 -100000 -100000 -100000 -100000
5/25/2021 9:15:00 PM -100000 -179968 -100000 -100000 -100000 -100000
5/25/2021 9:30:00 PM -100000 -179968 -100000 -100000 -100000 -100000
5/25/2021 9:45:00 PM -100000 -179968 -100000 -100000 -100000 -100000
5/25/2021 10:00:00 PM -100000 -179968 -100000 -100000 -100000 -100000
5/25/2021 10:15:00 PM -100000 -179968 -100000 -100000 -100000 -100000
5/25/2021 10:30:00 PM -100000 -179968 -100000 -100000 -100000 -100000
5/25/2021 10:45:00 PM -100000 -179968 -100000 -100000 -100000 -100000
5/25/2021 11:00:00 PM -100000 -179968 -100000 -100000 -100000 -100000
5/25/2021 11:15:00 PM -100000 -179968 -100000 -100000 -100000 -100000
5/25/2021 11:30:00 PM -100000 -179968 -100000 -100000 -100000 -100000
5/25/2021 11:45:00 PM -100000 -179968 -100000 -100000 -100000 -100000
5/26/2021 12:00:00 AM -100000 -179968 -100000 -100000 -100000 -100000
5/26/2021 12:15:00 AM -100000 -179968 -100000 -100000 -100000 -100000
5/26/2021 12:30:00 AM -100000 -179968 -100000 -100000 -100000 -100000
5/26/2021 12:45:00 AM -100000 -179968 -100000 -100000 -100000 -100000
5/26/2021 1:00:00 AM -100000 -179968 -100000 -100000 -100000 -100000
5/26/2021 1:15:00 AM -100000 -179968 -100000 -100000 -100000 -100000
5/26/2021 1:30:00 AM -100000 -179968 -100000 -100000 -100000 -100000
5/26/2021 1:45:00 AM -100000 -179968 -100000 -100000 -100000 -100000
5/26/2021 2:00:00 AM -100000 -179968 -100000 -100000 -100000 -100000
5/26/2021 2:15:00 AM -100000 -179968 -100000 -100000 -100000 -100000
5/26/2021 2:30:00 AM -100000 -179968 -100000 -100000 -100000 -100000
5/26/2021 2:45:00 AM -100000 -179968 -100000 -100000 -100000 -100000
5/26/2021 3:00:00 AM -100000 -179968 -100000 -100000 -100000 -100000
5/26/2021 3:15:00 AM -100000 -179968 -100000 -100000 -100000 -100000
5/26/2021 3:30:00 AM -100000 -179968 -100000 -100000 -100000 -100000
5/26/2021 3:45:00 AM -100000 -179968 -100000 -100000 -100000 -100000
5/26/2021 4:00:00 AM -100000 -179968 -100000 -100000 -100000 -100000
5/26/2021 4:15:00 AM -100000 -179968 -100000 -100000 -100000 -100000
5/26/2021 4:30:00 AM -100000 -179968 -100000 -100000 -100000 -100000
5/26/2021 4:45:00 AM -100000 -179968 -100000 -100000 -100000 -100000
5/26/2021 5:00:00 AM -100000 -179968 -100000 -100000 -100000 -100000
5/26/2021 5:15:00 AM -100000 -179968 -100000 -100000 -100000 -100000
5/26/2021 5:30:00 AM -100000 -179968 -100000 -100000 -100000 -100000
5/26/2021 5:45:00 AM -100000 -179968 -100000 -100000 -100000 -100000
5/26/2021 6:00:00 AM -100000 -179968 -100000 -100000 -100000 -100000
5/26/2021 6:15:00 AM -100000 -179968 -100000 -100000 -100000 -100000
5/26/2021 6:30:00 AM -100000 -179968 -100000 -100000 -100000 -100000
5/26/2021 6:45:00 AM -100000 -179968 -100000 -100000 -100000 -100000
5/26/2021 7:00:00 AM -100000 -179968 -100000 -100000 -100000 -100000
5/26/2021 7:15:00 AM -100000 -179968 -100000 -100000 -100000 -100000
5/26/2021 7:30:00 AM -100000 -179968 -100000 -100000 -100000 -100000
5/26/2021 7:45:00 AM -100000 -179968 -100000 -100000 -100000 -100000
5/26/2021 8:00:00 AM -100000 -179968 -100000 -100000 -100000 -100000
5/26/2021 8:15:00 AM -100000 -179968 -100000 -100000 -100000 -100000
5/26/2021 8:30:00 AM -100000 -179968 -100000 -100000 -100000 -100000
5/26/2021 8:45:00 AM -100000 -179968 -100000 -100000 -100000 -100000
5/26/2021 9:00:00 AM -100000 -179968 -100000 -100000 -100000 -100000
5/26/2021 9:15:00 AM -100000 -179968 -100000 -100000 -100000 -100000
5/26/2021 9:30:00 AM -100000 -179968 -100000 -100000 -100000 -100000
5/26/2021 9:45:00 AM -100000 -179968 -100000 -100000 -100000 -100000
5/26/2021 10:00:00 AM -100000 -179968 -100000 -100000 -100000 -100000
5/26/2021 10:15:00 AM -100000 -179968 -100000 -100000 -100000 -100000
5/26/2021 10:30:00 AM -100000 -179968 -100000 -100000 -100000 -100000
5/26/2021 10:45:00 AM -100000 -179968 -100000 -100000 -100000 -100000
5/26/2021 11:00:00 AM -100000 -179968 -100000 -100000 -100000 -100000
5/26/2021 11:15:00 AM -100000 -179968 -100000 -100000 -100000 -100000
5/26/2021 11:30:00 AM -100000 -179968 -100000 -100000 -100000 -100000
5/26/2021 11:45:00 AM -100000 -179968 -100000 -100000 -100000 -100000
5/26/2021 12:00:00 PM -100000 -179968 -100000 -100000 -100000 -100000
5/26/2021 12:15:00 PM -100000 -179968 -100000 -100000 -100000 -100000
5/26/2021 12:30:00 PM -100000 -179968 -100000 -100000 -100000 -100000
5/26/2021 12:45:00 PM -100000 -179968 -100000 -100000 -100000 -100000
5/26/2021 1:00:00 PM -100000 -179968 -100000 -100000 -100000 -100000
5/26/2021 1:15:00 PM -100000 -179968 -100000 -100000 -100000 -100000
5/26/2021 1:30:00 PM -100000 -179968 -100000 -100000 -100000 -100000
5/26/2021 1:45:00 PM -100000 -179968 -100000 -100000 -100000 -100000
5/26/2021 2:00:00 PM -100000 -179968 -100000 -100000 -100000 -100000
5/26/2021 2:15:00 PM -100000 -179968 -100000 -100000 -100000 -100000
5/26/2021 2:30:00 PM -100000 -179968 -100000 -100000 -100000 -100000
5/26/2021 2:45:00 PM -100000 -179968 -100000 -100000 -100000 -100000
5/26/2021 3:00:00 PM -100000 -179968 -100000 -100000 -100000 -100000
5/26/2021 3:15:00 PM -100000 -179968 -100000 -100000 -100000 -100000
5/26/2021 3:30:00 PM -100000 -179968 -100000 -100000 -100000 -100000
5/26/2021 3:45:00 PM -100000 -179968 -100000 -100000 -100000 -100000
5/26/2021 4:00:00 PM -100000 -179968 -100000 -100000 -100000 -100000
5/26/2021 4:15:00 PM -100000 -179968 -100000 -100000 -100000 -100000
5/26/2021 4:30:00 PM -100000 -179968 -100000 -100000 -100000 -100000
5/26/2021 4:45:00 PM -100000 -179968 -100000 -100000 -100000 -100000
5/26/2021 5:00:00 PM -100000 -179968 -100000 -100000 -100000 -100000
5/26/2021 5:15:00 PM -100000 -179968 -100000 -100000 -100000 -100000
5/26/2021 5:30:00 PM -100000 -179968 -100000 -100000 -100000 -100000
5/26/2021 5:45:00 PM -100000 -179968 -100000 -100000 -100000 -100000
5/26/2021 6:00:00 PM -100000 -179968 -100000 -100000 -100000 -100000
5/26/2021 6:15:00 PM -100000 -179968 -100000 -100000 -100000 -100000
5/26/2021 6:30:00 PM -100000 -179968 -100000 -100000 -100000 -100000
5/26/2021 6:45:00 PM -100000 -179968 -100000 -100000 -100000 -100000
5/26/2021 7:00:00 PM -100000 -179968 -100000 -100000 -100000 -100000
5/26/2021 7:15:00 PM -100000 -179968 -100000 -100000 -100000 -100000
5/26/2021 7:30:00 PM -100000 -179968 -100000 -100000 -100000 -100000
5/26/2021 7:45:00 PM -100000 -179968 -100000 -100000 -100000 -100000
5/26/2021 8:00:00 PM -100000 -179968 -100000 -100000 -100000 -100000
5/26/2021 8:15:00 PM -100000 -179968 -100000 -100000 -100000 -100000
5/26/2021 8:30:00 PM -100000 -179968 -100000 -100000 -100000 -100000
5/26/2021 8:45:00 PM -100000 -179968 -100000 -100000 -100000 -100000
5/26/2021 9:00:00 PM -100000 -179968 -100000 -100000 -100000 -100000
5/26/2021 9:15:00 PM -100000 -179968 -100000 -100000 -100000 -100000
5/26/2021 9:30:00 PM -100000 -179968 -100000 -100000 -100000 -100000
5/26/2021 9:45:00 PM -100000 -179968 -100000 -100000 -100000 -100000
5/26/2021 10:00:00 PM -100000 -179968 -100000 -100000 -100000 -100000
5/26/2021 10:15:00 PM -100000 -179968 -100000 -100000 -100000 -100000
5/26/2021 10:30:00 PM -100000 -179968 -100000 -100000 -100000 -100000
5/26/2021 10:45:00 PM -100000 -179968 -100000 -100000 -100000 -100000
5/26/2021 11:00:00 PM -100000 -179968 -100000 -100000 -100000 -100000
5/26/2021 11:15:00 PM -100000 -179968 -100000 -100000 -100000 -100000
5/26/2021 11:30:00 PM -100000 -179968 -100000 -100000 -100000 -100000
5/26/2021 11:45:00 PM -100000 -179968 -100000 -100000 -100000 -100000
5/27/2021 12:00:00 AM -100000 -179968 -100000 -100000 -100000 -100000
5/27/2021 12:15:00 AM -100000 -179968 -100000 -100000 -100000 -100000
5/27/2021 12:30:00 AM -100000 -179968 -100000 -100000 -100000 -100000
5/27/2021 12:45:00 AM -100000 -179968 -100000 -100000 -100000 -100000
5/27/2021 1:00:00 AM -100000 -179968 -100000 -100000 -100000 -100000
5/27/2021 1:15:00 AM -100000 -179968 -100000 -100000 -100000 -100000
5/27/2021 1:30:00 AM -100000 -179968 -100000 -100000 -100000 -100000
5/27/2021 1:45:00 AM -100000 -179968 -100000 -100000 -100000 -100000
5/27/2021 2:00:00 AM -100000 -179968 -100000 -100000 -100000 -100000
5/27/2021 2:15:00 AM -100000 -179968 -100000 -100000 -100000 -100000
5/27/2021 2:30:00 AM -100000 -179968 -100000 -100000 -100000 -100000
5/27/2021 2:45:00 AM -100000 -179968 -100000 -100000 -100000 -100000
5/27/2021 3:00:00 AM -100000 -179968 -100000 -100000 -100000 -100000
5/27/2021 3:15:00 AM -100000 -179968 -100000 -100000 -100000 -100000
5/27/2021 3:30:00 AM -100000 -179968 -100000 -100000 -100000 -100000
5/27/2021 3:45:00 AM -100000 -179968 -100000 -100000 -100000 -100000
5/27/2021 4:00:00 AM -100000 -179968 -100000 -100000 -100000 -100000
5/27/2021 4:15:00 AM -100000 -179968 -100000 -100000 -100000 -100000
5/27/2021 4:30:00 AM -100000 -179968 -100000 -100000 -100000 -100000
5/27/2021 4:45:00 AM -100000 -179968 -100000 -100000 -100000 -100000
5/27/2021 5:00:00 AM -100000 -179968 -100000 -100000 -100000 -100000
5/27/2021 5:15:00 AM -100000 -179968 -100000 -100000 -100000 -100000
5/27/2021 5:30:00 AM -100000 -179968 -100000 -100000 -100000 -100000
5/27/2021 5:45:00 AM -100000 -179968 -100000 -100000 -100000 -100000
5/27/2021 6:00:00 AM -100000 -179968 -100000 -100000 -100000 -100000
5/27/2021 6:15:00 AM -100000 -179968 -100000 -100000 -100000 -100000
5/27/2021 6:30:00 AM -100000 -179968 -100000 -100000 -100000 -100000
5/27/2021 6:45:00 AM -100000 -179968 -100000 -100000 -100000 -100000
5/27/2021 7:00:00 AM -100000 -179968 -100000 -100000 -100000 -100000
5/27/2021 7:15:00 AM -100000 -179968 -100000 -100000 -100000 -100000
5/27/2021 7:30:00 AM -100000 -179968 -100000 -100000 -100000 -100000
5/27/2021 7:45:00 AM -100000 -179968 -100000 -100000 -100000 -100000
5/27/2021 8:00:00 AM -100000 -179968 -100000 -100000 -100000 -100000
5/27/2021 8:15:00 AM -100000 -179968 -100000 -100000 -100000 -100000
5/27/2021 8:30:00 AM -100000 -179968 -100000 -100000 -100000 -100000
5/27/2021 8:45:00 AM -100000 -179968 -100000 -100000 -100000 -100000
5/27/2021 9:00:00 AM -100000 -179968 -100000 -100000 -100000 -100000
5/27/2021 9:15:00 AM -100000 -179968 -100000 -100000 -100000 -100000
5/27/2021 9:30:00 AM -100000 -179968 -100000 -100000 -100000 -100000
5/27/2021 9:45:00 AM -100000 -179968 -100000 -100000 -100000 -100000
5/27/2021 10:00:00 AM -100000 -179968 -100000 -100000 -100000 -100000
5/27/2021 10:15:00 AM -100000 -179968 -100000 -100000 -100000 -100000
5/27/2021 10:30:00 AM -100000 -179968 -100000 -100000 -100000 -100000
5/27/2021 10:45:00 AM -100000 -179968 -100000 -100000 -100000 -100000
5/27/2021 11:00:00 AM -100000 -179968 -100000 -100000 -100000 -100000
5/27/2021 11:15:00 AM -100000 -179968 -100000 -100000 -100000 -100000
5/27/2021 11:30:00 AM -100000 -179968 -100000 -100000 -100000 -100000
5/27/2021 11:45:00 AM -100000 -179968 -100000 -100000 -100000 -100000
5/27/2021 12:00:00 PM -100000 -179968 -100000 -100000 -100000 -100000
5/27/2021 12:15:00 PM -100000 -179968 -100000 -100000 -100000 -100000
5/27/2021 12:30:00 PM -100000 -179968 -100000 -100000 -100000 -100000
5/27/2021 12:45:00 PM -100000 -179968 -100000 -100000 -100000 -100000
5/27/2021 1:00:00 PM -100000 -179968 -100000 -100000 -100000 -100000
5/27/2021 1:15:00 PM -100000 -179968 -100000 -100000 -100000 -100000
5/27/2021 1:30:00 PM -100000 -179968 -100000 -100000 -100000 -100000
5/27/2021 1:45:00 PM -100000 -179968 -100000 -100000 -100000 -100000
5/27/2021 2:00:00 PM -100000 -179968 -100000 -100000 -100000 -100000
5/27/2021 2:15:00 PM -100000 -179968 -100000 -100000 -100000 -100000
5/27/2021 2:30:00 PM -100000 -179968 -100000 -100000 -100000 -100000
5/27/2021 2:45:00 PM -100000 -179968 -100000 -100000 -100000 -100000
5/27/2021 3:00:00 PM -100000 -179968 -100000 -100000 -100000 -100000
5/27/2021 3:15:00 PM -100000 -179968 -100000 -100000 -100000 -100000
5/27/2021 3:30:00 PM -100000 -179968 -100000 -100000 -100000 -100000
5/27/2021 3:45:00 PM -100000 -179968 -100000 -100000 -100000 -100000
5/27/2021 4:00:00 PM -100000 -179968 -100000 -100000 -100000 -100000
5/27/2021 4:15:00 PM -100000 -179968 -100000 -100000 -100000 -100000
5/27/2021 4:30:00 PM -100000 -179968 -100000 -100000 -100000 -100000
5/27/2021 4:45:00 PM -100000 -179968 -100000 -100000 -100000 -100000
5/27/2021 5:00:00 PM -100000 -179968 -100000 -100000 -100000 -100000
5/27/2021 5:15:00 PM -100000 -179968 -100000 -100000 -100000 -100000
5/27/2021 5:30:00 PM -100000 -179968 -100000 -100000 -100000 -100000
5/27/2021 5:45:00 PM -100000 -179968 -100000 -100000 -100000 -100000
5/27/2021 6:00:00 PM -100000 -179968 -100000 -100000 -100000 -100000
5/27/2021 6:15:00 PM -100000 -179968 -100000 -100000 -100000 -100000
5/27/2021 6:30:00 PM -100000 -179968 -100000 -100000 -100000 -100000
5/27/2021 6:45:00 PM -100000 -179968 -100000 -100000 -100000 -100000
5/27/2021 7:00:00 PM -100000 -179968 -100000 -100000 -100000 -100000
5/27/2021 7:15:00 PM -100000 -179968 -100000 -100000 -100000 -100000
5/27/2021 7:30:00 PM -100000 -179968 -100000 -100000 -100000 -100000
5/27/2021 7:45:00 PM -100000 -179968 -100000 -100000 -100000 -100000
5/27/2021 8:00:00 PM -100000 -179968 -100000 -100000 -100000 -100000
5/27/2021 8:15:00 PM -100000 -179968 -100000 -100000 -100000 -100000
5/27/2021 8:30:00 PM -100000 -179968 -100000 -100000 -100000 -100000
5/27/2021 8:45:00 PM -100000 -179968 -100000 -100000 -100000 -100000
5/27/2021 9:00:00 PM -100000 -179968 -100000 -100000 -100000 -100000
5/27/2021 9:15:00 PM -100000 -179968 -100000 -100000 -100000 -100000
5/27/2021 9:30:00 PM -100000 -179968 -100000 -100000 -100000 -100000
5/27/2021 9:45:00 PM -100000 -179968 -100000 -100000 -100000 -100000
5/27/2021 10:00:00 PM -100000 -179968 -100000 -100000 -100000 -100000
5/27/2021 10:15:00 PM -100000 -179968 -100000 -100000 -100000 -100000
5/27/2021 10:30:00 PM -100000 -179968 -100000 -100000 -100000 -100000
5/27/2021 10:45:00 PM -100000 -179968 -100000 -100000 -100000 -100000
5/27/2021 11:00:00 PM -100000 -179968 -100000 -100000 -100000 -100000
5/27/2021 11:15:00 PM -100000 -179968 -100000 -100000 -100000 -100000
5/27/2021 11:30:00 PM -100000 -179968 -100000 -100000 -100000 -100000
5/27/2021 11:45:00 PM -100000 -179968 -100000 -100000 -100000 -100000
5/28/2021 12:00:00 AM -100000 -179968 -100000 -100000 -100000 -100000
5/28/2021 12:15:00 AM -100000 -179968 -100000 -100000 -100000 -100000
5/28/2021 12:30:00 AM -100000 -179968 -100000 -100000 -100000 -100000
5/28/2021 12:45:00 AM -100000 -179968 -100000 -100000 -100000 -100000
5/28/2021 1:00:00 AM -100000 -179968 -100000 -100000 -100000 -100000
5/28/2021 1:15:00 AM -100000 -179968 -100000 -100000 -100000 -100000
5/28/2021 1:30:00 AM -100000 -179968 -100000 -100000 -100000 -100000
5/28/2021 1:45:00 AM -100000 -179968 -100000 -100000 -100000 -100000
5/28/2021 2:00:00 AM -100000 -179968 -100000 -100000 -100000 -100000
5/28/2021 2:15:00 AM -100000 -179968 -100000 -100000 -100000 -100000
5/28/2021 2:30:00 AM -100000 -179968 -100000 -100000 -100000 -100000
5/28/2021 2:45:00 AM -100000 -179968 -100000 -100000 -100000 -100000
5/28/2021 3:00:00 AM -100000 -179968 -100000 -100000 -100000 -100000
5/28/2021 3:15:00 AM -100000 -179968 -100000 -100000 -100000 -100000
5/28/2021 3:30:00 AM -100000 -179968 -100000 -100000 -100000 -100000
5/28/2021 3:45:00 AM -100000 -179968 -100000 -100000 -100000 -100000
5/28/2021 4:00:00 AM -100000 -179968 -100000 -100000 -100000 -100000
5/28/2021 4:15:00 AM -100000 -179968 -100000 -100000 -100000 -100000
5/28/2021 4:30:00 AM -100000 -179968 -100000 -100000 -100000 -100000
5/28/2021 4:45:00 AM -100000 -179968 -100000 -100000 -100000 -100000
5/28/2021 5:00:00 AM -100000 -179968 -100000 -100000 -100000 -100000
5/28/2021 5:15:00 AM -100000 -179968 -100000 -100000 -100000 -100000
5/28/2021 5:30:00 AM